Provisional Data: Driftwood Branch Sinnemahoning Creek


Please select a monitoring station.
Please select start date.
Please select start date.

Toggle Unit: C/F Toggle Unit: C/F
Sample Time Temperature (C) Temperature (F) Specific Conductivity (mS/cm) pH   Turbidity (NTU+) DO (mg/L)
12/11/2021 12:00:00 AM 4.86 40.748 0.051 6.94 2.46 12.23
12/11/2021 12:15:00 AM 4.86 40.748 0.051 6.93 2.48 12.24
12/11/2021 12:30:00 AM 4.85 40.73 0.051 6.94 2.48 12.24
12/11/2021 12:45:00 AM 4.84 40.712 0.051 6.93 2.37 12.24
12/11/2021 1:00:00 AM 4.84 40.712 0.051 6.93 2.45 12.23
12/11/2021 1:15:00 AM 4.84 40.712 0.051 6.93 2.28 12.23
12/11/2021 1:30:00 AM 4.84 40.712 0.051 6.93 2.51 12.22
12/11/2021 1:45:00 AM 4.84 40.712 0.051 6.93 2.54 12.23
12/11/2021 2:00:00 AM 4.85 40.73 0.051 6.93 2.4 12.22
12/11/2021 2:15:00 AM 4.85 40.73 0.051 6.93 2.47 12.21
12/11/2021 2:30:00 AM 4.86 40.748 0.051 6.93 2.46 12.2
12/11/2021 2:45:00 AM 4.87 40.766 0.051 6.94 2.51 12.21
12/11/2021 3:00:00 AM 4.89 40.802 0.051 6.93 2.45 12.2
12/11/2021 3:15:00 AM 4.9 40.82 0.051 6.93 2.49 12.18
12/11/2021 3:30:00 AM 4.92 40.856 0.051 6.94 2.47 12.18
12/11/2021 3:45:00 AM 4.92 40.856 0.064 6.94 4.01 12.18
12/11/2021 4:00:00 AM 4.93 40.874 0.055 6.94 3.2 12.17
12/11/2021 4:15:00 AM 4.94 40.892 0.054 6.94 3.42 12.16
12/11/2021 4:30:00 AM 4.96 40.928 0.052 6.94 3.08 12.15
12/11/2021 4:45:00 AM 4.97 40.946 0.053 6.94 3.42 12.13
12/11/2021 5:00:00 AM 4.98 40.964 0.052 6.93 3.41 12.12
12/11/2021 5:15:00 AM 5 41 0.052 6.93 3.4 12.12
12/11/2021 5:30:00 AM 5.02 41.036 0.054 6.95 5.73 12.11
12/11/2021 5:45:00 AM 5.04 41.072 0.052 6.94 4.36 12.1
12/11/2021 6:00:00 AM 5.05 41.09 0.052 6.93 4.58 12.09
12/11/2021 6:15:00 AM 5.08 41.144 0.052 6.94 5.66 12.08
12/11/2021 6:30:00 AM 5.1 41.18 0.052 6.94 6.79 12.07
12/11/2021 6:45:00 AM 5.12 41.216 0.051 6.94 8.18 12.05
12/11/2021 7:00:00 AM 5.15 41.27 0.052 6.94 8.93 12.05
12/11/2021 7:15:00 AM 5.18 41.324 0.052 6.94 11.63 12.04
12/11/2021 7:30:00 AM 5.21 41.378 0.053 6.94 15.74 12.04
12/11/2021 7:45:00 AM 5.23 41.414 0.054 6.95 17.29 12.03
12/11/2021 8:00:00 AM 5.26 41.468 0.054 6.95 20.25 12.02
12/11/2021 8:15:00 AM 5.29 41.522 0.055 6.95 24.28 12.02
12/11/2021 8:30:00 AM 5.31 41.558 0.056 6.96 26.2 12.02
12/11/2021 8:45:00 AM 5.34 41.612 0.056 6.96 36.76 12.02
12/11/2021 9:00:00 AM 5.36 41.648 0.056 6.96 35.52 12.02
12/11/2021 9:15:00 AM 5.39 41.702 0.057 6.96 34.42 12.02
12/11/2021 9:30:00 AM 5.43 41.774 0.057 6.97 33.07 12.03
12/11/2021 9:45:00 AM 5.47 41.846 0.057 6.97 37.14 12.03
12/11/2021 10:00:00 AM 5.5 41.9 0.057 6.98 37.93 12.02
12/11/2021 10:15:00 AM 5.55 41.99 0.057 6.98 44.45 12.01
12/11/2021 10:30:00 AM 5.61 42.098 0.057 6.98 39.03 12.01
12/11/2021 10:45:00 AM 5.65 42.17 0.056 6.99 37 12
12/11/2021 11:00:00 AM 5.71 42.278 0.056 6.99 33.52 12
12/11/2021 11:15:00 AM 5.77 42.386 0.056 6.99 32.02 11.99
12/11/2021 11:30:00 AM 5.84 42.512 0.056 7 28.58 11.99
12/11/2021 11:45:00 AM 5.9 42.62 0.056 7 25.88 11.97
12/11/2021 12:00:00 PM 5.96 42.728 0.055 7.01 23.87 11.94
12/11/2021 12:15:00 PM 6.04 42.872 0.056 7.01 22.83 11.95
12/11/2021 12:30:00 PM 6.12 43.016 0.056 7.02 22.41 11.93
12/11/2021 12:45:00 PM 6.19 43.142 0.056 7.03 20.86 11.91
12/11/2021 1:00:00 PM 6.25 43.25 0.056 7.02 21.41 11.87
12/11/2021 1:15:00 PM 6.32 43.376 0.056 7.02 20 11.84
12/11/2021 1:30:00 PM 6.38 43.484 0.056 7.03 19.11 11.8
12/11/2021 1:45:00 PM 6.44 43.592 0.056 7.02 17.58 11.75
12/11/2021 2:00:00 PM 6.49 43.682 0.055 7.02 16.77 11.72
12/11/2021 2:15:00 PM 6.54 43.772 0.055 7.01 15.66 11.7
12/11/2021 2:30:00 PM 6.59 43.862 0.056 7.01 15.18 11.66
12/11/2021 2:45:00 PM 6.66 43.988 0.056 7.01 15.56 11.62
12/11/2021 3:00:00 PM 6.72 44.096 0.056 7.01 13.41 11.6
12/11/2021 3:15:00 PM 6.79 44.222 0.056 7.01 13.78 11.58
12/11/2021 3:30:00 PM 6.87 44.366 0.056 7.01 13.53 11.57
12/11/2021 3:45:00 PM 6.94 44.492 0.056 7.02 13.61 11.53
12/11/2021 4:00:00 PM 7.02 44.636 0.056 7.01 12.19 11.5
12/11/2021 4:15:00 PM 7.09 44.762 0.056 7.01 12.18 11.46
12/11/2021 4:30:00 PM 7.17 44.906 0.057 7.01 13.58 11.41
12/11/2021 4:45:00 PM 7.22 44.996 0.056 7 12.85 11.38
12/11/2021 5:00:00 PM 7.25 45.05 0.056 7 11.44 11.36
12/11/2021 5:15:00 PM 7.28 45.104 0.056 6.99 11.86 11.35
12/11/2021 5:30:00 PM 7.29 45.122 0.056 6.99 11.94 11.34
12/11/2021 5:45:00 PM 7.27 45.086 0.056 6.99 11.82 11.33
12/11/2021 6:00:00 PM 7.25 45.05 0.056 6.98 12.4 11.33
12/11/2021 6:15:00 PM 7.24 45.032 0.056 6.98 10.93 11.33
12/11/2021 6:30:00 PM 7.21 44.978 0.056 6.98 11.81 11.34
12/11/2021 6:45:00 PM 7.17 44.906 0.056 6.98 11.44 11.35
12/11/2021 7:00:00 PM 7.13 44.834 0.056 6.98 10.35 11.37
12/11/2021 7:15:00 PM 7.08 44.744 0.055 6.98 10.98 11.39
12/11/2021 7:30:00 PM 7.05 44.69 0.056 6.97 10.21 11.41
12/11/2021 7:45:00 PM 7 44.6 0.055 6.97 10.59 11.42
12/11/2021 8:00:00 PM 6.96 44.528 0.056 6.97 10.72 11.44
12/11/2021 8:15:00 PM 6.92 44.456 0.055 6.97 10.22 11.46
12/11/2021 8:30:00 PM 6.87 44.366 0.056 6.97 9.84 11.49
12/11/2021 8:45:00 PM 6.83 44.294 0.055 6.96 10.15 11.5
12/11/2021 9:00:00 PM 6.79 44.222 0.055 6.96 10.09 11.52
12/11/2021 9:15:00 PM 6.75 44.15 0.055 6.96 9.13 11.54
12/11/2021 9:30:00 PM 6.7 44.06 0.055 6.96 9.42 11.57
12/11/2021 9:45:00 PM 6.64 43.952 0.055 6.96 9.15 11.58
12/11/2021 10:00:00 PM 6.6 43.88 0.055 6.95 8.89 11.6
12/11/2021 10:15:00 PM 6.55 43.79 0.055 6.96 9.03 11.62
12/11/2021 10:30:00 PM 6.5 43.7 0.055 6.96 8.35 11.65
12/11/2021 10:45:00 PM 6.44 43.592 0.054 6.96 8.79 11.67
12/11/2021 11:00:00 PM 6.39 43.502 0.054 6.95 9.08 11.7
12/11/2021 11:15:00 PM 6.34 43.412 0.054 6.95 8.59 11.71
12/11/2021 11:30:00 PM 6.29 43.322 0.054 6.95 8.65 11.73
12/11/2021 11:45:00 PM 6.24 43.232 0.054 6.95 8.67 11.76
12/12/2021 12:00:00 AM 6.19 43.142 0.054 6.95 8.45 11.78
12/12/2021 12:15:00 AM 6.14 43.052 0.054 6.95 8.24 11.8
12/12/2021 12:30:00 AM 6.1 42.98 0.054 6.94 8.4 11.81
12/12/2021 12:45:00 AM 6.05 42.89 0.054 6.94 8.59 11.83
12/12/2021 1:00:00 AM 6.02 42.836 0.054 6.94 9.12 11.84
12/12/2021 1:15:00 AM 5.98 42.764 0.054 6.93 9.51 11.86
12/12/2021 1:30:00 AM 5.93 42.674 0.053 6.94 8.2 11.87
12/12/2021 1:45:00 AM 5.9 42.62 0.053 6.94 8.43 11.89
12/12/2021 2:00:00 AM 5.86 42.548 0.053 6.93 8.5 11.91
12/12/2021 2:15:00 AM 5.83 42.494 0.053 6.94 8.24 11.93
12/12/2021 2:30:00 AM 5.79 42.422 0.053 6.94 7.86 11.94
12/12/2021 2:45:00 AM 5.75 42.35 0.053 6.93 8.43 11.95
12/12/2021 3:00:00 AM 5.71 42.278 0.053 6.94 7.96 11.97
12/12/2021 3:15:00 AM 5.67 42.206 0.053 6.93 8.02 11.99
12/12/2021 3:30:00 AM 5.64 42.152 0.053 6.93 8.28 12
12/12/2021 3:45:00 AM 5.6 42.08 0.053 6.93 8.04 12.02
12/12/2021 4:00:00 AM 5.55 41.99 0.053 6.93 8.41 12.04
12/12/2021 4:15:00 AM 5.5 41.9 0.053 6.93 8.37 12.05
12/12/2021 4:30:00 AM 5.46 41.828 0.052 6.93 7.82 12.07
12/12/2021 4:45:00 AM 5.43 41.774 0.052 6.92 7.89 12.09
12/12/2021 5:00:00 AM 5.4 41.72 0.052 6.92 8.38 12.1
12/12/2021 5:15:00 AM 5.38 41.684 0.052 6.91 7.78 12.11
12/12/2021 5:30:00 AM 5.37 41.666 0.052 6.92 8.04 12.12
12/12/2021 5:45:00 AM 5.35 41.63 0.052 6.92 8.18 12.13
12/12/2021 6:00:00 AM 5.33 41.594 0.052 6.92 7.72 12.14
12/12/2021 6:15:00 AM 5.3 41.54 0.052 6.92 8 12.15
12/12/2021 6:30:00 AM 5.28 41.504 0.052 6.92 7.62 12.15
12/12/2021 6:45:00 AM 5.26 41.468 0.052 6.92 8.2 12.16
12/12/2021 7:00:00 AM 5.25 41.45 0.052 6.92 7.79 12.18
12/12/2021 7:15:00 AM 5.22 41.396 0.052 6.92 8.17 12.18
12/12/2021 7:30:00 AM 5.2 41.36 0.052 6.92 6.97 12.19
12/12/2021 7:45:00 AM 5.19 41.342 0.052 6.91 7.38 12.21
12/12/2021 8:00:00 AM 5.18 41.324 0.052 6.92 7.15 12.23
12/12/2021 8:15:00 AM 5.18 41.324 0.052 6.92 7.29 12.25
12/12/2021 8:30:00 AM 5.18 41.324 0.052 6.93 6.57 12.29
12/12/2021 8:45:00 AM 5.18 41.324 0.051 6.94 6.62 12.32
12/12/2021 9:00:00 AM 5.19 41.342 0.051 6.95 6.47 12.37
12/12/2021 9:15:00 AM 5.21 41.378 0.051 6.97 6.39 12.4
12/12/2021 9:30:00 AM 5.22 41.396 0.051 6.98 5.92 12.44
12/12/2021 9:45:00 AM 5.24 41.432 0.051 6.98 5.96 12.48
12/12/2021 10:00:00 AM 5.27 41.486 0.051 7 5.27 12.51
12/12/2021 10:15:00 AM 5.32 41.576 0.051 7.01 5.37 12.53
12/12/2021 10:30:00 AM 5.34 41.612 0.051 7.02 5.35 12.55
12/12/2021 10:45:00 AM 5.37 41.666 0.051 7.03 5.36 12.55
12/12/2021 11:00:00 AM 5.42 41.756 0.051 7.03 5.16 12.56
12/12/2021 11:15:00 AM 5.46 41.828 0.051 7.04 5.21 12.56
12/12/2021 11:30:00 AM 5.51 41.918 0.051 7.04 5.18 12.56
12/12/2021 11:45:00 AM 5.56 42.008 0.05 7.05 5.05 12.55
12/12/2021 12:00:00 PM 5.61 42.098 0.05 7.05 5.11 12.55
12/12/2021 12:15:00 PM 5.67 42.206 0.05 7.05 5.5 12.53
12/12/2021 12:30:00 PM 5.72 42.296 0.05 7.06 4.98 12.52
12/12/2021 12:45:00 PM 5.76 42.368 0.05 7.06 5.11 12.51
12/12/2021 1:00:00 PM 5.8 42.44 0.05 7.06 5.08 12.49
12/12/2021 1:15:00 PM 5.84 42.512 0.05 7.06 4.91 12.47
12/12/2021 1:30:00 PM 5.87 42.566 0.05 7.06 4.76 12.45
12/12/2021 1:45:00 PM 5.91 42.638 0.05 7.06 4.96 12.43
12/12/2021 2:00:00 PM 5.93 42.674 0.05 7.06 4.88 12.41
12/12/2021 2:15:00 PM 5.93 42.674 0.05 7.06 4.95 12.38
12/12/2021 2:30:00 PM 5.94 42.692 0.05 7.05 4.55 12.36
12/12/2021 2:45:00 PM 5.93 42.674 0.05 7.05 4.63 12.33
12/12/2021 3:00:00 PM 5.92 42.656 0.05 7.04 4.69 12.32
12/12/2021 3:15:00 PM 5.89 42.602 0.05 7.02 4.95 12.29
12/12/2021 3:30:00 PM 5.84 42.512 0.05 7.02 4.4 12.27
12/12/2021 3:45:00 PM 5.79 42.422 0.05 7.01 4.6 12.26
12/12/2021 4:00:00 PM 5.74 42.332 0.05 7 4.73 12.24
12/12/2021 4:15:00 PM 5.68 42.224 0.05 6.99 4.69 12.24
12/12/2021 4:30:00 PM 5.63 42.134 0.05 6.98 5.11 12.22
12/12/2021 4:45:00 PM 5.58 42.044 0.05 6.97 4.99 12.21
12/12/2021 5:00:00 PM 5.53 41.954 0.05 6.95 5.85 12.19
12/12/2021 5:15:00 PM 5.49 41.882 0.05 6.94 5 12.18
12/12/2021 5:30:00 PM 5.44 41.792 0.05 6.94 5.84 12.18
12/12/2021 5:45:00 PM 5.38 41.684 0.05 6.93 5.23 12.18
12/12/2021 6:00:00 PM 5.34 41.612 0.05 6.92 5.24 12.19
12/12/2021 6:15:00 PM 5.3 41.54 0.05 6.92 5.21 12.2
12/12/2021 6:30:00 PM 5.25 41.45 0.05 6.92 5.1 12.21
12/12/2021 6:45:00 PM 5.21 41.378 0.05 6.92 5.13 12.22
12/12/2021 7:00:00 PM 5.16 41.288 0.05 6.91 5.18 12.23
12/12/2021 7:15:00 PM 5.12 41.216 0.05 6.91 4.98 12.24
12/12/2021 7:30:00 PM 5.08 41.144 0.05 6.91 5 12.26
12/12/2021 7:45:00 PM 5.04 41.072 0.05 6.91 4.88 12.28
12/12/2021 8:00:00 PM 5.01 41.018 0.05 6.9 5.16 12.28
12/12/2021 8:15:00 PM 4.97 40.946 0.05 6.9 5.18 12.3
12/12/2021 8:30:00 PM 4.93 40.874 0.05 6.9 4.91 12.31
12/12/2021 8:45:00 PM 4.89 40.802 0.05 6.9 5.06 12.33
12/12/2021 9:00:00 PM 4.86 40.748 0.05 6.9 4.88 12.34
12/12/2021 9:15:00 PM 4.82 40.676 0.05 6.9 4.75 12.35
12/12/2021 9:30:00 PM 4.78 40.604 0.05 6.9 5.07 12.37
12/12/2021 9:45:00 PM 4.75 40.55 0.05 6.9 4.85 12.38
12/12/2021 10:00:00 PM 4.71 40.478 0.05 6.9 4.86 12.39
12/12/2021 10:15:00 PM 4.67 40.406 0.05 6.9 4.72 12.4
12/12/2021 10:30:00 PM 4.63 40.334 0.05 6.9 4.94 12.41
12/12/2021 10:45:00 PM 4.6 40.28 0.05 6.89 4.71 12.43
12/12/2021 11:00:00 PM 4.56 40.208 0.05 6.89 4.68 12.44
12/12/2021 11:15:00 PM 4.52 40.136 0.05 6.88 4.58 12.45
12/12/2021 11:30:00 PM 4.49 40.082 0.05 6.89 4.61 12.46
12/12/2021 11:45:00 PM 4.45 40.01 0.05 6.89 4.7 12.47
12/13/2021 12:00:00 AM 4.42 39.956 0.05 6.89 4.55 12.49
12/13/2021 12:15:00 AM 4.39 39.902 0.05 6.89 4.44 12.5
12/13/2021 12:30:00 AM 4.36 39.848 0.05 6.89 4.63 12.51
12/13/2021 12:45:00 AM 4.33 39.794 0.05 6.89 4.64 12.52
12/13/2021 1:00:00 AM 4.3 39.74 0.05 6.89 4.68 12.53
12/13/2021 1:15:00 AM 4.27 39.686 0.05 6.88 4.37 12.54
12/13/2021 1:30:00 AM 4.25 39.65 0.05 6.89 4.58 12.56
12/13/2021 1:45:00 AM 4.23 39.614 0.05 6.88 4.73 12.57
12/13/2021 2:00:00 AM 4.2 39.56 0.05 6.88 4.79 12.57
12/13/2021 2:15:00 AM 4.18 39.524 0.05 6.88 4.89 12.59
12/13/2021 2:30:00 AM 4.16 39.488 0.05 6.88 4.47 12.6
12/13/2021 2:45:00 AM 4.15 39.47 0.05 6.88 4.28 12.6
12/13/2021 3:00:00 AM 4.14 39.452 0.05 6.89 4.47 12.61
12/13/2021 3:15:00 AM 4.14 39.452 0.05 6.88 4.51 12.61
12/13/2021 3:30:00 AM 4.14 39.452 0.05 6.89 4.51 12.62
12/13/2021 3:45:00 AM 4.13 39.434 0.05 6.88 4.58 12.62
12/13/2021 4:00:00 AM 4.12 39.416 0.05 6.88 4.48 12.62
12/13/2021 4:15:00 AM 4.11 39.398 0.05 6.88 4.38 12.63
12/13/2021 4:30:00 AM 4.1 39.38 0.05 6.88 4.29 12.63
12/13/2021 4:45:00 AM 4.08 39.344 0.05 6.88 4.38 12.63
12/13/2021 5:00:00 AM 4.07 39.326 0.05 6.88 4.4 12.63
12/13/2021 5:15:00 AM 4.07 39.326 0.05 6.88 4.38 12.63
12/13/2021 5:30:00 AM 4.06 39.308 0.05 6.88 4.25 12.64
12/13/2021 5:45:00 AM 4.06 39.308 0.05 6.88 3.95 12.64
12/13/2021 6:00:00 AM 4.05 39.29 0.05 6.87 4.04 12.64
12/13/2021 6:15:00 AM 4.05 39.29 0.05 6.88 4.3 12.65
12/13/2021 6:30:00 AM 4.04 39.272 0.05 6.88 4.37 12.64
12/13/2021 6:45:00 AM 4.03 39.254 0.05 6.87 4.3 12.65
12/13/2021 7:00:00 AM 4.02 39.236 0.05 6.88 4.07 12.65
12/13/2021 7:15:00 AM 4.01 39.218 0.05 6.87 3.97 12.66
12/13/2021 7:30:00 AM 3.99 39.182 0.05 6.87 3.99 12.67
12/13/2021 7:45:00 AM 3.98 39.164 0.05 6.88 4.01 12.68
12/13/2021 8:00:00 AM 3.97 39.146 0.049 6.88 3.73 12.7
12/13/2021 8:15:00 AM 3.96 39.128 0.049 6.89 3.68 12.73
12/13/2021 8:30:00 AM 3.96 39.128 0.05 6.9 3.71 12.77
12/13/2021 8:45:00 AM 3.95 39.11 0.049 6.73 3.73 12.79
12/13/2021 9:00:00 AM 3.96 39.128 0.049 6.84 3.59 12.83
12/13/2021 9:15:00 AM 3.98 39.164 0.049 6.88 3.6 12.86
12/13/2021 9:30:00 AM 4 39.2 0.049 6.92 3.41 12.89
12/13/2021 9:45:00 AM 4.04 39.272 0.049 6.93 3.48 12.91
12/13/2021 10:00:00 AM 4.08 39.344 0.049 6.94 3.52 12.94
12/13/2021 10:15:00 AM 4.13 39.434 0.049 6.96 3.41 12.96
12/13/2021 10:30:00 AM 4.2 39.56 0.049 6.96 3.78 12.96
12/13/2021 10:45:00 AM 4.28 39.704 0.049 6.98 3.13 12.96
12/13/2021 11:00:00 AM 4.36 39.848 0.049 6.99 3.11 12.96
12/13/2021 11:15:00 AM 4.45 40.01 0.049 7.01 3.13 12.96
12/13/2021 11:30:00 AM 4.55 40.19 0.049 7.01 3.2 12.94
12/13/2021 11:45:00 AM 4.65 40.37 0.049 7.02 3.09 12.93
12/13/2021 12:00:00 PM 4.75 40.55 0.049 7.03 3.08 12.9
12/13/2021 12:15:00 PM 4.86 40.748 0.049 7.03 3.08 12.87
12/13/2021 12:30:00 PM 4.95 40.91 0.049 7.04 3.12 12.83
12/13/2021 12:45:00 PM 5.05 41.09 0.049 7.05 3.13 12.8
12/13/2021 1:00:00 PM 5.14 41.252 0.049 7.05 2.91 12.76
12/13/2021 1:15:00 PM 5.23 41.414 0.049 7.05 2.8 12.73
12/13/2021 1:30:00 PM 5.3 41.54 0.049 7.05 3.06 12.69
12/13/2021 1:45:00 PM 5.37 41.666 0.049 7.06 3.01 12.66
12/13/2021 2:00:00 PM 5.42 41.756 0.049 7.05 3.03 12.62
12/13/2021 2:15:00 PM 5.47 41.846 0.049 7.05 5.04 12.58
12/13/2021 2:30:00 PM 5.5 41.9 0.049 7.05 3.29 12.55
12/13/2021 2:45:00 PM 5.52 41.936 0.049 7.05 3.11 12.52
12/13/2021 3:00:00 PM 5.54 41.972 0.049 7.04 3.08 12.48
12/13/2021 3:15:00 PM 5.54 41.972 0.049 7.03 3.2 12.45
12/13/2021 3:30:00 PM 5.52 41.936 0.049 7.02 3.26 12.42
12/13/2021 3:45:00 PM 5.5 41.9 0.049 7.01 3.22 12.39
12/13/2021 4:00:00 PM 5.47 41.846 0.049 7 3.03 12.37
12/13/2021 4:15:00 PM 5.43 41.774 0.049 6.99 3.15 12.35
12/13/2021 4:30:00 PM 5.39 41.702 0.049 6.98 3.07 12.33
12/13/2021 4:45:00 PM 5.36 41.648 0.049 6.97 3.31 12.32
12/13/2021 5:00:00 PM 5.32 41.576 0.049 6.96 3.3 12.29
12/13/2021 5:15:00 PM 5.27 41.486 0.049 6.95 3.5 12.28
12/13/2021 5:30:00 PM 5.23 41.414 0.049 6.94 3.33 12.27
12/13/2021 5:45:00 PM 5.19 41.342 0.049 6.93 3.17 12.27
12/13/2021 6:00:00 PM 5.15 41.27 0.049 6.93 3.55 12.28
12/13/2021 6:15:00 PM 5.11 41.198 0.049 6.92 3.63 12.28
12/13/2021 6:30:00 PM 5.07 41.126 0.049 6.92 3.63 12.29
12/13/2021 6:45:00 PM 5.03 41.054 0.049 6.91 3.58 12.3
12/13/2021 7:00:00 PM 4.99 40.982 0.049 6.91 3.65 12.31
12/13/2021 7:15:00 PM 4.96 40.928 0.049 6.91 3.64 12.32
12/13/2021 7:30:00 PM 4.92 40.856 0.049 6.9 3.71 12.33
12/13/2021 7:45:00 PM 4.89 40.802 0.049 6.9 3.57 12.34
12/13/2021 8:00:00 PM 4.85 40.73 0.049 6.9 3.53 12.36
12/13/2021 8:15:00 PM 4.82 40.676 0.049 6.9 3.51 12.37
12/13/2021 8:30:00 PM 4.78 40.604 0.049 6.9 3.68 12.38
12/13/2021 8:45:00 PM 4.75 40.55 0.049 6.9 3.95 12.39
12/13/2021 9:00:00 PM 4.71 40.478 0.049 6.9 3.64 12.41
12/13/2021 9:15:00 PM 4.68 40.424 0.05 6.89 3.55 12.42
12/13/2021 9:30:00 PM 4.65 40.37 0.049 6.89 3.52 12.44
12/13/2021 9:45:00 PM 4.61 40.298 0.049 6.89 3.57 12.44
12/13/2021 10:00:00 PM 4.57 40.226 0.049 6.89 3.6 12.46
12/13/2021 10:15:00 PM 4.54 40.172 0.049 6.89 3.76 12.48
12/13/2021 10:30:00 PM 4.5 40.1 0.049 6.89 3.86 12.49
12/13/2021 10:45:00 PM 4.46 40.028 0.049 6.89 3.68 12.51
12/13/2021 11:00:00 PM 4.43 39.974 0.049 6.89 3.67 12.52
12/13/2021 11:15:00 PM 4.39 39.902 0.049 6.89 3.24 12.54
12/13/2021 11:30:00 PM 4.35 39.83 0.049 6.88 3.59 12.55
12/13/2021 11:45:00 PM 4.31 39.758 0.049 6.88 3.68 12.57
12/14/2021 12:00:00 AM 4.28 39.704 0.049 6.88 3.49 12.58
12/14/2021 12:15:00 AM 4.24 39.632 0.049 6.88 3.47 12.6
12/14/2021 12:30:00 AM 4.21 39.578 0.049 6.88 3.53 12.61
12/14/2021 12:45:00 AM 4.17 39.506 0.049 6.88 3.43 12.63
12/14/2021 1:00:00 AM 4.13 39.434 0.049 6.88 3.59 12.64
12/14/2021 1:15:00 AM 4.1 39.38 0.049 6.89 3.41 12.66
12/14/2021 1:30:00 AM 4.06 39.308 0.049 6.88 3.57 12.67
12/14/2021 1:45:00 AM 4.03 39.254 0.05 6.88 3.46 12.68
12/14/2021 2:00:00 AM 3.99 39.182 0.049 6.88 3.47 12.7
12/14/2021 2:15:00 AM 3.96 39.128 0.049 6.88 3.45 12.71
12/14/2021 2:30:00 AM 3.93 39.074 0.05 6.88 3.25 12.72
12/14/2021 2:45:00 AM 3.89 39.002 0.05 6.88 3.45 12.74
12/14/2021 3:00:00 AM 3.86 38.948 0.05 6.88 3.42 12.75
12/14/2021 3:15:00 AM 3.83 38.894 0.049 6.88 3.56 12.76
12/14/2021 3:30:00 AM 3.79 38.822 0.049 6.88 3.49 12.77
12/14/2021 3:45:00 AM 3.76 38.768 0.049 6.88 3.47 12.79
12/14/2021 4:00:00 AM 3.73 38.714 0.05 6.88 3.4 12.8
12/14/2021 4:15:00 AM 3.7 38.66 0.05 6.88 3.42 12.82
12/14/2021 4:30:00 AM 3.66 38.588 0.049 6.88 3.37 12.82
12/14/2021 4:45:00 AM 3.63 38.534 0.05 6.88 3.44 12.84
12/14/2021 5:00:00 AM 3.6 38.48 0.049 6.88 3.53 12.86
12/14/2021 5:15:00 AM 3.57 38.426 0.049 6.87 3.43 12.87
12/14/2021 5:30:00 AM 3.54 38.372 0.049 6.87 3.27 12.88
12/14/2021 5:45:00 AM 3.51 38.318 0.05 6.87 3.37 12.89
12/14/2021 6:00:00 AM 3.48 38.264 0.05 6.88 3.24 12.9
12/14/2021 6:15:00 AM 3.45 38.21 0.05 6.79 3.33 12.92
12/14/2021 6:30:00 AM 3.42 38.156 0.05 6.79 3.35 12.93
12/14/2021 6:45:00 AM 3.39 38.102 0.049 6.83 3.37 12.94
12/14/2021 7:00:00 AM 3.36 38.048 0.049 6.84 3.32 12.96
12/14/2021 7:15:00 AM 3.34 38.012 0.05 6.84 3.17 12.97
12/14/2021 7:30:00 AM 3.31 37.958 0.05 6.84 3.12 12.99
12/14/2021 7:45:00 AM 3.28 37.904 0.05 6.84 3.24 13.01
12/14/2021 8:00:00 AM 3.26 37.868 0.049 6.85 3.15 13.04
12/14/2021 8:15:00 AM 3.24 37.832 0.049 6.85 2.88 13.08
12/14/2021 8:30:00 AM 3.22 37.796 0.049 6.86 3.11 13.13
12/14/2021 8:45:00 AM 3.21 37.778 0.049 6.87 2.93 13.17
12/14/2021 9:00:00 AM 3.21 37.778 0.049 6.89 2.87 13.22
12/14/2021 9:15:00 AM 3.22 37.796 0.049 6.9 2.82 13.25
12/14/2021 9:30:00 AM 3.24 37.832 0.049 6.92 2.85 13.29
12/14/2021 9:45:00 AM 3.27 37.886 0.049 6.93 2.67 13.33
12/14/2021 10:00:00 AM 3.32 37.976 0.049 6.95 2.65 13.35
12/14/2021 10:15:00 AM 3.37 38.066 0.049 6.96 2.64 13.38
12/14/2021 10:30:00 AM 3.42 38.156 0.049 6.97 2.58 13.39
12/14/2021 10:45:00 AM 3.58 38.444 0.047 7.02 2.51 13.47
12/14/2021 11:00:00 AM 3.66 38.588 0.047 7.02 2.54 13.48
12/14/2021 11:15:00 AM 3.75 38.75 0.046 6.9 2.45 13.48
12/14/2021 11:30:00 AM 3.85 38.93 0.046 6.97 2.43 13.47
12/14/2021 11:45:00 AM 3.95 39.11 0.046 6.95 2.47 13.45
12/14/2021 12:00:00 PM 4.06 39.308 0.046 6.92 2.5 13.43
12/14/2021 12:15:00 PM 4.17 39.506 0.046 6.94 2.32 13.4
12/14/2021 12:30:00 PM 4.27 39.686 0.046 6.93 2.44 13.37
12/14/2021 12:45:00 PM 4.38 39.884 0.046 6.93 2.41 13.33
12/14/2021 1:00:00 PM 4.48 40.064 0.046 6.94 2.43 13.3
12/14/2021 1:15:00 PM 4.59 40.262 0.046 6.94 2.47 13.25
12/14/2021 1:30:00 PM 4.67 40.406 0.046 6.91 2.44 13.21
12/14/2021 1:45:00 PM 4.74 40.532 0.046 6.85 2.42 13.17
12/14/2021 2:00:00 PM 4.82 40.676 0.046 6.93 2.39 13.13
12/14/2021 2:15:00 PM 4.88 40.784 0.046 6.94 2.38 13.09
12/14/2021 2:30:00 PM 4.93 40.874 0.046 6.92 2.39 13.05
12/14/2021 2:45:00 PM 4.97 40.946 0.046 6.91 2.46 13.02
12/14/2021 3:00:00 PM 4.99 40.982 0.046 6.92 2.42 12.97
12/14/2021 3:15:00 PM 5.01 41.018 0.046 6.88 2.44 12.94
12/14/2021 3:30:00 PM 5 41 0.047 6.91 2.52 12.9
12/14/2021 3:45:00 PM 4.99 40.982 0.046 6.9 2.54 12.88
12/14/2021 4:00:00 PM 4.97 40.946 0.046 6.88 2.54 12.85
12/14/2021 4:15:00 PM 4.93 40.874 0.046 6.89 2.56 12.83
12/14/2021 4:30:00 PM 4.9 40.82 0.047 6.87 2.56 12.81
12/14/2021 4:45:00 PM 4.87 40.766 0.047 6.86 2.57 12.77
12/14/2021 5:00:00 PM 4.83 40.694 0.047 6.76 2.64 12.74
12/14/2021 5:15:00 PM 4.79 40.622 0.047 6.83 2.63 12.72
12/14/2021 5:30:00 PM 4.74 40.532 0.047 6.83 2.74 12.72
12/14/2021 5:45:00 PM 4.7 40.46 0.047 6.79 2.8 12.71
12/14/2021 6:00:00 PM 4.65 40.37 0.047 6.81 2.7 12.72
12/14/2021 6:15:00 PM 4.61 40.298 0.047 6.8 2.77 12.73
12/14/2021 6:30:00 PM 4.57 40.226 0.047 6.8 2.86 12.73
12/14/2021 6:45:00 PM 4.53 40.154 0.047 6.79 2.86 12.74
12/14/2021 7:00:00 PM 4.5 40.1 0.047 6.67 2.64 12.75
12/14/2021 7:15:00 PM 4.47 40.046 0.047 6.79 2.94 12.76
12/14/2021 7:30:00 PM 4.45 40.01 0.047 6.74 2.76 12.76
12/14/2021 7:45:00 PM 4.43 39.974 0.047 6.75 2.78 12.78
12/14/2021 8:00:00 PM 4.4 39.92 0.047 6.73 2.94 12.78
12/14/2021 8:15:00 PM 4.38 39.884 0.047 6.77 2.76 12.78
12/14/2021 8:30:00 PM 4.36 39.848 0.047 6.69 2.77 12.79
12/14/2021 8:45:00 PM 4.33 39.794 0.047 6.76 2.8 12.8
12/14/2021 9:00:00 PM 4.31 39.758 0.047 6.75 2.83 12.8
12/14/2021 9:15:00 PM 4.28 39.704 0.047 6.76 2.86 12.81
12/14/2021 9:30:00 PM 4.26 39.668 0.047 6.76 2.95 12.82
12/14/2021 9:45:00 PM 4.23 39.614 0.047 6.73 2.93 12.83
12/14/2021 10:00:00 PM 4.2 39.56 0.047 6.75 2.92 12.84
12/14/2021 10:15:00 PM 4.18 39.524 0.047 6.75 2.87 12.85
12/14/2021 10:30:00 PM 4.16 39.488 0.047 6.74 2.87 12.86
12/14/2021 10:45:00 PM 4.14 39.452 0.047 6.68 2.86 12.87
12/14/2021 11:00:00 PM 4.13 39.434 0.047 6.75 2.87 12.87
12/14/2021 11:15:00 PM 4.11 39.398 0.047 6.69 2.94 12.88
12/14/2021 11:30:00 PM 4.09 39.362 0.047 6.69 2.81 12.89
12/14/2021 11:45:00 PM 4.07 39.326 0.047 6.72 2.89 12.89
12/15/2021 12:00:00 AM 4.05 39.29 0.047 6.73 3.07 12.9
12/15/2021 12:15:00 AM 4.03 39.254 0.047 6.66 2.85 12.91
12/15/2021 12:30:00 AM 4 39.2 0.047 6.74 3.02 12.92
12/15/2021 12:45:00 AM 3.98 39.164 0.047 6.71 3.05 12.92
12/15/2021 1:00:00 AM 3.95 39.11 0.047 6.74 2.73 12.93
12/15/2021 1:15:00 AM 3.92 39.056 0.047 6.71 2.83 12.94
12/15/2021 1:30:00 AM 3.89 39.002 0.047 6.73 3.05 12.95
12/15/2021 1:45:00 AM 3.86 38.948 0.047 6.71 3 12.96
12/15/2021 2:00:00 AM 3.83 38.894 0.047 6.72 3.02 12.96
12/15/2021 2:15:00 AM 3.8 38.84 0.047 6.7 3.13 12.98
12/15/2021 2:30:00 AM 3.76 38.768 0.047 6.71 2.96 12.99
12/15/2021 2:45:00 AM 3.73 38.714 0.047 6.63 2.88 13
12/15/2021 3:00:00 AM 3.7 38.66 0.047 6.67 2.93 13.01
12/15/2021 3:15:00 AM 3.67 38.606 0.047 6.68 3.02 13.02
12/15/2021 3:30:00 AM 3.64 38.552 0.047 6.69 2.87 13.03
12/15/2021 3:45:00 AM 3.61 38.498 0.048 6.69 2.82 13.04
12/15/2021 4:00:00 AM 3.58 38.444 0.047 6.69 2.89 13.05
12/15/2021 4:15:00 AM 3.55 38.39 0.047 6.67 2.95 13.06
12/15/2021 4:30:00 AM 3.52 38.336 0.047 6.69 2.9 13.07
12/15/2021 4:45:00 AM 3.5 38.3 0.047 6.69 2.92 13.08
12/15/2021 5:00:00 AM 3.49 38.282 0.047 6.69 3.11 13.09
12/15/2021 5:15:00 AM 3.47 38.246 0.047 6.65 2.91 13.09
12/15/2021 5:30:00 AM 3.47 38.246 0.047 6.7 2.9 13.1
12/15/2021 5:45:00 AM 3.46 38.228 0.047 6.69 2.79 13.1
12/15/2021 6:00:00 AM 3.44 38.192 0.047 6.71 2.91 13.11
12/15/2021 6:15:00 AM 3.43 38.174 0.047 6.7 2.97 13.11
12/15/2021 6:30:00 AM 3.41 38.138 0.047 6.71 2.88 13.11
12/15/2021 6:45:00 AM 3.39 38.102 0.048 6.71 3.06 13.12
12/15/2021 7:00:00 AM 3.38 38.084 0.048 6.7 3.08 13.12
12/15/2021 7:15:00 AM 3.38 38.084 0.047 6.71 2.89 13.13
12/15/2021 7:30:00 AM 3.39 38.102 0.047 6.62 2.78 13.14
12/15/2021 7:45:00 AM 3.4 38.12 0.048 6.71 2.81 13.14
12/15/2021 8:00:00 AM 3.4 38.12 0.047 6.68 2.65 13.16
12/15/2021 8:15:00 AM 3.42 38.156 0.047 6.74 2.62 13.19
12/15/2021 8:30:00 AM 3.45 38.21 0.047 6.7 2.58 13.24
12/15/2021 8:45:00 AM 3.48 38.264 0.047 6.76 2.57 13.26
12/15/2021 9:00:00 AM 3.52 38.336 0.047 6.78 2.48 13.29
12/15/2021 9:15:00 AM 3.57 38.426 0.047 6.73 2.64 13.31
12/15/2021 9:30:00 AM 3.61 38.498 0.047 6.82 2.41 13.34
12/15/2021 9:45:00 AM 3.67 38.606 0.047 6.83 2.42 13.34
12/15/2021 10:00:00 AM 3.73 38.714 0.047 6.81 2.38 13.35
12/15/2021 10:15:00 AM 3.79 38.822 0.047 6.86 2.42 13.37
12/15/2021 10:30:00 AM 3.86 38.948 0.047 6.82 2.36 13.39
12/15/2021 10:45:00 AM 3.94 39.092 0.047 6.87 2.38 13.39
12/15/2021 11:00:00 AM 4.01 39.218 0.047 6.89 2.42 13.38
12/15/2021 11:15:00 AM 4.08 39.344 0.047 6.92 2.35 13.37
12/15/2021 11:30:00 AM 4.15 39.47 0.047 6.9 2.24 13.35
12/15/2021 11:45:00 AM 4.22 39.596 0.047 6.92 2.25 13.32
12/15/2021 12:00:00 PM 4.28 39.704 0.047 6.89 2.29 13.29
12/15/2021 12:15:00 PM 4.35 39.83 0.047 6.93 2.31 13.27
12/15/2021 12:30:00 PM 4.4 39.92 0.047 6.95 2.21 13.23
12/15/2021 12:45:00 PM 4.47 40.046 0.047 6.96 2.3 13.19
12/15/2021 1:00:00 PM 4.54 40.172 0.047 6.96 2.24 13.19
12/15/2021 1:15:00 PM 4.6 40.28 0.047 6.97 2.2 13.17
12/15/2021 1:30:00 PM 4.66 40.388 0.047 6.98 2.18 13.15
12/15/2021 1:45:00 PM 4.72 40.496 0.047 6.91 2.24 13.11
12/15/2021 2:00:00 PM 4.77 40.586 0.047 6.97 2.31 13.08
12/15/2021 2:15:00 PM 4.83 40.694 0.047 6.91 2.26 13.03
12/15/2021 2:30:00 PM 4.88 40.784 0.047 6.97 2.26 13.01
12/15/2021 2:45:00 PM 4.93 40.874 0.047 6.9 2.23 12.97
12/15/2021 3:00:00 PM 4.99 40.982 0.047 6.96 2.26 12.96
12/15/2021 3:15:00 PM 5.04 41.072 0.047 6.97 2.55 12.93
12/15/2021 3:30:00 PM 5.08 41.144 0.047 6.95 2.35 12.88
12/15/2021 3:45:00 PM 5.12 41.216 0.047 6.94 2.39 12.82
12/15/2021 4:00:00 PM 5.15 41.27 0.047 6.94 2.29 12.76
12/15/2021 4:15:00 PM 5.19 41.342 0.047 6.85 2.47 12.69
12/15/2021 4:30:00 PM 5.22 41.396 0.047 6.89 2.3 12.63
12/15/2021 4:45:00 PM 5.24 41.432 0.047 6.89 2.43 12.58
12/15/2021 5:00:00 PM 5.27 41.486 0.047 6.88 2.37 12.53
12/15/2021 5:15:00 PM 5.3 41.54 0.047 6.87 2.41 12.5
12/15/2021 5:30:00 PM 5.33 41.594 0.047 6.86 2.42 12.47
12/15/2021 5:45:00 PM 5.36 41.648 0.047 6.86 2.52 12.44
12/15/2021 6:00:00 PM 5.38 41.684 0.047 6.86 2.53 12.42
12/15/2021 6:15:00 PM 5.41 41.738 0.047 6.85 2.53 12.41
12/15/2021 6:30:00 PM 5.43 41.774 0.047 6.84 2.52 12.38
12/15/2021 6:45:00 PM 5.46 41.828 0.048 6.85 2.59 12.37
12/15/2021 7:00:00 PM 5.48 41.864 0.047 6.85 2.54 12.36
12/15/2021 7:15:00 PM 5.49 41.882 0.048 6.85 2.61 12.35
12/15/2021 7:30:00 PM 5.52 41.936 0.048 6.84 2.66 12.34
12/15/2021 7:45:00 PM 5.54 41.972 0.048 6.82 2.53 12.32
12/15/2021 8:00:00 PM 5.56 42.008 0.048 6.83 2.58 12.32
12/15/2021 8:15:00 PM 5.58 42.044 0.048 6.83 2.72 12.31
12/15/2021 8:30:00 PM 5.6 42.08 0.048 6.84 2.73 12.3
12/15/2021 8:45:00 PM 5.62 42.116 0.048 6.83 2.74 12.29
12/15/2021 9:00:00 PM 5.64 42.152 0.048 6.82 2.67 12.28
12/15/2021 9:15:00 PM 5.66 42.188 0.048 6.82 2.65 12.27
12/15/2021 9:30:00 PM 5.69 42.242 0.048 6.82 2.73 12.26
12/15/2021 9:45:00 PM 5.7 42.26 0.048 6.83 2.76 12.25
12/15/2021 10:00:00 PM 5.73 42.314 0.048 6.82 2.69 12.25
12/15/2021 10:15:00 PM 5.74 42.332 0.048 6.82 2.72 12.24
12/15/2021 10:30:00 PM 5.76 42.368 0.048 6.82 2.64 12.23
12/15/2021 10:45:00 PM 5.78 42.404 0.048 6.8 2.85 12.23
12/15/2021 11:00:00 PM 5.79 42.422 0.048 6.79 2.78 12.22
12/15/2021 11:15:00 PM 5.81 42.458 0.048 6.78 2.72 12.2
12/15/2021 11:30:00 PM 5.82 42.476 0.048 6.8 2.74 12.2
12/15/2021 11:45:00 PM 5.83 42.494 0.048 6.8 2.7 12.19
12/16/2021 12:00:00 AM 5.84 42.512 0.048 6.74 2.75 12.19
12/16/2021 12:15:00 AM 5.85 42.53 0.048 6.8 2.89 12.18
12/16/2021 12:30:00 AM 5.86 42.548 0.048 6.79 2.67 12.18
12/16/2021 12:45:00 AM 5.87 42.566 0.048 6.79 2.73 12.17
12/16/2021 1:00:00 AM 5.87 42.566 0.048 6.74 2.81 12.16
12/16/2021 1:15:00 AM 5.87 42.566 0.048 6.78 2.67 12.16
12/16/2021 1:30:00 AM 5.88 42.584 0.048 6.79 2.73 12.16
12/16/2021 1:45:00 AM 5.89 42.602 0.048 6.79 2.7 12.15
12/16/2021 2:00:00 AM 5.89 42.602 0.048 6.79 2.74 12.15
12/16/2021 2:15:00 AM 5.89 42.602 0.048 6.77 2.92 12.14
12/16/2021 2:30:00 AM 5.89 42.602 0.048 6.77 2.82 12.14
12/16/2021 2:45:00 AM 5.89 42.602 0.048 6.72 2.76 12.14
12/16/2021 3:00:00 AM 5.89 42.602 0.048 6.77 2.75 12.14
12/16/2021 3:15:00 AM 5.88 42.584 0.048 6.77 2.65 12.14
12/16/2021 3:30:00 AM 5.88 42.584 0.048 6.77 2.81 12.14
12/16/2021 3:45:00 AM 5.88 42.584 0.048 6.71 2.87 12.13
12/16/2021 4:00:00 AM 5.87 42.566 0.048 6.74 2.83 12.13
12/16/2021 4:15:00 AM 5.86 42.548 0.048 6.76 2.98 12.13
12/16/2021 4:30:00 AM 5.84 42.512 0.048 6.76 2.85 12.13
12/16/2021 4:45:00 AM 5.83 42.494 0.048 6.76 2.92 12.13
12/16/2021 5:00:00 AM 5.81 42.458 0.048 6.76 2.99 12.13
12/16/2021 5:15:00 AM 5.79 42.422 0.048 6.75 3.09 12.15
12/16/2021 5:30:00 AM 5.76 42.368 0.048 6.72 3.01 12.14
12/16/2021 5:45:00 AM 5.73 42.314 0.048 6.75 2.94 12.15
12/16/2021 6:00:00 AM 5.7 42.26 0.048 6.75 2.79 12.16
12/16/2021 6:15:00 AM 5.67 42.206 0.048 6.75 2.83 12.16
12/16/2021 6:30:00 AM 5.63 42.134 0.048 6.75 2.79 12.18
12/16/2021 6:45:00 AM 5.6 42.08 0.048 6.76 2.83 12.19
12/16/2021 7:00:00 AM 5.57 42.026 0.048 6.74 2.83 12.19
12/16/2021 7:15:00 AM 5.54 41.972 0.048 6.72 2.98 12.21
12/16/2021 7:30:00 AM 5.51 41.918 0.048 6.73 2.9 12.22
12/16/2021 7:45:00 AM 5.48 41.864 0.048 6.75 2.99 12.23
12/16/2021 8:00:00 AM 5.45 41.81 0.048 6.76 2.71 12.27
12/16/2021 8:15:00 AM 5.43 41.774 0.048 6.76 2.71 12.32
12/16/2021 8:30:00 AM 5.41 41.738 0.048 6.78 2.65 12.37
12/16/2021 8:45:00 AM 5.4 41.72 0.048 6.79 2.56 12.43
12/16/2021 9:00:00 AM 5.4 41.72 0.048 6.81 2.48 12.48
12/16/2021 9:15:00 AM 5.4 41.72 0.048 6.82 2.5 12.53
12/16/2021 9:30:00 AM 5.41 41.738 0.048 6.84 2.5 12.57
12/16/2021 9:45:00 AM 5.44 41.792 0.048 6.85 2.47 12.62
12/16/2021 10:00:00 AM 5.47 41.846 0.048 6.85 2.38 12.65
12/16/2021 10:15:00 AM 5.53 41.954 0.048 6.89 2.52 12.68
12/16/2021 10:30:00 AM 5.59 42.062 0.047 6.85 2.38 12.7
12/16/2021 10:45:00 AM 5.68 42.224 0.048 6.89 2.38 12.7
12/16/2021 11:00:00 AM 5.76 42.368 0.047 6.91 2.42 12.69
12/16/2021 11:15:00 AM 5.85 42.53 0.048 6.94 2.4 12.67
12/16/2021 11:30:00 AM 5.92 42.656 0.048 6.95 2.39 12.66
12/16/2021 11:45:00 AM 6 42.8 0.047 6.96 2.34 12.65
12/16/2021 12:00:00 PM 6.07 42.926 0.047 6.97 2.33 12.64
12/16/2021 12:15:00 PM 6.19 43.142 0.047 6.97 2.29 12.62
12/16/2021 12:30:00 PM 6.27 43.286 0.047 6.99 2.28 12.58
12/16/2021 12:45:00 PM 6.36 43.448 0.047 6.99 2.39 12.54
12/16/2021 1:00:00 PM 6.45 43.61 0.047 6.99 2.26 12.51
12/16/2021 1:15:00 PM 6.54 43.772 0.047 6.97 2.28 12.48
12/16/2021 1:30:00 PM 6.62 43.916 0.047 7.01 2.25 12.45
12/16/2021 1:45:00 PM 6.7 44.06 0.047 7 2.24 12.4
12/16/2021 2:00:00 PM 6.78 44.204 0.047 7 2.28 12.35
12/16/2021 2:15:00 PM 6.86 44.348 0.047 6.99 2.3 12.28
12/16/2021 2:30:00 PM 6.92 44.456 0.047 6.97 2.31 12.23
12/16/2021 2:45:00 PM 6.98 44.564 0.047 6.97 2.35 12.18
12/16/2021 3:00:00 PM 7.05 44.69 0.047 6.96 2.34 12.14
12/16/2021 3:15:00 PM 7.11 44.798 0.047 6.96 2.34 12.11
12/16/2021 3:30:00 PM 7.16 44.888 0.047 6.95 2.34 12.05
12/16/2021 3:45:00 PM 7.2 44.96 0.047 6.94 2.3 11.97
12/16/2021 4:00:00 PM 7.24 45.032 0.047 6.92 2.35 11.9
12/16/2021 4:15:00 PM 7.29 45.122 0.047 6.91 2.37 11.84
12/16/2021 4:30:00 PM 7.34 45.212 0.048 6.89 2.46 11.79
12/16/2021 4:45:00 PM 7.39 45.302 0.048 6.88 2.49 11.74
12/16/2021 5:00:00 PM 7.43 45.374 0.048 6.87 2.49 11.7
12/16/2021 5:15:00 PM 7.48 45.464 0.048 6.87 2.46 11.65
12/16/2021 5:30:00 PM 7.53 45.554 0.048 6.86 2.58 11.62
12/16/2021 5:45:00 PM 7.59 45.662 0.048 6.86 2.59 11.59
12/16/2021 6:00:00 PM 7.63 45.734 0.048 6.85 2.65 11.57
12/16/2021 6:15:00 PM 7.67 45.806 0.048 6.85 2.65 11.55
12/16/2021 6:30:00 PM 7.71 45.878 0.048 6.84 2.72 11.53
12/16/2021 6:45:00 PM 7.74 45.932 0.048 6.85 2.69 11.51
12/16/2021 7:00:00 PM 7.79 46.022 0.048 6.85 2.69 11.5
12/16/2021 7:15:00 PM 7.83 46.094 0.048 6.85 2.72 11.48
12/16/2021 7:30:00 PM 7.87 46.166 0.048 6.85 2.75 11.46
12/16/2021 7:45:00 PM 7.92 46.256 0.048 6.87 2.81 11.45
12/16/2021 8:00:00 PM 7.97 46.346 0.048 6.87 2.78 11.43
12/16/2021 8:15:00 PM 8.01 46.418 0.048 6.84 2.83 11.42
12/16/2021 8:30:00 PM 8.06 46.508 0.048 6.87 2.69 11.41
12/16/2021 8:45:00 PM 8.11 46.598 0.048 6.88 2.79 11.39
12/16/2021 9:00:00 PM 8.13 46.634 0.048 6.87 2.7 11.38
12/16/2021 9:15:00 PM 8.17 46.706 0.048 6.79 2.74 11.37
12/16/2021 9:30:00 PM 8.21 46.778 0.048 6.88 2.74 11.35
12/16/2021 9:45:00 PM 8.23 46.814 0.048 6.88 2.71 11.34
12/16/2021 10:00:00 PM 8.24 46.832 0.048 6.87 2.76 11.34
12/16/2021 10:15:00 PM 8.24 46.832 0.048 6.87 2.74 11.33
12/16/2021 10:30:00 PM 8.23 46.814 0.048 6.87 2.85 11.33
12/16/2021 10:45:00 PM 8.22 46.796 0.048 6.88 2.73 11.33
12/16/2021 11:00:00 PM 8.2 46.76 0.048 6.83 2.75 11.33
12/16/2021 11:15:00 PM 8.18 46.724 0.048 6.87 2.81 11.33
12/16/2021 11:30:00 PM 8.15 46.67 0.048 6.87 2.75 11.34
12/16/2021 11:45:00 PM 8.11 46.598 0.048 6.87 2.9 11.35
12/17/2021 12:00:00 AM 8.06 46.508 0.048 6.86 2.78 11.36
12/17/2021 12:15:00 AM 8.02 46.436 0.048 6.86 2.89 11.37
12/17/2021 12:30:00 AM 7.97 46.346 0.048 6.86 2.81 11.39
12/17/2021 12:45:00 AM 7.93 46.274 0.048 6.85 2.83 11.4
12/17/2021 1:00:00 AM 7.88 46.184 0.048 6.85 2.79 11.41
12/17/2021 1:15:00 AM 7.83 46.094 0.048 6.83 2.76 11.43
12/17/2021 1:30:00 AM 7.77 45.986 0.048 6.81 2.77 11.45
12/17/2021 1:45:00 AM 7.71 45.878 0.048 6.83 2.73 11.46
12/17/2021 2:00:00 AM 7.65 45.77 0.048 6.83 2.77 11.48
12/17/2021 2:15:00 AM 7.59 45.662 0.048 6.81 2.79 11.5
12/17/2021 2:30:00 AM 7.53 45.554 0.048 6.85 2.89 11.52
12/17/2021 2:45:00 AM 7.47 45.446 0.048 6.83 2.87 11.54
12/17/2021 3:00:00 AM 7.4 45.32 0.048 6.79 2.79 11.56
12/17/2021 3:15:00 AM 7.34 45.212 0.048 6.85 2.83 11.58
12/17/2021 3:30:00 AM 7.27 45.086 0.048 6.81 2.68 11.61
12/17/2021 3:45:00 AM 7.19 44.942 0.049 6.84 2.84 11.63
12/17/2021 4:00:00 AM 7.12 44.816 0.049 6.81 2.8 11.66
12/17/2021 4:15:00 AM 7.05 44.69 0.049 6.83 2.82 11.69
12/17/2021 4:30:00 AM 6.97 44.546 0.049 6.84 2.88 11.71
12/17/2021 4:45:00 AM 6.89 44.402 0.048 6.84 3 11.73
12/17/2021 5:00:00 AM 6.82 44.276 0.049 6.81 2.9 11.76
12/17/2021 5:15:00 AM 6.73 44.114 0.048 6.82 2.92 11.79
12/17/2021 5:30:00 AM 6.65 43.97 0.049 6.83 2.9 11.82
12/17/2021 5:45:00 AM 6.57 43.826 0.049 6.83 2.88 11.84
12/17/2021 6:00:00 AM 6.49 43.682 0.049 6.83 2.89 11.87
12/17/2021 6:15:00 AM 6.42 43.556 0.049 6.81 2.85 11.9
12/17/2021 6:30:00 AM 6.34 43.412 0.049 6.81 2.79 11.93
12/17/2021 6:45:00 AM 6.26 43.268 0.049 6.82 2.96 11.95
12/17/2021 7:00:00 AM 6.18 43.124 0.049 6.81 2.85 11.98
12/17/2021 7:15:00 AM 6.1 42.98 0.049 6.82 2.9 12.01
12/17/2021 7:30:00 AM 6.02 42.836 0.049 6.82 3 12.03
12/17/2021 7:45:00 AM 5.95 42.71 0.05 6.82 2.87 12.08
12/17/2021 8:00:00 AM 5.88 42.584 0.05 6.82 2.77 12.12
12/17/2021 8:15:00 AM 5.81 42.458 0.05 6.82 2.88 12.18
12/17/2021 8:30:00 AM 5.75 42.35 0.051 6.83 2.71 12.25
12/17/2021 8:45:00 AM 5.69 42.242 0.052 6.84 2.62 12.32
12/17/2021 9:00:00 AM 5.65 42.17 0.053 6.86 2.53 12.39
12/17/2021 9:15:00 AM 5.62 42.116 0.053 6.82 2.52 12.45
12/17/2021 9:30:00 AM 5.59 42.062 0.054 6.89 2.53 12.52
12/17/2021 9:45:00 AM 5.59 42.062 0.055 6.9 2.52 12.58
12/17/2021 10:00:00 AM 5.6 42.08 0.056 6.91 2.45 12.63
12/17/2021 10:15:00 AM 5.62 42.116 0.058 6.91 2.46 12.68
12/17/2021 10:30:00 AM 5.64 42.152 0.059 6.93 2.45 12.71
12/17/2021 10:45:00 AM 5.68 42.224 0.06 6.91 2.44 12.74
12/17/2021 11:00:00 AM 5.72 42.296 0.061 6.96 2.32 12.76
12/17/2021 11:15:00 AM 5.77 42.386 0.062 6.97 2.35 12.78
12/17/2021 11:30:00 AM 5.82 42.476 0.063 6.98 2.32 12.79
12/17/2021 11:45:00 AM 5.88 42.584 0.065 6.96 2.34 12.79
12/17/2021 12:00:00 PM 5.93 42.674 0.066 7 2.28 12.79
12/17/2021 12:15:00 PM 5.99 42.782 0.067 7.01 2.25 12.78
12/17/2021 12:30:00 PM 6.01 42.818 0.068 7.02 2.22 12.77
12/17/2021 12:45:00 PM 6.04 42.872 0.069 7.01 2.31 12.76
12/17/2021 1:00:00 PM 6.05 42.89 0.07 6.99 2.18 12.76
12/17/2021 1:15:00 PM 6.08 42.944 0.072 7.02 2.26 12.75
12/17/2021 1:30:00 PM 6.13 43.034 0.073 7.03 2.19 12.75
12/17/2021 1:45:00 PM 6.15 43.07 0.074 7 2.24 12.74
12/17/2021 2:00:00 PM 6.18 43.124 0.075 7.04 2.15 12.73
12/17/2021 2:15:00 PM 6.21 43.178 0.076 7.03 2.19 12.72
12/17/2021 2:30:00 PM 6.24 43.232 0.077 7.05 2.17 12.71
12/17/2021 2:45:00 PM 6.26 43.268 0.078 7.03 2.28 12.69
12/17/2021 3:00:00 PM 6.27 43.286 0.08 7.05 2.22 12.68
12/17/2021 3:15:00 PM 6.27 43.286 0.08 7.05 2.25 12.65
12/17/2021 3:30:00 PM 6.27 43.286 0.081 7.05 2.15 12.62
12/17/2021 3:45:00 PM 6.26 43.268 0.082 7.04 2.27 12.59
12/17/2021 4:00:00 PM 6.25 43.25 0.083 6.99 2.1 12.55
12/17/2021 4:15:00 PM 6.22 43.196 0.084 7.01 2.15 12.49
12/17/2021 4:30:00 PM 6.19 43.142 0.085 6.99 2.22 12.43
12/17/2021 4:45:00 PM 6.14 43.052 0.086 6.97 2.23 12.35
12/17/2021 5:00:00 PM 6.09 42.962 0.087 6.95 2.17 12.3
12/17/2021 5:15:00 PM 6.04 42.872 0.088 6.92 2.17 12.26
12/17/2021 5:30:00 PM 5.98 42.764 0.089 6.91 2.39 12.23
12/17/2021 5:45:00 PM 5.93 42.674 0.09 6.9 2.31 12.22
12/17/2021 6:00:00 PM 5.88 42.584 0.091 6.85 2.36 12.21
12/17/2021 6:15:00 PM 5.83 42.494 0.092 6.86 2.31 12.21
12/17/2021 6:30:00 PM 5.77 42.386 0.092 6.86 2.36 12.22
12/17/2021 6:45:00 PM 5.72 42.296 0.093 6.85 2.38 12.23
12/17/2021 7:00:00 PM 5.66 42.188 0.094 6.85 2.37 12.24
12/17/2021 7:15:00 PM 5.61 42.098 0.096 6.85 2.34 12.24
12/17/2021 7:30:00 PM 5.56 42.008 0.097 6.83 2.33 12.26
12/17/2021 7:45:00 PM 5.5 41.9 0.099 6.84 2.33 12.27
12/17/2021 8:00:00 PM 5.45 41.81 0.102 6.84 2.42 12.29
12/17/2021 8:15:00 PM 5.41 41.738 0.104 6.83 2.45 12.31
12/17/2021 8:30:00 PM 5.36 41.648 0.107 6.83 2.35 12.32
12/17/2021 8:45:00 PM 5.31 41.558 0.111 6.82 2.43 12.33
12/17/2021 9:00:00 PM 5.27 41.486 0.116 6.78 2.31 12.35
12/17/2021 9:15:00 PM 5.23 41.414 0.122 6.81 2.31 12.36
12/17/2021 9:30:00 PM 5.19 41.342 0.129 6.8 2.38 12.37
12/17/2021 9:45:00 PM 5.16 41.288 0.137 6.81 2.24 12.38
12/17/2021 10:00:00 PM 5.13 41.234 0.145 6.81 2.39 12.39
12/17/2021 10:15:00 PM 5.1 41.18 0.155 6.81 2.2 12.4
12/17/2021 10:30:00 PM 5.08 41.144 0.163 6.81 2.28 12.41
12/17/2021 10:45:00 PM 5.05 41.09 0.172 6.81 2.31 12.42
12/17/2021 11:00:00 PM 5.03 41.054 0.179 6.8 2.3 12.43
12/17/2021 11:15:00 PM 5.01 41.018 0.187 6.8 2.31 12.43
12/17/2021 11:30:00 PM 4.99 40.982 0.193 6.81 2.37 12.44
12/17/2021 11:45:00 PM 4.97 40.946 0.199 6.81 2.37 12.45
12/18/2021 12:00:00 AM 4.96 40.928 0.201 6.8 2.48 12.45
12/18/2021 12:15:00 AM 4.94 40.892 0.203 6.81 2.44 12.46
12/18/2021 12:30:00 AM 4.93 40.874 0.204 6.81 2.35 12.46
12/18/2021 12:45:00 AM 4.92 40.856 0.204 6.82 2.34 12.46
12/18/2021 1:00:00 AM 4.9 40.82 0.207 6.81 2.39 12.46
12/18/2021 1:15:00 AM 4.89 40.802 0.206 6.82 2.39 12.47
12/18/2021 1:30:00 AM 4.88 40.784 0.205 6.81 2.27 12.47
12/18/2021 1:45:00 AM 4.87 40.766 0.205 6.82 2.28 12.48
12/18/2021 2:00:00 AM 4.86 40.748 0.202 6.81 2.34 12.48
12/18/2021 2:15:00 AM 4.85 40.73 0.2 6.81 2.29 12.48
12/18/2021 2:30:00 AM 4.84 40.712 0.2 6.81 2.37 12.48
12/18/2021 2:45:00 AM 4.84 40.712 0.198 6.82 2.35 12.49
12/18/2021 3:00:00 AM 4.83 40.694 0.196 6.82 2.28 12.5
12/18/2021 3:15:00 AM 4.82 40.676 0.192 6.82 2.27 12.49
12/18/2021 3:30:00 AM 4.81 40.658 0.192 6.81 2.27 12.5
12/18/2021 3:45:00 AM 4.8 40.64 0.19 6.81 2.31 12.5
12/18/2021 4:00:00 AM 4.8 40.64 0.188 6.82 2.34 12.5
12/18/2021 4:15:00 AM 4.79 40.622 0.186 6.83 2.36 12.51
12/18/2021 4:30:00 AM 4.79 40.622 0.184 6.82 2.32 12.5
12/18/2021 4:45:00 AM 4.78 40.604 0.182 6.82 2.36 12.5
12/18/2021 5:00:00 AM 4.77 40.586 0.179 6.83 2.39 12.5
12/18/2021 5:15:00 AM 4.77 40.586 0.177 6.83 2.42 12.5
12/18/2021 5:30:00 AM 4.77 40.586 0.176 6.83 2.35 12.5
12/18/2021 5:45:00 AM 4.76 40.568 0.173 6.82 2.48 12.5
12/18/2021 6:00:00 AM 4.76 40.568 0.171 6.83 2.3 12.51
12/18/2021 6:15:00 AM 4.75 40.55 0.17 6.83 2.37 12.5
12/18/2021 6:30:00 AM 4.74 40.532 0.168 6.82 2.36 12.51
12/18/2021 6:45:00 AM 4.73 40.514 0.167 6.83 2.35 12.5
12/18/2021 7:00:00 AM 4.73 40.514 0.165 6.83 2.5 12.5
12/18/2021 7:15:00 AM 4.72 40.496 0.164 6.83 2.42 12.5
12/18/2021 7:30:00 AM 4.71 40.478 0.161 6.82 2.48 12.51
12/18/2021 7:45:00 AM 4.7 40.46 0.16 6.84 2.45 12.51
12/18/2021 8:00:00 AM 4.69 40.442 0.158 6.81 2.45 12.53
12/18/2021 8:15:00 AM 4.68 40.424 0.155 6.83 2.5 12.55
12/18/2021 8:30:00 AM 4.68 40.424 0.155 6.85 2.42 12.57
12/18/2021 8:45:00 AM 4.68 40.424 0.152 6.86 2.33 12.59
12/18/2021 9:00:00 AM 4.68 40.424 0.151 6.84 2.34 12.63
12/18/2021 9:15:00 AM 4.68 40.424 0.15 6.87 2.27 12.65
12/18/2021 9:30:00 AM 4.68 40.424 0.148 6.87 2.26 12.68
12/18/2021 9:45:00 AM 4.69 40.442 0.146 6.88 2.31 12.71
12/18/2021 10:00:00 AM 4.7 40.46 0.145 6.88 2.27 12.74
12/18/2021 10:15:00 AM 4.71 40.478 0.144 6.9 2.25 12.76
12/18/2021 10:30:00 AM 4.72 40.496 0.141 6.91 2.4 12.77
12/18/2021 10:45:00 AM 4.74 40.532 0.14 6.92 2.5 12.82
12/18/2021 11:00:00 AM 4.76 40.568 0.139 6.93 2.37 12.87
12/18/2021 11:15:00 AM 4.79 40.622 0.136 6.95 2.45 12.87
12/18/2021 11:30:00 AM 4.81 40.658 0.135 6.93 2.62 12.87
12/18/2021 11:45:00 AM 4.82 40.676 0.133 6.96 2.86 12.87
12/18/2021 12:00:00 PM 4.84 40.712 0.131 6.97 2.88 12.82
12/18/2021 12:15:00 PM 4.85 40.73 0.13 6.95 3.1 12.81
12/18/2021 12:30:00 PM 4.88 40.784 0.129 6.96 3.16 12.82
12/18/2021 12:45:00 PM 4.9 40.82 0.128 6.98 3.47 12.82
12/18/2021 1:00:00 PM 4.93 40.874 0.126 6.97 4 12.81
12/18/2021 1:15:00 PM 4.95 40.91 0.124 6.97 4.14 12.79
12/18/2021 1:30:00 PM 4.97 40.946 0.123 6.98 3.98 12.77
12/18/2021 1:45:00 PM 4.99 40.982 0.122 6.98 4.06 12.75
12/18/2021 2:00:00 PM 5.01 41.018 0.12 6.97 4.15 12.74
12/18/2021 2:15:00 PM 5.03 41.054 0.119 6.97 4.29 12.73
12/18/2021 2:30:00 PM 5.05 41.09 0.119 6.97 4.41 12.71
12/18/2021 2:45:00 PM 5.08 41.144 0.117 6.97 4.61 12.69
12/18/2021 3:00:00 PM 5.09 41.162 0.117 6.97 4.78 12.65
12/18/2021 3:15:00 PM 5.11 41.198 0.115 6.96 4.87 12.62
12/18/2021 3:30:00 PM 5.13 41.234 0.114 6.95 4.76 12.58
12/18/2021 3:45:00 PM 5.14 41.252 0.113 6.95 4.98 12.53
12/18/2021 4:00:00 PM 5.16 41.288 0.113 6.9 4.91 12.49
12/18/2021 4:15:00 PM 5.17 41.306 0.112 6.93 5.36 12.45
12/18/2021 4:30:00 PM 5.18 41.324 0.111 6.91 5.49 12.41
12/18/2021 4:45:00 PM 5.19 41.342 0.11 6.91 5.47 12.37
12/18/2021 5:00:00 PM 5.2 41.36 0.11 6.89 5.66 12.33
12/18/2021 5:15:00 PM 5.21 41.378 0.109 6.9 5.81 12.31
12/18/2021 5:30:00 PM 5.22 41.396 0.108 6.89 6.11 12.29
12/18/2021 5:45:00 PM 5.23 41.414 0.107 6.89 6.7 12.28
12/18/2021 6:00:00 PM 5.24 41.432 0.107 6.88 6.62 12.27
12/18/2021 6:15:00 PM 5.25 41.45 0.107 6.87 6.88 12.26
12/18/2021 6:30:00 PM 5.26 41.468 0.106 6.87 6.73 12.25
12/18/2021 6:45:00 PM 5.27 41.486 0.105 6.88 7.01 12.24
12/18/2021 7:00:00 PM 5.28 41.504 0.104 6.88 6.94 12.24
12/18/2021 7:15:00 PM 5.29 41.522 0.103 6.88 6.97 12.23
12/18/2021 7:30:00 PM 5.3 41.54 0.103 6.88 7.05 12.23
12/18/2021 7:45:00 PM 5.31 41.558 0.102 6.89 7 12.23
12/18/2021 8:00:00 PM 5.33 41.594 0.102 6.89 7.12 12.22
12/18/2021 8:15:00 PM 5.34 41.612 0.101 6.89 7.2 12.22
12/18/2021 8:30:00 PM 5.35 41.63 0.1 6.89 6.99 12.22
12/18/2021 8:45:00 PM 5.36 41.648 0.1 6.89 6.96 12.21
12/18/2021 9:00:00 PM 5.37 41.666 0.099 6.89 6.99 12.21
12/18/2021 9:15:00 PM 5.38 41.684 0.098 6.89 7.05 12.2
12/18/2021 9:30:00 PM 5.39 41.702 0.097 6.89 6.97 12.2
12/18/2021 9:45:00 PM 5.4 41.72 0.096 6.89 6.86 12.2
12/18/2021 10:00:00 PM 5.41 41.738 0.095 6.89 6.92 12.2
12/18/2021 10:15:00 PM 5.42 41.756 0.094 6.85 7 12.2
12/18/2021 10:30:00 PM 5.42 41.756 0.092 6.88 6.64 12.2
12/18/2021 10:45:00 PM 5.43 41.774 0.091 6.89 6.61 12.2
12/18/2021 11:00:00 PM 5.43 41.774 0.09 6.88 6.6 12.2
12/18/2021 11:15:00 PM 5.42 41.756 0.089 6.88 6.14 12.21
12/18/2021 11:30:00 PM 5.42 41.756 0.088 6.88 6.35 12.21
12/18/2021 11:45:00 PM 5.41 41.738 0.088 6.88 6.27 12.21
12/19/2021 12:00:00 AM 5.4 41.72 0.087 6.87 6.02 12.22
12/19/2021 12:15:00 AM 5.39 41.702 0.087 6.88 6.06 12.22
12/19/2021 12:30:00 AM 5.38 41.684 0.086 6.87 6.17 12.23
12/19/2021 12:45:00 AM 5.36 41.648 0.086 6.87 5.87 12.24
12/19/2021 1:00:00 AM 5.34 41.612 0.086 6.86 5.94 12.25
12/19/2021 1:15:00 AM 5.32 41.576 0.085 6.87 5.93 12.25
12/19/2021 1:30:00 AM 5.3 41.54 0.085 6.86 5.86 12.26
12/19/2021 1:45:00 AM 5.28 41.504 0.084 6.88 5.46 12.27
12/19/2021 2:00:00 AM 5.26 41.468 0.084 6.89 5.28 12.28
12/19/2021 2:15:00 AM 5.24 41.432 0.084 6.89 5.18 12.29
12/19/2021 2:30:00 AM 5.21 41.378 0.083 6.89 5.17 12.3
12/19/2021 2:45:00 AM 5.19 41.342 0.083 6.88 4.99 12.32
12/19/2021 3:00:00 AM 5.16 41.288 0.083 6.87 5.03 12.33
12/19/2021 3:15:00 AM 5.14 41.252 0.083 6.87 4.83 12.34
12/19/2021 3:30:00 AM 5.11 41.198 0.082 6.86 4.79 12.35
12/19/2021 3:45:00 AM 5.08 41.144 0.082 6.86 4.67 12.36
12/19/2021 4:00:00 AM 5.06 41.108 0.082 6.86 4.61 12.38
12/19/2021 4:15:00 AM 5.03 41.054 0.082 6.86 4.46 12.39
12/19/2021 4:30:00 AM 5 41 0.081 6.87 4.83 12.4
12/19/2021 4:45:00 AM 4.98 40.964 0.081 6.86 4.72 12.41
12/19/2021 5:00:00 AM 4.95 40.91 0.081 6.84 4.62 12.42
12/19/2021 5:15:00 AM 4.92 40.856 0.08 6.87 4.52 12.43
12/19/2021 5:30:00 AM 4.88 40.784 0.08 6.86 4.42 12.44
12/19/2021 5:45:00 AM 4.85 40.73 0.08 6.86 4.3 12.46
12/19/2021 6:00:00 AM 4.81 40.658 0.079 6.86 4.23 12.48
12/19/2021 6:15:00 AM 4.77 40.586 0.079 6.87 4.18 12.49
12/19/2021 6:30:00 AM 4.73 40.514 0.079 6.87 4.16 12.5
12/19/2021 6:45:00 AM 4.69 40.442 0.079 6.87 4.13 12.51
12/19/2021 7:00:00 AM 4.66 40.388 0.079 6.86 4.07 12.54
12/19/2021 7:15:00 AM 4.63 40.334 0.079 6.85 4.08 12.55
12/19/2021 7:30:00 AM 4.59 40.262 0.079 6.85 3.93 12.57
12/19/2021 7:45:00 AM 4.56 40.208 0.078 6.82 3.78 12.58
12/19/2021 8:00:00 AM 4.52 40.136 0.078 6.85 3.87 12.61
12/19/2021 8:15:00 AM 4.48 40.064 0.078 6.85 3.67 12.63
12/19/2021 8:30:00 AM 4.45 40.01 0.078 6.85 3.6 12.65
12/19/2021 8:45:00 AM 4.41 39.938 0.078 6.84 3.59 12.69
12/19/2021 9:00:00 AM 4.37 39.866 0.078 6.85 3.61 12.73
12/19/2021 9:15:00 AM 4.34 39.812 0.077 6.87 3.56 12.79
12/19/2021 9:30:00 AM 4.33 39.794 0.077 6.87 3.44 12.85
12/19/2021 9:45:00 AM 4.32 39.776 0.077 6.9 3.25 12.92
12/19/2021 10:00:00 AM 4.32 39.776 0.077 6.91 3.34 12.99
12/19/2021 10:15:00 AM 4.32 39.776 0.077 6.93 3.2 13.06
12/19/2021 10:30:00 AM 4.33 39.794 0.077 6.94 3.12 13.11
12/19/2021 10:45:00 AM 4.36 39.848 0.077 6.95 3.21 13.17
12/19/2021 11:00:00 AM 4.38 39.884 0.076 6.96 3.18 13.19
12/19/2021 11:15:00 AM 4.39 39.902 0.076 6.98 3 13.22
12/19/2021 11:30:00 AM 4.4 39.92 0.076 6.98 3.08 13.23
12/19/2021 11:45:00 AM 4.43 39.974 0.076 7 2.92 13.24
12/19/2021 12:00:00 PM 4.49 40.082 0.076 6.99 2.94 13.25
12/19/2021 12:15:00 PM 4.53 40.154 0.076 7.01 2.93 13.25
12/19/2021 12:30:00 PM 4.57 40.226 0.076 7.02 2.99 13.24
12/19/2021 12:45:00 PM 4.6 40.28 0.076 7.04 2.92 13.23
12/19/2021 1:00:00 PM 4.63 40.334 0.075 7.04 2.85 13.22
12/19/2021 1:15:00 PM 4.62 40.316 0.075 7.03 2.83 13.21
12/19/2021 1:30:00 PM 4.64 40.352 0.075 7.04 2.74 13.21
12/19/2021 1:45:00 PM 4.66 40.388 0.075 7.05 2.75 13.2
12/19/2021 2:00:00 PM 4.66 40.388 0.075 7.01 2.73 13.18
12/19/2021 2:15:00 PM 4.65 40.37 0.075 7.05 2.66 13.17
12/19/2021 2:30:00 PM 4.65 40.37 0.075 7.05 2.74 13.17
12/19/2021 2:45:00 PM 4.63 40.334 0.075 7.05 2.62 13.15
12/19/2021 3:00:00 PM 4.59 40.262 0.074 7.03 2.74 13.13
12/19/2021 3:15:00 PM 4.55 40.19 0.074 7.01 2.69 13.1
12/19/2021 3:30:00 PM 4.52 40.136 0.074 7.01 2.66 13.11
12/19/2021 3:45:00 PM 4.5 40.1 0.074 7.02 2.71 13.1
12/19/2021 4:00:00 PM 4.46 40.028 0.074 7.02 2.7 13.07
12/19/2021 4:15:00 PM 4.41 39.938 0.074 6.99 2.69 13.03
12/19/2021 4:30:00 PM 4.36 39.848 0.074 6.98 2.72 12.98
12/19/2021 4:45:00 PM 4.3 39.74 0.074 6.92 2.66 12.93
12/19/2021 5:00:00 PM 4.24 39.632 0.074 6.95 2.61 12.9
12/19/2021 5:15:00 PM 4.18 39.524 0.074 6.9 2.66 12.87
12/19/2021 5:30:00 PM 4.12 39.416 0.074 6.9 2.68 12.86
12/19/2021 5:45:00 PM 4.06 39.308 0.074 6.91 2.79 12.86
12/19/2021 6:00:00 PM 4 39.2 0.074 6.89 2.79 12.86
12/19/2021 6:15:00 PM 3.96 39.128 0.074 6.88 2.75 12.86
12/19/2021 6:30:00 PM 3.92 39.056 0.073 6.86 2.83 12.87
12/19/2021 6:45:00 PM 3.88 38.984 0.073 6.86 2.7 12.88
12/19/2021 7:00:00 PM 3.84 38.912 0.073 6.85 2.72 12.9
12/19/2021 7:15:00 PM 3.8 38.84 0.073 6.81 2.7 12.91
12/19/2021 7:30:00 PM 3.75 38.75 0.073 6.83 2.71 12.93
12/19/2021 7:45:00 PM 3.7 38.66 0.073 6.82 2.72 12.94
12/19/2021 8:00:00 PM 3.63 38.534 0.073 6.81 2.68 12.96
12/19/2021 8:15:00 PM 3.57 38.426 0.073 6.79 2.71 12.99
12/19/2021 8:30:00 PM 3.51 38.318 0.073 6.79 2.7 13.01
12/19/2021 8:45:00 PM 3.45 38.21 0.073 6.77 2.68 13.02
12/19/2021 9:00:00 PM 3.39 38.102 0.073 6.77 2.64 13.05
12/19/2021 9:15:00 PM 3.33 37.994 0.073 6.76 2.64 13.06
12/19/2021 9:30:00 PM 3.27 37.886 0.073 6.76 2.67 13.08
12/19/2021 9:45:00 PM 3.21 37.778 0.072 6.72 2.71 13.1
12/19/2021 10:00:00 PM 3.15 37.67 0.072 6.75 2.79 13.13
12/19/2021 10:15:00 PM 3.09 37.562 0.072 6.76 2.65 13.15
12/19/2021 10:30:00 PM 3.04 37.472 0.072 6.72 2.79 13.17
12/19/2021 10:45:00 PM 2.98 37.364 0.072 6.75 2.81 13.19
12/19/2021 11:00:00 PM 2.93 37.274 0.072 6.72 2.77 13.21
12/19/2021 11:15:00 PM 2.87 37.166 0.072 6.73 2.7 13.23
12/19/2021 11:30:00 PM 2.82 37.076 0.072 6.75 2.76 13.25
12/19/2021 11:45:00 PM 2.76 36.968 0.072 6.74 2.8 13.27
12/20/2021 12:00:00 AM 2.71 36.878 0.072 6.73 2.96 13.29
12/20/2021 12:15:00 AM 2.66 36.788 0.072 6.75 2.83 13.31
12/20/2021 12:30:00 AM 2.61 36.698 0.071 6.72 2.82 13.33
12/20/2021 12:45:00 AM 2.56 36.608 0.071 6.75 2.84 13.35
12/20/2021 1:00:00 AM 2.5 36.5 0.071 6.74 2.77 13.37
12/20/2021 1:15:00 AM 2.45 36.41 0.071 6.77 2.64 13.39
12/20/2021 1:30:00 AM 2.4 36.32 0.071 6.73 2.72 13.41
12/20/2021 1:45:00 AM 2.35 36.23 0.071 6.74 2.9 13.42
12/20/2021 2:00:00 AM 2.3 36.14 0.071 6.74 2.82 13.45
12/20/2021 2:15:00 AM 2.25 36.05 0.071 6.77 2.73 13.47
12/20/2021 2:30:00 AM 2.19 35.942 0.07 6.77 2.71 13.48
12/20/2021 2:45:00 AM 2.14 35.852 0.07 6.74 2.79 13.5
12/20/2021 3:00:00 AM 2.09 35.762 0.07 6.72 2.81 13.53
12/20/2021 3:15:00 AM 2.04 35.672 0.07 6.72 2.78 13.55
12/20/2021 3:30:00 AM 2 35.6 0.07 6.74 3.23 13.56
12/20/2021 3:45:00 AM 1.95 35.51 0.07 6.74 2.84 13.59
12/20/2021 4:00:00 AM 1.9 35.42 0.07 6.75 2.77 13.6
12/20/2021 4:15:00 AM 1.85 35.33 0.07 6.71 2.69 13.63
12/20/2021 4:30:00 AM 1.81 35.258 0.07 6.73 2.69 13.65
12/20/2021 4:45:00 AM 1.76 35.168 0.07 6.74 2.77 13.66
12/20/2021 5:00:00 AM 1.71 35.078 0.07 6.74 2.7 13.69
12/20/2021 5:15:00 AM 1.67 35.006 0.069 6.73 2.66 13.7
12/20/2021 5:30:00 AM 1.63 34.934 0.069 6.74 2.65 13.72
12/20/2021 5:45:00 AM 1.6 34.88 0.069 6.74 2.67 13.73
12/20/2021 6:00:00 AM 1.57 34.826 0.069 6.72 2.7 13.75
12/20/2021 6:15:00 AM 1.53 34.754 0.069 6.76 2.76 13.76
12/20/2021 6:30:00 AM 1.49 34.682 0.069 6.76 2.6 13.77
12/20/2021 6:45:00 AM 1.45 34.61 0.069 6.71 2.54 13.79
12/20/2021 7:00:00 AM 1.42 34.556 0.069 6.75 2.6 13.8
12/20/2021 7:15:00 AM 1.4 34.52 0.069 6.75 2.66 13.82
12/20/2021 7:30:00 AM 1.38 34.484 0.068 6.74 2.54 13.83
12/20/2021 7:45:00 AM 1.38 34.484 0.068 6.75 2.51 13.85
12/20/2021 8:00:00 AM 1.37 34.466 0.068 6.75 2.42 13.87
12/20/2021 8:15:00 AM 1.37 34.466 0.068 6.78 2.48 13.91
12/20/2021 8:30:00 AM 1.38 34.484 0.068 6.8 2.34 13.95
12/20/2021 8:45:00 AM 1.38 34.484 0.068 6.79 2.4 14
12/20/2021 9:00:00 AM 1.4 34.52 0.068 6.84 2.44 14.05
12/20/2021 9:15:00 AM 1.42 34.556 0.068 6.84 2.9 14.09
12/20/2021 9:30:00 AM 1.45 34.61 0.068 6.87 2.41 14.13
12/20/2021 9:45:00 AM 1.49 34.682 0.067 6.86 2.32 14.17
12/20/2021 10:00:00 AM 1.52 34.736 0.067 6.9 2.28 14.19
12/20/2021 10:15:00 AM 1.56 34.808 0.067 6.89 2.44 14.2
12/20/2021 10:30:00 AM 1.63 34.934 0.067 6.91 2.32 14.2
12/20/2021 10:45:00 AM 1.72 35.096 0.067 6.94 2.27 14.2
12/20/2021 11:00:00 AM 1.8 35.24 0.066 6.95 2.22 14.19
12/20/2021 11:15:00 AM 1.89 35.402 0.066 6.96 2.25 14.18
12/20/2021 11:30:00 AM 1.98 35.564 0.066 6.94 2.2 14.16
12/20/2021 11:45:00 AM 2.05 35.69 0.066 6.97 2.17 14.12
12/20/2021 12:00:00 PM 2.14 35.852 0.066 6.98 2.19 14.1
12/20/2021 12:15:00 PM 2.24 36.032 0.066 6.98 2.18 14.07
12/20/2021 12:30:00 PM 2.34 36.212 0.066 6.99 2.23 14.04
12/20/2021 12:45:00 PM 2.43 36.374 0.065 6.97 2.16 13.99
12/20/2021 1:00:00 PM 2.51 36.518 0.066 7.01 2.2 13.96
12/20/2021 1:15:00 PM 2.59 36.662 0.065 7.01 2.17 13.92
12/20/2021 1:30:00 PM 2.68 36.824 0.065 6.99 2.19 13.87
12/20/2021 1:45:00 PM 2.75 36.95 0.065 7.02 2.14 13.83
12/20/2021 2:00:00 PM 2.81 37.058 0.065 7 2.16 13.79
12/20/2021 2:15:00 PM 2.86 37.148 0.065 7.02 2.16 13.74
12/20/2021 2:30:00 PM 2.9 37.22 0.065 7.02 2.2 13.69
12/20/2021 2:45:00 PM 2.93 37.274 0.065 7.02 2.21 13.66
12/20/2021 3:00:00 PM 2.97 37.346 0.064 7.02 2.15 13.61
12/20/2021 3:15:00 PM 2.99 37.382 0.064 6.99 2.16 13.58
12/20/2021 3:30:00 PM 2.99 37.382 0.064 7.01 2.24 13.54
12/20/2021 3:45:00 PM 2.98 37.364 0.064 6.99 2.19 13.5
12/20/2021 4:00:00 PM 2.97 37.346 0.064 6.98 2.27 13.46
12/20/2021 4:15:00 PM 2.96 37.328 0.064 6.98 2.2 13.44
12/20/2021 4:30:00 PM 2.94 37.292 0.064 6.97 2.17 13.41
12/20/2021 4:45:00 PM 2.91 37.238 0.064 6.93 2.2 13.37
12/20/2021 5:00:00 PM 2.88 37.184 0.064 6.92 2.14 13.35
12/20/2021 5:15:00 PM 2.85 37.13 0.064 6.9 2.32 13.32
12/20/2021 5:30:00 PM 2.82 37.076 0.064 6.9 2.29 13.31
12/20/2021 5:45:00 PM 2.79 37.022 0.064 6.9 2.34 13.3
12/20/2021 6:00:00 PM 2.75 36.95 0.064 6.89 2.37 13.29
12/20/2021 6:15:00 PM 2.71 36.878 0.064 6.84 2.38 13.29
12/20/2021 6:30:00 PM 2.68 36.824 0.064 6.86 2.41 13.3
12/20/2021 6:45:00 PM 2.64 36.752 0.064 6.86 2.37 13.3
12/20/2021 7:00:00 PM 2.61 36.698 0.064 6.85 2.51 13.31
12/20/2021 7:15:00 PM 2.58 36.644 0.064 6.84 2.49 13.32
12/20/2021 7:30:00 PM 2.55 36.59 0.064 6.86 2.53 13.32
12/20/2021 7:45:00 PM 2.52 36.536 0.064 6.85 2.48 13.33
12/20/2021 8:00:00 PM 2.5 36.5 0.064 6.83 2.5 13.34
12/20/2021 8:15:00 PM 2.47 36.446 0.064 6.83 2.47 13.34
12/20/2021 8:30:00 PM 2.44 36.392 0.064 6.8 2.51 13.35
12/20/2021 8:45:00 PM 2.42 36.356 0.064 6.84 2.51 13.36
12/20/2021 9:00:00 PM 2.39 36.302 0.064 6.79 2.59 13.37
12/20/2021 9:15:00 PM 2.37 36.266 0.064 6.82 2.55 13.37
12/20/2021 9:30:00 PM 2.34 36.212 0.064 6.81 2.65 13.38
12/20/2021 9:45:00 PM 2.32 36.176 0.063 6.83 2.48 13.39
12/20/2021 10:00:00 PM 2.29 36.122 0.063 6.81 2.55 13.4
12/20/2021 10:15:00 PM 2.27 36.086 0.063 6.82 2.53 13.4
12/20/2021 10:30:00 PM 2.25 36.05 0.063 6.81 2.54 13.41
12/20/2021 10:45:00 PM 2.22 35.996 0.063 6.78 2.5 13.43
12/20/2021 11:00:00 PM 2.19 35.942 0.063 6.81 2.61 13.44
12/20/2021 11:15:00 PM 2.17 35.906 0.063 6.81 2.65 13.44
12/20/2021 11:30:00 PM 2.14 35.852 0.063 6.82 2.5 13.44
12/20/2021 11:45:00 PM 2.12 35.816 0.063 6.76 2.51 13.45
12/21/2021 12:00:00 AM 2.09 35.762 0.063 6.81 2.48 13.46
12/21/2021 12:15:00 AM 2.07 35.726 0.063 6.77 2.54 13.47
12/21/2021 12:30:00 AM 2.04 35.672 0.063 6.78 2.63 13.49
12/21/2021 12:45:00 AM 2.01 35.618 0.063 6.79 2.53 13.48
12/21/2021 1:00:00 AM 1.99 35.582 0.063 6.79 2.52 13.49
12/21/2021 1:15:00 AM 1.96 35.528 0.063 6.81 2.62 13.51
12/21/2021 1:30:00 AM 1.93 35.474 0.063 6.77 2.67 13.52
12/21/2021 1:45:00 AM 1.91 35.438 0.062 6.79 2.65 13.52
12/21/2021 2:00:00 AM 1.88 35.384 0.062 6.79 2.66 13.54
12/21/2021 2:15:00 AM 1.85 35.33 0.062 6.78 2.74 13.56
12/21/2021 2:30:00 AM 1.82 35.276 0.062 6.77 2.79 13.57
12/21/2021 2:45:00 AM 1.8 35.24 0.062 6.78 2.72 13.58
12/21/2021 3:00:00 AM 1.78 35.204 0.062 6.78 2.81 13.58
12/21/2021 3:15:00 AM 1.77 35.186 0.062 6.8 2.69 13.59
12/21/2021 3:30:00 AM 1.77 35.186 0.062 6.8 2.73 13.6
12/21/2021 3:45:00 AM 1.76 35.168 0.062 6.78 2.54 13.61
12/21/2021 4:00:00 AM 1.74 35.132 0.062 6.79 2.47 13.62
12/21/2021 4:15:00 AM 1.73 35.114 0.062 6.79 2.51 13.62
12/21/2021 4:30:00 AM 1.72 35.096 0.062 6.77 2.41 13.62
12/21/2021 4:45:00 AM 1.71 35.078 0.062 6.77 2.55 13.63
12/21/2021 5:00:00 AM 1.71 35.078 0.062 6.77 2.6 13.63
12/21/2021 5:15:00 AM 1.71 35.078 0.062 6.78 2.7 13.63
12/21/2021 5:30:00 AM 1.72 35.096 0.062 6.77 2.48 13.63
12/21/2021 5:45:00 AM 1.73 35.114 0.062 6.78 2.51 13.63
12/21/2021 6:00:00 AM 1.75 35.15 0.062 6.77 2.54 13.63
12/21/2021 6:15:00 AM 1.76 35.168 0.061 6.79 2.46 13.62
12/21/2021 6:30:00 AM 1.77 35.186 0.061 6.79 2.55 13.61
12/21/2021 6:45:00 AM 1.79 35.222 0.061 6.77 2.4 13.62
12/21/2021 7:00:00 AM 1.8 35.24 0.061 6.78 2.37 13.62
12/21/2021 7:15:00 AM 1.82 35.276 0.061 6.77 2.44 13.62
12/21/2021 7:30:00 AM 1.83 35.294 0.061 6.78 2.37 13.61
12/21/2021 7:45:00 AM 1.85 35.33 0.061 6.8 2.4 13.61
12/21/2021 8:00:00 AM 1.87 35.366 0.061 6.77 2.37 13.61
12/21/2021 8:15:00 AM 1.89 35.402 0.061 6.78 2.33 13.62
12/21/2021 8:30:00 AM 1.92 35.456 0.061 6.81 2.37 13.64
12/21/2021 8:45:00 AM 1.95 35.51 0.061 6.82 2.27 13.67
12/21/2021 9:00:00 AM 1.98 35.564 0.061 6.81 2.25 13.7
12/21/2021 9:15:00 AM 2.02 35.636 0.061 6.84 2.3 13.72
12/21/2021 9:30:00 AM 2.06 35.708 0.06 6.83 2.21 13.76
12/21/2021 9:45:00 AM 2.11 35.798 0.06 6.84 2.26 13.77
12/21/2021 10:00:00 AM 2.16 35.888 0.06 6.86 2.27 13.8
12/21/2021 10:15:00 AM 2.21 35.978 0.06 6.89 2.19 13.81
12/21/2021 10:30:00 AM 2.28 36.104 0.06 6.9 2.12 13.82
12/21/2021 10:45:00 AM 2.33 36.194 0.06 6.86 2.17 13.82
12/21/2021 11:00:00 AM 2.39 36.302 0.06 6.91 2.17 13.81
12/21/2021 11:15:00 AM 2.46 36.428 0.06 6.88 2.11 13.8
12/21/2021 11:30:00 AM 2.52 36.536 0.06 6.9 2.11 13.79
12/21/2021 11:45:00 AM 2.6 36.68 0.059 6.92 2.06 13.77
12/21/2021 12:00:00 PM 2.68 36.824 0.059 6.94 2.15 13.77
12/21/2021 12:15:00 PM 2.78 37.004 0.059 6.96 2.1 13.75
12/21/2021 12:30:00 PM 2.88 37.184 0.059 6.97 2.04 13.74
12/21/2021 12:45:00 PM 2.96 37.328 0.059 6.97 2.06 13.72
12/21/2021 1:00:00 PM 3.03 37.454 0.059 6.98 2.05 13.68
12/21/2021 1:15:00 PM 3.12 37.616 0.059 6.97 2.05 13.64
12/21/2021 1:30:00 PM 3.22 37.796 0.059 6.98 1.99 13.61
12/21/2021 1:45:00 PM 3.28 37.904 0.059 6.97 2.04 13.57
12/21/2021 2:00:00 PM 3.34 38.012 0.059 6.98 2.02 13.53
12/21/2021 2:15:00 PM 3.39 38.102 0.059 6.99 2.06 13.49
12/21/2021 2:30:00 PM 3.42 38.156 0.059 6.97 2.1 13.45
12/21/2021 2:45:00 PM 3.44 38.192 0.059 6.96 2.06 13.4
12/21/2021 3:00:00 PM 3.45 38.21 0.059 6.99 2.02 13.37
12/21/2021 3:15:00 PM 3.47 38.246 0.059 6.99 2.05 13.33
12/21/2021 3:30:00 PM 3.47 38.246 0.059 6.98 2.04 13.3
12/21/2021 3:45:00 PM 3.47 38.246 0.059 6.97 2.04 13.26
12/21/2021 4:00:00 PM 3.48 38.264 0.059 6.93 2.12 13.22
12/21/2021 4:15:00 PM 3.47 38.246 0.059 6.94 2.11 13.19
12/21/2021 4:30:00 PM 3.46 38.228 0.058 6.94 2.14 13.14
12/21/2021 4:45:00 PM 3.44 38.192 0.059 6.94 2.13 13.1
12/21/2021 5:00:00 PM 3.42 38.156 0.059 6.91 2.19 13.05
12/21/2021 5:15:00 PM 3.4 38.12 0.059 6.91 2.15 13.02
12/21/2021 5:30:00 PM 3.37 38.066 0.059 6.9 2.23 13
12/21/2021 5:45:00 PM 3.34 38.012 0.059 6.88 2.17 12.98
12/21/2021 6:00:00 PM 3.3 37.94 0.059 6.86 2.35 12.98
12/21/2021 6:15:00 PM 3.26 37.868 0.059 6.87 2.32 12.98
12/21/2021 6:30:00 PM 3.22 37.796 0.059 6.87 2.32 12.97
12/21/2021 6:45:00 PM 3.18 37.724 0.059 6.87 2.43 12.98
12/21/2021 7:00:00 PM 3.15 37.67 0.059 6.81 2.36 12.98
12/21/2021 7:15:00 PM 3.11 37.598 0.059 6.85 2.3 12.99
12/21/2021 7:30:00 PM 3.07 37.526 0.059 6.83 2.41 13
12/21/2021 7:45:00 PM 3.03 37.454 0.059 6.83 2.39 13.01
12/21/2021 8:00:00 PM 3 37.4 0.059 6.84 2.37 13.01
12/21/2021 8:15:00 PM 2.96 37.328 0.059 6.83 2.56 13.02
12/21/2021 8:30:00 PM 2.94 37.292 0.059 6.83 2.44 13.03
12/21/2021 8:45:00 PM 2.9 37.22 0.059 6.82 2.48 13.04
12/21/2021 9:00:00 PM 2.87 37.166 0.059 6.83 2.45 13.05
12/21/2021 9:15:00 PM 2.84 37.112 0.059 6.81 2.42 13.06
12/21/2021 9:30:00 PM 2.81 37.058 0.059 6.82 2.44 13.07
12/21/2021 9:45:00 PM 2.78 37.004 0.059 6.8 2.5 13.07
12/21/2021 10:00:00 PM 2.74 36.932 0.059 6.82 2.49 13.08
12/21/2021 10:15:00 PM 2.72 36.896 0.059 6.78 2.49 13.09
12/21/2021 10:30:00 PM 2.68 36.824 0.059 6.82 2.61 13.1
12/21/2021 10:45:00 PM 2.64 36.752 0.059 6.81 2.59 13.11
12/21/2021 11:00:00 PM 2.61 36.698 0.059 6.8 2.52 13.12
12/21/2021 11:15:00 PM 2.58 36.644 0.059 6.81 2.54 13.13
12/21/2021 11:30:00 PM 2.54 36.572 0.059 6.81 2.54 13.14
12/21/2021 11:45:00 PM 2.51 36.518 0.058 6.79 2.51 13.15
12/22/2021 12:00:00 AM 2.47 36.446 0.058 6.82 2.52 13.16
12/22/2021 12:15:00 AM 2.44 36.392 0.058 6.82 2.52 13.17
12/22/2021 12:30:00 AM 2.41 36.338 0.058 6.78 2.55 13.17
12/22/2021 12:45:00 AM 2.37 36.266 0.058 6.81 2.75 13.19
12/22/2021 1:00:00 AM 2.34 36.212 0.058 6.79 2.48 13.2
12/22/2021 1:15:00 AM 2.31 36.158 0.058 6.81 2.5 13.21
12/22/2021 1:30:00 AM 2.27 36.086 0.058 6.77 2.64 13.22
12/22/2021 1:45:00 AM 2.24 36.032 0.058 6.81 2.65 13.23
12/22/2021 2:00:00 AM 2.21 35.978 0.058 6.81 2.64 13.24
12/22/2021 2:15:00 AM 2.18 35.924 0.058 6.79 2.7 13.24
12/22/2021 2:30:00 AM 2.15 35.87 0.058 6.78 2.67 13.25
12/22/2021 2:45:00 AM 2.12 35.816 0.058 6.82 2.57 13.26
12/22/2021 3:00:00 AM 2.1 35.78 0.058 6.78 2.52 13.28
12/22/2021 3:15:00 AM 2.09 35.762 0.058 6.81 2.66 13.28
12/22/2021 3:30:00 AM 2.09 35.762 0.058 6.81 2.46 13.28
12/22/2021 3:45:00 AM 2.1 35.78 0.058 6.81 2.52 13.3
12/22/2021 4:00:00 AM 2.11 35.798 0.058 6.82 2.5 13.29
12/22/2021 4:15:00 AM 2.11 35.798 0.058 6.82 2.35 13.28
12/22/2021 4:30:00 AM 2.12 35.816 0.058 6.77 2.42 13.28
12/22/2021 4:45:00 AM 2.12 35.816 0.058 6.8 2.56 13.29
12/22/2021 5:00:00 AM 2.12 35.816 0.058 6.81 2.53 13.28
12/22/2021 5:15:00 AM 2.13 35.834 0.058 6.78 2.59 13.28
12/22/2021 5:30:00 AM 2.13 35.834 0.058 6.81 2.62 13.29
12/22/2021 5:45:00 AM 2.13 35.834 0.058 6.8 2.58 13.28
12/22/2021 6:00:00 AM 2.15 35.87 0.058 6.81 2.45 13.27
12/22/2021 6:15:00 AM 2.16 35.888 0.058 6.81 2.39 13.27
12/22/2021 6:30:00 AM 2.17 35.906 0.058 6.8 2.44 13.28
12/22/2021 6:45:00 AM 2.18 35.924 0.058 6.82 2.31 13.26
12/22/2021 7:00:00 AM 2.2 35.96 0.058 6.81 2.35 13.27
12/22/2021 7:15:00 AM 2.21 35.978 0.058 6.82 2.4 13.26
12/22/2021 7:30:00 AM 2.23 36.014 0.057 6.8 2.37 13.27
12/22/2021 7:45:00 AM 2.24 36.032 0.058 6.81 2.34 13.26
12/22/2021 8:00:00 AM 2.28 36.104 0.057 6.81 2.36 13.25
12/22/2021 8:15:00 AM 2.3 36.14 0.057 6.82 2.43 13.26
12/22/2021 8:30:00 AM 2.33 36.194 0.057 6.81 2.24 13.28
12/22/2021 8:45:00 AM 2.37 36.266 0.057 6.82 2.21 13.3
12/22/2021 9:00:00 AM 2.41 36.338 0.057 6.85 2.24 13.35
12/22/2021 9:15:00 AM 2.45 36.41 0.057 6.87 2.21 13.39
12/22/2021 9:30:00 AM 2.5 36.5 0.057 6.86 2.22 13.43
12/22/2021 9:45:00 AM 2.55 36.59 0.057 6.88 2.21 13.45
12/22/2021 10:00:00 AM 2.58 36.644 0.057 6.89 2.2 13.46
12/22/2021 10:15:00 AM 2.64 36.752 0.057 6.92 2.2 13.48
12/22/2021 10:30:00 AM 2.69 36.842 0.057 6.93 2.12 13.5
12/22/2021 10:45:00 AM 2.76 36.968 0.056 6.93 2.12 13.52
12/22/2021 11:00:00 AM 2.78 37.004 0.056 6.94 2.1 13.51
12/22/2021 11:15:00 AM 2.83 37.094 0.056 6.95 2.11 13.5
12/22/2021 11:30:00 AM 2.87 37.166 0.056 6.96 2.11 13.5
12/22/2021 11:45:00 AM 2.91 37.238 0.056 6.96 2.08 13.5
12/22/2021 12:00:00 PM 2.94 37.292 0.056 6.95 2.06 13.49
12/22/2021 12:15:00 PM 2.96 37.328 0.056 6.97 2.08 13.49
12/22/2021 12:30:00 PM 2.98 37.364 0.056 6.97 2.03 13.49
12/22/2021 12:45:00 PM 3 37.4 0.056 6.97 2.01 13.49
12/22/2021 1:00:00 PM 3 37.4 0.056 6.96 2.04 13.48
12/22/2021 1:15:00 PM 3.01 37.418 0.056 6.98 1.96 13.46
12/22/2021 1:30:00 PM 3.02 37.436 0.056 6.98 2.03 13.47
12/22/2021 1:45:00 PM 3.05 37.49 0.056 6.97 2.01 13.48
12/22/2021 2:00:00 PM 3.04 37.472 0.056 6.98 2 13.47
12/22/2021 2:15:00 PM 3.05 37.49 0.056 6.99 2.03 13.47
12/22/2021 2:30:00 PM 3.04 37.472 0.056 6.98 2.01 13.46
12/22/2021 2:45:00 PM 3.03 37.454 0.056 6.98 2.04 13.44
12/22/2021 3:00:00 PM 3.03 37.454 0.056 6.97 2.01 13.42
12/22/2021 3:15:00 PM 3.02 37.436 0.056 6.95 1.98 13.4
12/22/2021 3:30:00 PM 3.01 37.418 0.056 6.96 2.02 13.39
12/22/2021 3:45:00 PM 3.01 37.418 0.056 6.95 2.04 13.37
12/22/2021 4:00:00 PM 2.98 37.364 0.056 6.95 2.08 13.35
12/22/2021 4:15:00 PM 2.97 37.346 0.056 6.92 2.01 13.31
12/22/2021 4:30:00 PM 2.95 37.31 0.056 6.93 2.07 13.28
12/22/2021 4:45:00 PM 2.92 37.256 0.056 6.91 2.07 13.25
12/22/2021 5:00:00 PM 2.89 37.202 0.056 6.91 2.04 13.23
12/22/2021 5:15:00 PM 2.86 37.148 0.056 6.88 2.06 13.2
12/22/2021 5:30:00 PM 2.83 37.094 0.056 6.88 2.13 13.19
12/22/2021 5:45:00 PM 2.81 37.058 0.056 6.87 2.1 13.19
12/22/2021 6:00:00 PM 2.77 36.986 0.056 6.86 2.22 13.19
12/22/2021 6:15:00 PM 2.73 36.914 0.056 6.87 2.21 13.19
12/22/2021 6:30:00 PM 2.71 36.878 0.056 6.84 2.25 13.2
12/22/2021 6:45:00 PM 2.68 36.824 0.056 6.83 2.13 13.21
12/22/2021 7:00:00 PM 2.64 36.752 0.056 6.84 2.18 13.22
12/22/2021 7:15:00 PM 2.6 36.68 0.056 6.83 2.14 13.24
12/22/2021 7:30:00 PM 2.57 36.626 0.056 6.83 2.26 13.25
12/22/2021 7:45:00 PM 2.55 36.59 0.056 6.83 2.23 13.26
12/22/2021 8:00:00 PM 2.53 36.554 0.056 6.84 2.33 13.27
12/22/2021 8:15:00 PM 2.5 36.5 0.056 6.83 2.3 13.28
12/22/2021 8:30:00 PM 2.48 36.464 0.056 6.83 2.15 13.29
12/22/2021 8:45:00 PM 2.45 36.41 0.056 6.84 2.34 13.3
12/22/2021 9:00:00 PM 2.43 36.374 0.056 6.83 2.36 13.32
12/22/2021 9:15:00 PM 2.41 36.338 0.056 6.81 2.38 13.32
12/22/2021 9:30:00 PM 2.38 36.284 0.056 6.83 2.4 13.34
12/22/2021 9:45:00 PM 2.36 36.248 0.056 6.84 2.36 13.35
12/22/2021 10:00:00 PM 2.33 36.194 0.056 6.82 2.37 13.35
12/22/2021 10:15:00 PM 2.31 36.158 0.056 6.82 2.33 13.37
12/22/2021 10:30:00 PM 2.3 36.14 0.056 6.82 2.41 13.37
12/22/2021 10:45:00 PM 2.28 36.104 0.056 6.83 2.43 13.39
12/22/2021 11:00:00 PM 2.26 36.068 0.056 6.83 2.42 13.4
12/22/2021 11:15:00 PM 2.24 36.032 0.056 6.83 2.34 13.4
12/22/2021 11:30:00 PM 2.22 35.996 0.056 6.78 2.49 13.41
12/22/2021 11:45:00 PM 2.2 35.96 0.056 6.81 2.59 13.42
12/23/2021 12:00:00 AM 2.19 35.942 0.056 6.81 2.49 13.43
12/23/2021 12:15:00 AM 2.16 35.888 0.056 6.82 2.44 13.44
12/23/2021 12:30:00 AM 2.15 35.87 0.056 6.82 2.35 13.44
12/23/2021 12:45:00 AM 2.13 35.834 0.056 6.82 2.37 13.45
12/23/2021 1:00:00 AM 2.1 35.78 0.056 6.82 2.49 13.46
12/23/2021 1:15:00 AM 2.08 35.744 0.056 6.81 2.6 13.46
12/23/2021 1:30:00 AM 2.06 35.708 0.056 6.79 2.56 13.48
12/23/2021 1:45:00 AM 2.04 35.672 0.056 6.81 2.41 13.48
12/23/2021 2:00:00 AM 2.01 35.618 0.056 6.78 2.43 13.5
12/23/2021 2:15:00 AM 2 35.6 0.056 6.81 2.5 13.51
12/23/2021 2:30:00 AM 1.98 35.564 0.056 6.81 2.53 13.52
12/23/2021 2:45:00 AM 1.95 35.51 0.056 6.82 2.43 13.52
12/23/2021 3:00:00 AM 1.92 35.456 0.056 6.79 2.54 13.54
12/23/2021 3:15:00 AM 1.88 35.384 0.056 6.81 2.62 13.56
12/23/2021 3:30:00 AM 1.84 35.312 0.056 6.81 2.42 13.56
12/23/2021 3:45:00 AM 1.8 35.24 0.056 6.79 2.42 13.59
12/23/2021 4:00:00 AM 1.77 35.186 0.056 6.81 2.48 13.59
12/23/2021 4:15:00 AM 1.75 35.15 0.056 6.81 2.47 13.61
12/23/2021 4:30:00 AM 1.72 35.096 0.056 6.78 2.42 13.62
12/23/2021 4:45:00 AM 1.71 35.078 0.056 6.8 2.47 13.63
12/23/2021 5:00:00 AM 1.69 35.042 0.056 6.81 2.45 13.64
12/23/2021 5:15:00 AM 1.67 35.006 0.056 6.79 2.48 13.65
12/23/2021 5:30:00 AM 1.67 35.006 0.056 6.8 2.5 13.66
12/23/2021 5:45:00 AM 1.66 34.988 0.056 6.78 2.46 13.66
12/23/2021 6:00:00 AM 1.65 34.97 0.056 6.81 2.31 13.67
12/23/2021 6:15:00 AM 1.64 34.952 0.056 6.8 2.34 13.68
12/23/2021 6:30:00 AM 1.63 34.934 0.056 6.79 2.26 13.69
12/23/2021 6:45:00 AM 1.62 34.916 0.056 6.81 2.21 13.7
12/23/2021 7:00:00 AM 1.61 34.898 0.056 6.78 2.18 13.7
12/23/2021 7:15:00 AM 1.61 34.898 0.056 6.8 2.2 13.71
12/23/2021 7:30:00 AM 1.6 34.88 0.056 6.78 2.1 13.72
12/23/2021 7:45:00 AM 1.59 34.862 0.056 6.79 2.22 13.73
12/23/2021 8:00:00 AM 1.58 34.844 0.056 6.8 2.2 13.75
12/23/2021 8:15:00 AM 1.58 34.844 0.056 6.81 2.22 13.79
12/23/2021 8:30:00 AM 1.58 34.844 0.056 6.82 2.2 13.85
12/23/2021 8:45:00 AM 1.59 34.862 0.056 6.84 2.16 13.89
12/23/2021 9:00:00 AM 1.59 34.862 0.056 6.86 2.14 13.94
12/23/2021 9:15:00 AM 1.59 34.862 0.056 6.82 2.08 13.98
12/23/2021 9:30:00 AM 1.62 34.916 0.056 6.87 2.1 14.02
12/23/2021 9:45:00 AM 1.66 34.988 0.055 6.88 2.01 14.06
12/23/2021 10:00:00 AM 1.7 35.06 0.055 6.89 2.03 14.08
12/23/2021 10:15:00 AM 1.74 35.132 0.055 6.89 2.06 14.1
12/23/2021 10:30:00 AM 1.78 35.204 0.055 6.88 1.98 14.12
12/23/2021 10:45:00 AM 1.83 35.294 0.055 6.9 2.01 14.11
12/23/2021 11:00:00 AM 1.87 35.366 0.055 6.93 2 14.13
12/23/2021 11:15:00 AM 1.93 35.474 0.055 6.94 1.91 14.13
12/23/2021 11:30:00 AM 2.01 35.618 0.055 6.92 1.91 14.11
12/23/2021 11:45:00 AM 2.1 35.78 0.055 6.94 1.96 14.08
12/23/2021 12:00:00 PM 2.19 35.942 0.055 6.92 1.96 14.07
12/23/2021 12:15:00 PM 2.32 36.176 0.055 6.95 1.91 14.05
12/23/2021 12:30:00 PM 2.42 36.356 0.055 6.93 1.87 14.02
12/23/2021 12:45:00 PM 2.43 36.374 0.055 6.95 1.86 13.99
12/23/2021 1:00:00 PM 2.41 36.338 0.055 6.95 1.87 13.98
12/23/2021 1:15:00 PM 2.43 36.374 0.055 6.96 1.89 13.96
12/23/2021 1:30:00 PM 2.47 36.446 0.055 6.97 1.86 13.95
12/23/2021 1:45:00 PM 2.52 36.536 0.055 6.97 1.86 13.93
12/23/2021 2:00:00 PM 2.56 36.608 0.055 6.93 1.86 13.9
12/23/2021 2:15:00 PM 2.62 36.716 0.055 6.96 1.94 13.87
12/23/2021 2:30:00 PM 2.67 36.806 0.054 6.97 1.89 13.85
12/23/2021 2:45:00 PM 2.7 36.86 0.054 6.96 1.79 13.82
12/23/2021 3:00:00 PM 2.73 36.914 0.054 6.96 1.85 13.79
12/23/2021 3:15:00 PM 2.76 36.968 0.054 6.98 1.94 13.76
12/23/2021 3:30:00 PM 2.78 37.004 0.054 6.97 1.86 13.72
12/23/2021 3:45:00 PM 2.78 37.004 0.054 6.95 1.88 13.67
12/23/2021 4:00:00 PM 2.77 36.986 0.054 6.9 1.89 13.6
12/23/2021 4:15:00 PM 2.76 36.968 0.055 6.91 1.86 13.54
12/23/2021 4:30:00 PM 2.75 36.95 0.055 6.89 1.88 13.5
12/23/2021 4:45:00 PM 2.73 36.914 0.055 6.87 1.9 13.45
12/23/2021 5:00:00 PM 2.72 36.896 0.055 6.87 1.94 13.41
12/23/2021 5:15:00 PM 2.69 36.842 0.055 6.88 1.9 13.39
12/23/2021 5:30:00 PM 2.66 36.788 0.055 6.86 1.96 13.37
12/23/2021 5:45:00 PM 2.64 36.752 0.055 6.86 1.95 13.35
12/23/2021 6:00:00 PM 2.61 36.698 0.055 6.86 2.15 13.34
12/23/2021 6:15:00 PM 2.58 36.644 0.055 6.8 2 13.34
12/23/2021 6:30:00 PM 2.57 36.626 0.055 6.82 2.07 13.34
12/23/2021 6:45:00 PM 2.55 36.59 0.055 6.83 2 13.34
12/23/2021 7:00:00 PM 2.53 36.554 0.055 6.82 2.02 13.34
12/23/2021 7:15:00 PM 2.51 36.518 0.055 6.84 2.01 13.34
12/23/2021 7:30:00 PM 2.5 36.5 0.055 6.82 2.03 13.34
12/23/2021 7:45:00 PM 2.49 36.482 0.055 6.82 2.06 13.34
12/23/2021 8:00:00 PM 2.48 36.464 0.055 6.83 2.01 13.34
12/23/2021 8:15:00 PM 2.48 36.464 0.055 6.81 2.05 13.34
12/23/2021 8:30:00 PM 2.47 36.446 0.055 6.83 2.07 13.33
12/23/2021 8:45:00 PM 2.46 36.428 0.055 6.82 2.05 13.34
12/23/2021 9:00:00 PM 2.46 36.428 0.055 6.82 2.07 13.34
12/23/2021 9:15:00 PM 2.45 36.41 0.055 6.82 2.07 13.33
12/23/2021 9:30:00 PM 2.44 36.392 0.055 6.83 2.22 13.34
12/23/2021 9:45:00 PM 2.44 36.392 0.055 6.83 2.16 13.33
12/23/2021 10:00:00 PM 2.45 36.41 0.055 6.83 2.21 13.33
12/23/2021 10:15:00 PM 2.44 36.392 0.055 6.83 2.2 13.33
12/23/2021 10:30:00 PM 2.43 36.374 0.055 6.83 2.22 13.33
12/23/2021 10:45:00 PM 2.38 36.284 0.055 6.81 2.26 13.32
12/23/2021 11:00:00 PM 2.37 36.266 0.055 6.81 2.28 13.32
12/23/2021 11:15:00 PM 2.34 36.212 0.055 6.81 2.32 13.33
12/23/2021 11:30:00 PM 2.29 36.122 0.055 6.79 2.26 13.33
12/23/2021 11:45:00 PM 2.2 35.96 0.055 6.81 2.28 13.33
12/24/2021 12:00:00 AM 2.17 35.906 0.055 6.81 2.27 13.36
12/24/2021 12:15:00 AM 2.17 35.906 0.055 6.81 2.33 13.37
12/24/2021 12:30:00 AM 2.17 35.906 0.055 6.8 2.22 13.37
12/24/2021 12:45:00 AM 2.18 35.924 0.055 6.82 2.27 13.38
12/24/2021 1:00:00 AM 2.2 35.96 0.055 6.82 2.3 13.38
12/24/2021 1:15:00 AM 2.21 35.978 0.055 6.8 2.43 13.4
12/24/2021 1:30:00 AM 2.21 35.978 0.055 6.8 2.29 13.4
12/24/2021 1:45:00 AM 2.21 35.978 0.055 6.81 2.29 13.4
12/24/2021 2:00:00 AM 2.22 35.996 0.055 6.79 2.32 13.4
12/24/2021 2:15:00 AM 2.23 36.014 0.055 6.79 2.21 13.39
12/24/2021 2:30:00 AM 2.24 36.032 0.055 6.8 2.17 13.39
12/24/2021 2:45:00 AM 2.26 36.068 0.055 6.81 2.13 13.38
12/24/2021 3:00:00 AM 2.26 36.068 0.055 6.81 2.13 13.39
12/24/2021 3:15:00 AM 2.27 36.086 0.055 6.81 2.13 13.38
12/24/2021 3:30:00 AM 2.28 36.104 0.055 6.78 2.1 13.38
12/24/2021 3:45:00 AM 2.29 36.122 0.055 6.81 2.15 13.37
12/24/2021 4:00:00 AM 2.29 36.122 0.055 6.81 2.12 13.38
12/24/2021 4:15:00 AM 2.31 36.158 0.055 6.79 2.06 13.37
12/24/2021 4:30:00 AM 2.32 36.176 0.055 6.82 2.18 13.37
12/24/2021 4:45:00 AM 2.32 36.176 0.055 6.81 2.15 13.37
12/24/2021 5:00:00 AM 2.33 36.194 0.055 6.81 2.23 13.36
12/24/2021 5:15:00 AM 2.34 36.212 0.055 6.82 2.18 13.37
12/24/2021 5:30:00 AM 2.34 36.212 0.055 6.81 2.15 13.36
12/24/2021 5:45:00 AM 2.35 36.23 0.055 6.79 2.27 13.36
12/24/2021 6:00:00 AM 2.36 36.248 0.055 6.81 2.14 13.36
12/24/2021 6:15:00 AM 2.36 36.248 0.055 6.82 2.15 13.36
12/24/2021 6:30:00 AM 2.37 36.266 0.055 6.78 2.19 13.36
12/24/2021 6:45:00 AM 2.38 36.284 0.055 6.81 2.13 13.35
12/24/2021 7:00:00 AM 2.39 36.302 0.055 6.81 2.11 13.35
12/24/2021 7:15:00 AM 2.39 36.302 0.055 6.81 2.15 13.35
12/24/2021 7:30:00 AM 2.4 36.32 0.055 6.8 2.15 13.35
12/24/2021 7:45:00 AM 2.41 36.338 0.055 6.81 2.1 13.36
12/24/2021 8:00:00 AM 2.42 36.356 0.055 6.79 2.02 13.36
12/24/2021 8:15:00 AM 2.43 36.374 0.055 6.79 2.02 13.38
12/24/2021 8:30:00 AM 2.45 36.41 0.055 6.83 2.07 13.41
12/24/2021 8:45:00 AM 2.47 36.446 0.055 6.82 2.06 13.44
12/24/2021 9:00:00 AM 2.49 36.482 0.055 6.84 2.04 13.48
12/24/2021 9:15:00 AM 2.52 36.536 0.055 6.82 2.03 13.52
12/24/2021 9:30:00 AM 2.55 36.59 0.055 6.87 2.02 13.56
12/24/2021 9:45:00 AM 2.6 36.68 0.055 6.88 2.03 13.6
12/24/2021 10:00:00 AM 2.65 36.77 0.055 6.88 2.07 13.64
12/24/2021 10:15:00 AM 2.71 36.878 0.055 6.91 2.01 13.67
12/24/2021 10:30:00 AM 2.78 37.004 0.055 6.92 1.94 13.69
12/24/2021 10:45:00 AM 2.85 37.13 0.055 6.93 1.98 13.69
12/24/2021 11:00:00 AM 2.92 37.256 0.054 6.94 1.91 13.68
12/24/2021 11:15:00 AM 3.01 37.418 0.054 6.94 1.9 13.67
12/24/2021 11:30:00 AM 3.12 37.616 0.054 6.96 1.94 13.65
12/24/2021 11:45:00 AM 3.23 37.814 0.054 6.94 1.96 13.63
12/24/2021 12:00:00 PM 3.32 37.976 0.054 6.97 1.94 13.59
12/24/2021 12:15:00 PM 3.41 38.138 0.054 6.92 1.94 13.57
12/24/2021 12:30:00 PM 3.48 38.264 0.054 6.98 1.92 13.54
12/24/2021 12:45:00 PM 3.55 38.39 0.054 6.95 1.95 13.52
12/24/2021 1:00:00 PM 3.6 38.48 0.054 6.98 1.88 13.49
12/24/2021 1:15:00 PM 3.67 38.606 0.054 6.94 1.89 13.47
12/24/2021 1:30:00 PM 3.73 38.714 0.054 6.98 1.9 13.44
12/24/2021 1:45:00 PM 3.8 38.84 0.054 6.99 1.87 13.41
12/24/2021 2:00:00 PM 3.86 38.948 0.054 6.98 1.84 13.38
12/24/2021 2:15:00 PM 3.9 39.02 0.054 7 1.85 13.35
12/24/2021 2:30:00 PM 3.94 39.092 0.054 6.99 1.89 13.33
12/24/2021 2:45:00 PM 3.97 39.146 0.054 6.97 1.86 13.29
12/24/2021 3:00:00 PM 4.01 39.218 0.054 6.99 1.9 13.26
12/24/2021 3:15:00 PM 4.06 39.308 0.054 6.98 1.87 13.24
12/24/2021 3:30:00 PM 4.1 39.38 0.054 6.98 1.86 13.2
12/24/2021 3:45:00 PM 4.11 39.398 0.054 6.98 1.89 13.15
12/24/2021 4:00:00 PM 4.12 39.416 0.054 6.98 1.88 13.1
12/24/2021 4:15:00 PM 4.14 39.452 0.054 6.96 1.97 13.04
12/24/2021 4:30:00 PM 4.15 39.47 0.054 6.92 1.97 12.97
12/24/2021 4:45:00 PM 4.14 39.452 0.054 6.92 1.98 12.91
12/24/2021 5:00:00 PM 4.14 39.452 0.054 6.91 1.93 12.86
12/24/2021 5:15:00 PM 4.14 39.452 0.054 6.89 1.96 12.81
12/24/2021 5:30:00 PM 4.13 39.434 0.054 6.89 2 12.78
12/24/2021 5:45:00 PM 4.11 39.398 0.054 6.87 2.04 12.76
12/24/2021 6:00:00 PM 4.09 39.362 0.054 6.87 1.94 12.74
12/24/2021 6:15:00 PM 4.08 39.344 0.054 6.83 2.03 12.73
12/24/2021 6:30:00 PM 4.07 39.326 0.054 6.87 2.06 12.73
12/24/2021 6:45:00 PM 4.06 39.308 0.055 6.86 2.1 12.72
12/24/2021 7:00:00 PM 4.04 39.272 0.055 6.85 2.06 12.71
12/24/2021 7:15:00 PM 4.03 39.254 0.055 6.86 2.04 12.71
12/24/2021 7:30:00 PM 4.03 39.254 0.055 6.85 2.08 12.71
12/24/2021 7:45:00 PM 4.03 39.254 0.055 6.85 2.03 12.7
12/24/2021 8:00:00 PM 4.02 39.236 0.055 6.84 2.09 12.71
12/24/2021 8:15:00 PM 4.02 39.236 0.055 6.85 2.08 12.71
12/24/2021 8:30:00 PM 4.01 39.218 0.055 6.86 2.15 12.7
12/24/2021 8:45:00 PM 4.01 39.218 0.055 6.84 2.18 12.7
12/24/2021 9:00:00 PM 4.01 39.218 0.055 6.84 2.07 12.7
12/24/2021 9:15:00 PM 4.02 39.236 0.055 6.84 2.15 12.7
12/24/2021 9:30:00 PM 4.02 39.236 0.055 6.85 2.15 12.69
12/24/2021 9:45:00 PM 4.01 39.218 0.055 6.84 2.25 12.69
12/24/2021 10:00:00 PM 4.02 39.236 0.055 6.83 2.17 12.68
12/24/2021 10:15:00 PM 4.02 39.236 0.055 6.84 2.33 12.68
12/24/2021 10:30:00 PM 4.02 39.236 0.055 6.84 2.26 12.68
12/24/2021 10:45:00 PM 4.02 39.236 0.055 6.83 2.21 12.68
12/24/2021 11:00:00 PM 4.03 39.254 0.055 6.83 2.26 12.68
12/24/2021 11:15:00 PM 4.03 39.254 0.055 6.83 2.22 12.67
12/24/2021 11:30:00 PM 4.04 39.272 0.055 6.82 2.19 12.67
12/24/2021 11:45:00 PM 4.04 39.272 0.055 6.83 2.24 12.67
12/25/2021 12:00:00 AM 4.05 39.29 0.055 6.83 2.2 12.66
12/25/2021 12:15:00 AM 4.05 39.29 0.055 6.82 2.31 12.66
12/25/2021 12:30:00 AM 4.06 39.308 0.055 6.84 2.24 12.65
12/25/2021 12:45:00 AM 4.07 39.326 0.055 6.79 2.23 12.64
12/25/2021 1:00:00 AM 4.07 39.326 0.055 6.84 2.23 12.64
12/25/2021 1:15:00 AM 4.08 39.344 0.055 6.82 2.25 12.63
12/25/2021 1:30:00 AM 4.09 39.362 0.055 6.83 2.27 12.62
12/25/2021 1:45:00 AM 4.1 39.38 0.055 6.8 2.34 12.62
12/25/2021 2:00:00 AM 4.11 39.398 0.055 6.82 2.34 12.61
12/25/2021 2:15:00 AM 4.11 39.398 0.055 6.83 2.31 12.6
12/25/2021 2:30:00 AM 4.12 39.416 0.055 6.83 2.32 12.6
12/25/2021 2:45:00 AM 4.13 39.434 0.055 6.84 2.28 12.59
12/25/2021 3:00:00 AM 4.14 39.452 0.055 6.8 2.29 12.59
12/25/2021 3:15:00 AM 4.14 39.452 0.055 6.83 2.3 12.58
12/25/2021 3:30:00 AM 4.15 39.47 0.055 6.82 2.28 12.58
12/25/2021 3:45:00 AM 4.16 39.488 0.055 6.82 2.35 12.57
12/25/2021 4:00:00 AM 4.17 39.506 0.055 6.83 2.26 12.57
12/25/2021 4:15:00 AM 4.18 39.524 0.055 6.84 2.22 12.56
12/25/2021 4:30:00 AM 4.18 39.524 0.055 6.83 2.39 12.56
12/25/2021 4:45:00 AM 4.19 39.542 0.055 6.83 2.26 12.55
12/25/2021 5:00:00 AM 4.2 39.56 0.055 6.84 2.38 12.54
12/25/2021 5:15:00 AM 4.21 39.578 0.055 6.83 2.34 12.53
12/25/2021 5:30:00 AM 4.22 39.596 0.055 6.84 2.35 12.53
12/25/2021 5:45:00 AM 4.22 39.596 0.055 6.82 2.41 12.52
12/25/2021 6:00:00 AM 4.23 39.614 0.055 6.82 2.45 12.52
12/25/2021 6:15:00 AM 4.23 39.614 0.057 6.83 2.37 12.52
12/25/2021 6:30:00 AM 4.23 39.614 0.057 6.84 2.43 12.51
12/25/2021 6:45:00 AM 4.24 39.632 0.057 6.8 2.46 12.51
12/25/2021 7:00:00 AM 4.25 39.65 0.056 6.81 2.43 12.5
12/25/2021 7:15:00 AM 4.25 39.65 0.056 6.84 2.53 12.49
12/25/2021 7:30:00 AM 4.26 39.668 0.056 6.84 2.52 12.49
12/25/2021 7:45:00 AM 4.27 39.686 0.055 6.84 2.54 12.48
12/25/2021 8:00:00 AM 4.27 39.686 0.055 6.85 2.51 12.48
12/25/2021 8:15:00 AM 4.29 39.722 0.055 6.85 2.56 12.49
12/25/2021 8:30:00 AM 4.3 39.74 0.055 6.85 2.67 12.5
12/25/2021 8:45:00 AM 4.31 39.758 0.055 6.86 2.71 12.51
12/25/2021 9:00:00 AM 4.33 39.794 0.055 6.83 2.76 12.52
12/25/2021 9:15:00 AM 4.35 39.83 0.055 6.85 3.16 12.55
12/25/2021 9:30:00 AM 4.37 39.866 0.055 6.87 3.82 12.58
12/25/2021 9:45:00 AM 4.4 39.92 0.055 6.89 4.1 12.6
12/25/2021 10:00:00 AM 4.43 39.974 0.055 6.85 4.17 12.62
12/25/2021 10:15:00 AM 4.45 40.01 0.055 6.9 4 12.63
12/25/2021 10:30:00 AM 4.48 40.064 0.055 6.88 4.07 12.64
12/25/2021 10:45:00 AM 4.51 40.118 0.055 6.91 4.01 12.64
12/25/2021 11:00:00 AM 4.53 40.154 0.055 6.92 4.06 12.66
12/25/2021 11:15:00 AM 4.56 40.208 0.055 6.92 4.03 12.66
12/25/2021 11:30:00 AM 4.59 40.262 0.055 6.93 4.34 12.65
12/25/2021 11:45:00 AM 4.62 40.316 0.055 6.94 4.52 12.65
12/25/2021 12:00:00 PM 4.66 40.388 0.055 6.95 4.47 12.66
12/25/2021 12:15:00 PM 4.68 40.424 0.055 6.95 4.54 12.64
12/25/2021 12:30:00 PM 4.72 40.496 0.055 6.96 4.71 12.65
12/25/2021 12:45:00 PM 4.77 40.586 0.056 6.95 5.09 12.67
12/25/2021 1:00:00 PM 4.8 40.64 0.056 6.98 5.06 12.67
12/25/2021 1:15:00 PM 4.85 40.73 0.056 6.96 5.28 12.67
12/25/2021 1:30:00 PM 4.89 40.802 0.056 6.99 5.15 12.67
12/25/2021 1:45:00 PM 4.91 40.838 0.056 6.98 5.36 12.62
12/25/2021 2:00:00 PM 4.92 40.856 0.057 6.96 5.61 12.57
12/25/2021 2:15:00 PM 4.95 40.91 0.057 6.94 5.53 12.55
12/25/2021 2:30:00 PM 4.99 40.982 0.057 6.95 5.62 12.56
12/25/2021 2:45:00 PM 5.02 41.036 0.057 6.96 5.72 12.53
12/25/2021 3:00:00 PM 5.05 41.09 0.057 6.92 5.58 12.5
12/25/2021 3:15:00 PM 5.08 41.144 0.057 6.96 5.89 12.47
12/25/2021 3:30:00 PM 5.1 41.18 0.057 6.94 6.14 12.43
12/25/2021 3:45:00 PM 5.15 41.27 0.057 6.92 5.98 12.45
12/25/2021 4:00:00 PM 5.18 41.324 0.056 6.94 5.62 12.44
12/25/2021 4:15:00 PM 5.2 41.36 0.056 6.93 5.59 12.39
12/25/2021 4:30:00 PM 5.22 41.396 0.056 6.9 5.53 12.34
12/25/2021 4:45:00 PM 5.24 41.432 0.056 6.9 5.31 12.29
12/25/2021 5:00:00 PM 5.26 41.468 0.056 6.89 5.44 12.26
12/25/2021 5:15:00 PM 5.28 41.504 0.056 6.88 5.88 12.24
12/25/2021 5:30:00 PM 5.3 41.54 0.055 6.87 5.48 12.21
12/25/2021 5:45:00 PM 5.33 41.594 0.055 6.86 5.54 12.19
12/25/2021 6:00:00 PM 5.35 41.63 0.055 6.87 5.72 12.18
12/25/2021 6:15:00 PM 5.37 41.666 0.055 6.86 5.68 12.17
12/25/2021 6:30:00 PM 5.39 41.702 0.055 6.87 5.65 12.16
12/25/2021 6:45:00 PM 5.41 41.738 0.055 6.86 5.78 12.15
12/25/2021 7:00:00 PM 5.43 41.774 0.055 6.84 5.65 12.14
12/25/2021 7:15:00 PM 5.45 41.81 0.055 6.86 5.6 12.13
12/25/2021 7:30:00 PM 5.47 41.846 0.055 6.86 5.23 12.13
12/25/2021 7:45:00 PM 5.5 41.9 0.055 6.86 5.37 12.12
12/25/2021 8:00:00 PM 5.52 41.936 0.055 6.83 5.31 12.12
12/25/2021 8:15:00 PM 5.55 41.99 0.055 6.86 5.04 12.11
12/25/2021 8:30:00 PM 5.57 42.026 0.055 6.85 4.97 12.11
12/25/2021 8:45:00 PM 5.59 42.062 0.055 6.86 5.07 12.1
12/25/2021 9:00:00 PM 5.61 42.098 0.055 6.85 5.08 12.1
12/25/2021 9:15:00 PM 5.63 42.134 0.055 6.86 4.82 12.09
12/25/2021 9:30:00 PM 5.65 42.17 0.055 6.81 4.7 12.09
12/25/2021 9:45:00 PM 5.66 42.188 0.055 6.86 4.72 12.09
12/25/2021 10:00:00 PM 5.69 42.242 0.055 6.85 4.6 12.07
12/25/2021 10:15:00 PM 5.71 42.278 0.055 6.87 4.7 12.08
12/25/2021 10:30:00 PM 5.73 42.314 0.055 6.84 4.42 12.08
12/25/2021 10:45:00 PM 5.74 42.332 0.055 6.87 4.49 12.07
12/25/2021 11:00:00 PM 5.76 42.368 0.055 6.86 4.5 12.07
12/25/2021 11:15:00 PM 5.77 42.386 0.055 6.87 4.48 12.07
12/25/2021 11:30:00 PM 5.77 42.386 0.055 6.87 4.28 12.07
12/25/2021 11:45:00 PM 5.77 42.386 0.055 6.87 4.28 12.07
12/26/2021 12:00:00 AM 5.76 42.368 0.055 6.88 4.22 12.07
12/26/2021 12:15:00 AM 5.76 42.368 0.054 6.87 4.32 12.07
12/26/2021 12:30:00 AM 5.75 42.35 0.055 6.86 4.26 12.08
12/26/2021 12:45:00 AM 5.72 42.296 0.054 6.82 4.14 12.09
12/26/2021 1:00:00 AM 5.69 42.242 0.055 6.87 4.04 12.09
12/26/2021 1:15:00 AM 5.66 42.188 0.055 6.87 3.88 12.1
12/26/2021 1:30:00 AM 5.63 42.134 0.055 6.85 3.96 12.11
12/26/2021 1:45:00 AM 5.62 42.116 0.055 6.87 3.91 12.12
12/26/2021 2:00:00 AM 5.61 42.098 0.055 6.86 3.95 12.13
12/26/2021 2:15:00 AM 5.6 42.08 0.055 6.86 3.86 12.13
12/26/2021 2:30:00 AM 5.59 42.062 0.055 6.87 3.84 12.14
12/26/2021 2:45:00 AM 5.57 42.026 0.055 6.86 3.82 12.14
12/26/2021 3:00:00 AM 5.56 42.008 0.055 6.86 3.67 12.15
12/26/2021 3:15:00 AM 5.55 41.99 0.055 6.86 3.6 12.17
12/26/2021 3:30:00 AM 5.54 41.972 0.055 6.86 3.66 12.17
12/26/2021 3:45:00 AM 5.52 41.936 0.055 6.86 3.56 12.18
12/26/2021 4:00:00 AM 5.49 41.882 0.055 6.87 3.59 12.19
12/26/2021 4:15:00 AM 5.47 41.846 0.055 6.87 3.64 12.2
12/26/2021 4:30:00 AM 5.46 41.828 0.055 6.84 3.57 12.21
12/26/2021 4:45:00 AM 5.44 41.792 0.055 6.86 3.5 12.22
12/26/2021 5:00:00 AM 5.42 41.756 0.055 6.86 3.57 12.22
12/26/2021 5:15:00 AM 5.41 41.738 0.055 6.86 3.54 12.23
12/26/2021 5:30:00 AM 5.39 41.702 0.055 6.86 3.53 12.24
12/26/2021 5:45:00 AM 5.35 41.63 0.055 6.85 3.69 12.25
12/26/2021 6:00:00 AM 5.32 41.576 0.055 6.86 3.78 12.26
12/26/2021 6:15:00 AM 5.3 41.54 0.055 6.86 3.77 12.27
12/26/2021 6:30:00 AM 5.26 41.468 0.055 6.87 3.55 12.28
12/26/2021 6:45:00 AM 5.23 41.414 0.055 6.85 3.41 12.3
12/26/2021 7:00:00 AM 5.2 41.36 0.055 6.86 3.38 12.31
12/26/2021 7:15:00 AM 5.15 41.27 0.055 6.79 3.23 12.32
12/26/2021 7:30:00 AM 5.11 41.198 0.055 6.86 3.24 12.34
12/26/2021 7:45:00 AM 5.07 41.126 0.055 6.86 3.16 12.36
12/26/2021 8:00:00 AM 5.02 41.036 0.055 6.82 3.09 12.4
12/26/2021 8:15:00 AM 4.98 40.964 0.055 6.87 2.97 12.44
12/26/2021 8:30:00 AM 4.96 40.928 0.055 6.88 2.99 12.5
12/26/2021 8:45:00 AM 4.94 40.892 0.055 6.88 3.2 12.56
12/26/2021 9:00:00 AM 4.94 40.892 0.055 6.9 2.9 12.62
12/26/2021 9:15:00 AM 4.94 40.892 0.055 6.91 2.89 12.69
12/26/2021 9:30:00 AM 4.95 40.91 0.055 6.87 2.89 12.75
12/26/2021 9:45:00 AM 4.94 40.892 0.055 6.94 2.86 12.78
12/26/2021 10:00:00 AM 4.96 40.928 0.055 6.93 2.89 12.83
12/26/2021 10:15:00 AM 5 41 0.054 6.96 2.79 12.86
12/26/2021 10:30:00 AM 5.02 41.036 0.054 6.97 2.67 12.89
12/26/2021 10:45:00 AM 5.06 41.108 0.054 6.94 2.65 12.91
12/26/2021 11:00:00 AM 5.1 41.18 0.054 6.97 2.73 12.92
12/26/2021 11:15:00 AM 5.12 41.216 0.054 6.99 2.67 12.92
12/26/2021 11:30:00 AM 5.15 41.27 0.054 7 2.62 12.93
12/26/2021 11:45:00 AM 5.17 41.306 0.054 7.01 2.68 12.93
12/26/2021 12:00:00 PM 5.21 41.378 0.054 7.02 2.57 12.94
12/26/2021 12:15:00 PM 5.23 41.414 0.054 7.02 2.65 12.92
12/26/2021 12:30:00 PM 5.25 41.45 0.054 7.02 2.65 12.91
12/26/2021 12:45:00 PM 5.28 41.504 0.054 7.03 2.54 12.91
12/26/2021 1:00:00 PM 5.32 41.576 0.054 7.03 2.55 12.92
12/26/2021 1:15:00 PM 5.38 41.684 0.054 7.01 2.55 12.91
12/26/2021 1:30:00 PM 5.44 41.792 0.054 7.05 2.53 12.92
12/26/2021 1:45:00 PM 5.53 41.954 0.054 7.05 2.41 12.9
12/26/2021 2:00:00 PM 5.57 42.026 0.054 7.06 2.49 12.88
12/26/2021 2:15:00 PM 5.57 42.026 0.054 7.06 2.46 12.86
12/26/2021 2:30:00 PM 5.55 41.99 0.054 7.05 2.42 12.84
12/26/2021 2:45:00 PM 5.54 41.972 0.054 7.05 2.47 12.83
12/26/2021 3:00:00 PM 5.53 41.954 0.054 7 2.41 12.81
12/26/2021 3:15:00 PM 5.51 41.918 0.054 7.03 2.38 12.79
12/26/2021 3:30:00 PM 5.49 41.882 0.054 7.03 2.39 12.76
12/26/2021 3:45:00 PM 5.48 41.864 0.054 7.02 2.46 12.74
12/26/2021 4:00:00 PM 5.45 41.81 0.054 7.01 2.41 12.68
12/26/2021 4:15:00 PM 5.42 41.756 0.054 6.99 2.56 12.62
12/26/2021 4:30:00 PM 5.37 41.666 0.054 6.98 2.38 12.58
12/26/2021 4:45:00 PM 5.31 41.558 0.054 6.96 2.44 12.54
12/26/2021 5:00:00 PM 5.25 41.45 0.054 6.93 2.43 12.51
12/26/2021 5:15:00 PM 5.19 41.342 0.054 6.93 2.39 12.49
12/26/2021 5:30:00 PM 5.12 41.216 0.054 6.91 2.56 12.47
12/26/2021 5:45:00 PM 5.04 41.072 0.054 6.89 2.58 12.47
12/26/2021 6:00:00 PM 4.97 40.946 0.054 6.85 2.61 12.47
12/26/2021 6:15:00 PM 4.89 40.802 0.054 6.88 2.56 12.49
12/26/2021 6:30:00 PM 4.82 40.676 0.054 6.87 2.57 12.51
12/26/2021 6:45:00 PM 4.74 40.532 0.054 6.87 2.68 12.52
12/26/2021 7:00:00 PM 4.67 40.406 0.054 6.81 2.58 12.54
12/26/2021 7:15:00 PM 4.6 40.28 0.054 6.86 2.65 12.57
12/26/2021 7:30:00 PM 4.53 40.154 0.054 6.85 2.52 12.58
12/26/2021 7:45:00 PM 4.46 40.028 0.054 6.84 2.54 12.6
12/26/2021 8:00:00 PM 4.39 39.902 0.054 6.85 2.59 12.63
12/26/2021 8:15:00 PM 4.33 39.794 0.054 6.85 2.57 12.65
12/26/2021 8:30:00 PM 4.28 39.704 0.054 6.86 2.68 12.67
12/26/2021 8:45:00 PM 4.22 39.596 0.054 6.83 2.61 12.69
12/26/2021 9:00:00 PM 4.16 39.488 0.054 6.84 2.6 12.71
12/26/2021 9:15:00 PM 4.11 39.398 0.054 6.83 2.65 12.74
12/26/2021 9:30:00 PM 4.05 39.29 0.054 6.83 2.66 12.75
12/26/2021 9:45:00 PM 4.01 39.218 0.054 6.83 2.66 12.77
12/26/2021 10:00:00 PM 3.97 39.146 0.054 6.83 2.65 12.79
12/26/2021 10:15:00 PM 3.94 39.092 0.054 6.83 2.74 12.8
12/26/2021 10:30:00 PM 3.91 39.038 0.055 6.78 2.82 12.82
12/26/2021 10:45:00 PM 3.87 38.966 0.055 6.82 2.77 12.83
12/26/2021 11:00:00 PM 3.84 38.912 0.055 6.83 2.8 12.85
12/26/2021 11:15:00 PM 3.8 38.84 0.055 6.83 2.69 12.86
12/26/2021 11:30:00 PM 3.78 38.804 0.055 6.82 2.8 12.88
12/26/2021 11:45:00 PM 3.74 38.732 0.055 6.83 2.71 12.89
12/27/2021 12:00:00 AM 3.7 38.66 0.055 6.84 2.78 12.9
12/27/2021 12:15:00 AM 3.67 38.606 0.054 6.83 2.7 12.91
12/27/2021 12:30:00 AM 3.63 38.534 0.055 6.83 2.67 12.92
12/27/2021 12:45:00 AM 3.6 38.48 0.054 6.83 2.67 12.94
12/27/2021 1:00:00 AM 3.56 38.408 0.054 6.83 2.83 12.95
12/27/2021 1:15:00 AM 3.53 38.354 0.055 6.83 2.75 12.96
12/27/2021 1:30:00 AM 3.49 38.282 0.054 6.84 2.69 12.97
12/27/2021 1:45:00 AM 3.45 38.21 0.054 6.79 2.63 12.97
12/27/2021 2:00:00 AM 3.41 38.138 0.054 6.84 2.7 12.99
12/27/2021 2:15:00 AM 3.37 38.066 0.054 6.78 2.74 13
12/27/2021 2:30:00 AM 3.34 38.012 0.054 6.82 2.65 13.01
12/27/2021 2:45:00 AM 3.31 37.958 0.054 6.83 2.52 13.02
12/27/2021 3:00:00 AM 3.29 37.922 0.054 6.84 2.64 13.03
12/27/2021 3:15:00 AM 3.27 37.886 0.054 6.83 2.66 13.04
12/27/2021 3:30:00 AM 3.25 37.85 0.054 6.84 2.65 13.05
12/27/2021 3:45:00 AM 3.24 37.832 0.054 6.84 2.65 13.06
12/27/2021 4:00:00 AM 3.22 37.796 0.054 6.84 2.69 13.06
12/27/2021 4:15:00 AM 3.2 37.76 0.054 6.83 2.74 13.07
12/27/2021 4:30:00 AM 3.19 37.742 0.054 6.83 2.69 13.07
12/27/2021 4:45:00 AM 3.18 37.724 0.054 6.84 2.62 13.08
12/27/2021 5:00:00 AM 3.16 37.688 0.054 6.84 2.71 13.09
12/27/2021 5:15:00 AM 3.15 37.67 0.054 6.84 2.69 13.09
12/27/2021 5:30:00 AM 3.14 37.652 0.054 6.78 2.67 13.09
12/27/2021 5:45:00 AM 3.13 37.634 0.054 6.84 2.7 13.09
12/27/2021 6:00:00 AM 3.13 37.634 0.054 6.82 2.8 13.1
12/27/2021 6:15:00 AM 3.12 37.616 0.054 6.84 2.76 13.1
12/27/2021 6:30:00 AM 3.12 37.616 0.054 6.84 2.64 13.1
12/27/2021 6:45:00 AM 3.11 37.598 0.054 6.84 2.6 13.09
12/27/2021 7:00:00 AM 3.11 37.598 0.054 6.84 2.53 13.09
12/27/2021 7:15:00 AM 3.11 37.598 0.054 6.84 2.52 13.1
12/27/2021 7:30:00 AM 3.11 37.598 0.054 6.83 2.45 13.1
12/27/2021 7:45:00 AM 3.12 37.616 0.054 6.84 2.46 13.1
12/27/2021 8:00:00 AM 3.12 37.616 0.054 6.84 2.48 13.1
12/27/2021 8:15:00 AM 3.13 37.634 0.054 6.84 2.46 13.1
12/27/2021 8:30:00 AM 3.12 37.616 0.054 6.84 2.39 13.12
12/27/2021 8:45:00 AM 3.11 37.598 0.054 6.83 2.34 13.14
12/27/2021 9:00:00 AM 3.05 37.49 0.054 6.86 2.32 13.17
12/27/2021 9:15:00 AM 3.03 37.454 0.054 6.87 2.32 13.22
12/27/2021 9:30:00 AM 3.04 37.472 0.054 6.87 2.37 13.26
12/27/2021 9:45:00 AM 3.06 37.508 0.054 6.88 2.29 13.32
12/27/2021 10:00:00 AM 3.09 37.562 0.054 6.89 2.32 13.36
12/27/2021 10:15:00 AM 3.08 37.544 0.053 6.92 2.3 13.39
12/27/2021 10:30:00 AM 3.09 37.562 0.053 6.91 2.27 13.42
12/27/2021 10:45:00 AM 3.11 37.598 0.053 6.94 2.28 13.43
12/27/2021 11:00:00 AM 3.11 37.598 0.053 6.94 2.31 13.43
12/27/2021 11:15:00 AM 3.12 37.616 0.053 6.95 2.18 13.44
12/27/2021 11:30:00 AM 3.14 37.652 0.053 6.96 2.18 13.44
12/27/2021 11:45:00 AM 3.16 37.688 0.053 6.96 2.28 13.42
12/27/2021 12:00:00 PM 3.16 37.688 0.053 6.96 2.2 13.4
12/27/2021 12:15:00 PM 3.12 37.616 0.053 6.96 2.21 13.39
12/27/2021 12:30:00 PM 3.17 37.706 0.056 6.97 2.32 13.41
12/27/2021 12:45:00 PM 3.2 37.76 0.056 6.97 2.26 13.4
12/27/2021 1:00:00 PM 3.24 37.832 0.055 6.91 2.18 13.39
12/27/2021 1:15:00 PM 3.26 37.868 0.054 6.97 2.17 13.37
12/27/2021 1:30:00 PM 3.28 37.904 0.054 6.97 2.1 13.35
12/27/2021 1:45:00 PM 3.3 37.94 0.054 6.97 2.08 13.32
12/27/2021 2:00:00 PM 3.31 37.958 0.055 6.97 2.21 13.3
12/27/2021 2:15:00 PM 3.33 37.994 0.055 6.95 2.25 13.28
12/27/2021 2:30:00 PM 3.34 38.012 0.054 6.92 2.15 13.24
12/27/2021 2:45:00 PM 3.35 38.03 0.053 6.94 2.26 13.2
12/27/2021 3:00:00 PM 3.36 38.048 0.053 6.93 2.28 13.18
12/27/2021 3:15:00 PM 3.36 38.048 0.053 6.94 2.21 13.14
12/27/2021 3:30:00 PM 3.37 38.066 0.053 6.93 2.26 13.12
12/27/2021 3:45:00 PM 3.38 38.084 0.053 6.93 2.26 13.09
12/27/2021 4:00:00 PM 3.39 38.102 0.053 6.88 2.22 13.07
12/27/2021 4:15:00 PM 3.4 38.12 0.053 6.91 2.26 13.05
12/27/2021 4:30:00 PM 3.41 38.138 0.053 6.89 2.31 13.02
12/27/2021 4:45:00 PM 3.42 38.156 0.053 6.88 2.26 12.99
12/27/2021 5:00:00 PM 3.42 38.156 0.053 6.87 2.48 12.97
12/27/2021 5:15:00 PM 3.43 38.174 0.053 6.88 2.4 12.95
12/27/2021 5:30:00 PM 3.43 38.174 0.053 6.88 2.5 12.93
12/27/2021 5:45:00 PM 3.44 38.192 0.054 6.84 2.5 12.92
12/27/2021 6:00:00 PM 3.45 38.21 0.054 6.85 2.5 12.91
12/27/2021 6:15:00 PM 3.46 38.228 0.054 6.87 2.48 12.9
12/27/2021 6:30:00 PM 3.47 38.246 0.054 6.84 2.56 12.89
12/27/2021 6:45:00 PM 3.47 38.246 0.054 6.87 2.54 12.88
12/27/2021 7:00:00 PM 3.48 38.264 0.054 6.86 2.52 12.88
12/27/2021 7:15:00 PM 3.49 38.282 0.055 6.85 2.52 12.87
12/27/2021 7:30:00 PM 3.5 38.3 0.054 6.86 2.58 12.86
12/27/2021 7:45:00 PM 3.51 38.318 0.054 6.86 2.57 12.86
12/27/2021 8:00:00 PM 3.51 38.318 0.054 6.87 2.54 12.85
12/27/2021 8:15:00 PM 3.52 38.336 0.054 6.86 2.51 12.85
12/27/2021 8:30:00 PM 3.54 38.372 0.054 6.86 2.57 12.84
12/27/2021 8:45:00 PM 3.55 38.39 0.054 6.79 2.71 12.84
12/27/2021 9:00:00 PM 3.56 38.408 0.054 6.86 2.7 12.84
12/27/2021 9:15:00 PM 3.57 38.426 0.054 6.87 2.72 12.82
12/27/2021 9:30:00 PM 3.58 38.444 0.054 6.86 2.73 12.82
12/27/2021 9:45:00 PM 3.59 38.462 0.054 6.83 2.71 12.82
12/27/2021 10:00:00 PM 3.59 38.462 0.054 6.86 2.82 12.82
12/27/2021 10:15:00 PM 3.61 38.498 0.054 6.87 2.88 12.81
12/27/2021 10:30:00 PM 3.62 38.516 0.054 6.85 3.06 12.8
12/27/2021 10:45:00 PM 3.63 38.534 0.054 6.86 2.91 12.8
12/27/2021 11:00:00 PM 3.64 38.552 0.054 6.85 3.01 12.8
12/27/2021 11:15:00 PM 3.65 38.57 0.054 6.86 2.75 12.79
12/27/2021 11:30:00 PM 3.66 38.588 0.054 6.86 2.77 12.79
12/27/2021 11:45:00 PM 3.67 38.606 0.054 6.85 2.78 12.79
12/28/2021 12:00:00 AM 3.68 38.624 0.055 6.85 2.8 12.78
12/28/2021 12:15:00 AM 3.69 38.642 0.054 6.85 2.84 12.78
12/28/2021 12:30:00 AM 3.71 38.678 0.054 6.86 2.79 12.78
12/28/2021 12:45:00 AM 3.71 38.678 0.054 6.86 2.8 12.78
12/28/2021 1:00:00 AM 3.72 38.696 0.054 6.85 2.82 12.78
12/28/2021 1:15:00 AM 3.73 38.714 0.054 6.87 2.82 12.78
12/28/2021 1:30:00 AM 3.74 38.732 0.054 6.86 2.75 12.77
12/28/2021 1:45:00 AM 3.75 38.75 0.054 6.86 2.77 12.77
12/28/2021 2:00:00 AM 3.75 38.75 0.054 6.86 2.78 12.77
12/28/2021 2:15:00 AM 3.75 38.75 0.054 6.86 2.69 12.77
12/28/2021 2:30:00 AM 3.76 38.768 0.054 6.87 2.75 12.77
12/28/2021 2:45:00 AM 3.77 38.786 0.054 6.86 2.74 12.77
12/28/2021 3:00:00 AM 3.78 38.804 0.054 6.86 2.72 12.77
12/28/2021 3:15:00 AM 3.78 38.804 0.054 6.87 2.64 12.77
12/28/2021 3:30:00 AM 3.78 38.804 0.054 6.86 2.62 12.77
12/28/2021 3:45:00 AM 3.78 38.804 0.054 6.86 2.71 12.77
12/28/2021 4:00:00 AM 3.77 38.786 0.054 6.86 2.91 12.78
12/28/2021 4:15:00 AM 3.77 38.786 0.054 6.86 2.83 12.77
12/28/2021 4:30:00 AM 3.75 38.75 0.054 6.86 2.93 12.78
12/28/2021 4:45:00 AM 3.73 38.714 0.054 6.86 2.96 12.78
12/28/2021 5:00:00 AM 3.7 38.66 0.054 6.87 2.69 12.79
12/28/2021 5:15:00 AM 3.67 38.606 0.054 6.85 2.68 12.8
12/28/2021 5:30:00 AM 3.64 38.552 0.054 6.86 2.83 12.81
12/28/2021 5:45:00 AM 3.61 38.498 0.054 6.85 2.84 12.82
12/28/2021 6:00:00 AM 3.58 38.444 0.054 6.85 2.71 12.84
12/28/2021 6:15:00 AM 3.53 38.354 0.054 6.85 2.68 12.86
12/28/2021 6:30:00 AM 3.49 38.282 0.054 6.81 2.77 12.87
12/28/2021 6:45:00 AM 3.46 38.228 0.054 6.82 2.68 12.88
12/28/2021 7:00:00 AM 3.43 38.174 0.054 6.85 2.73 12.89
12/28/2021 7:15:00 AM 3.39 38.102 0.054 6.85 2.64 12.91
12/28/2021 7:30:00 AM 3.36 38.048 0.054 6.81 2.61 12.92
12/28/2021 7:45:00 AM 3.33 37.994 0.054 6.86 2.65 12.94
12/28/2021 8:00:00 AM 3.3 37.94 0.054 6.84 2.54 12.98
12/28/2021 8:15:00 AM 3.28 37.904 0.054 6.84 2.53 13.03
12/28/2021 8:30:00 AM 3.27 37.886 0.054 6.88 2.46 13.07
12/28/2021 8:45:00 AM 3.26 37.868 0.054 6.88 2.47 13.12
12/28/2021 9:00:00 AM 3.25 37.85 0.054 6.87 2.42 13.15
12/28/2021 9:15:00 AM 3.25 37.85 0.054 6.9 2.55 13.2
12/28/2021 9:30:00 AM 3.28 37.904 0.054 6.91 2.44 13.25
12/28/2021 9:45:00 AM 3.29 37.922 0.054 6.93 2.47 13.28
12/28/2021 10:00:00 AM 3.34 38.012 0.053 6.93 2.4 13.31
12/28/2021 10:15:00 AM 3.41 38.138 0.053 6.94 2.41 13.34
12/28/2021 10:30:00 AM 3.47 38.246 0.053 6.95 2.3 13.36
12/28/2021 10:45:00 AM 3.54 38.372 0.053 6.96 2.3 13.37
12/28/2021 11:00:00 AM 3.61 38.498 0.053 6.97 2.3 13.37
12/28/2021 11:15:00 AM 3.69 38.642 0.053 6.99 2.36 13.37
12/28/2021 11:30:00 AM 3.78 38.804 0.053 6.99 2.29 13.37
12/28/2021 11:45:00 AM 3.88 38.984 0.053 7 2.25 13.36
12/28/2021 12:00:00 PM 3.94 39.092 0.053 7 2.22 13.33
12/28/2021 12:15:00 PM 4 39.2 0.053 7 2.23 13.29
12/28/2021 12:30:00 PM 4.05 39.29 0.053 7.01 2.2 13.25
12/28/2021 12:45:00 PM 4.1 39.38 0.053 7.01 2.18 13.22
12/28/2021 1:00:00 PM 4.13 39.434 0.053 7.02 2.24 13.18
12/28/2021 1:15:00 PM 4.16 39.488 0.053 6.99 2.13 13.14
12/28/2021 1:30:00 PM 4.19 39.542 0.053 6.99 2.12 13.1
12/28/2021 1:45:00 PM 4.25 39.65 0.052 6.98 2.08 13.09
12/28/2021 2:00:00 PM 4.3 39.74 0.052 7.01 2.13 13.08
12/28/2021 2:15:00 PM 4.34 39.812 0.052 7.01 2.2 13.06
12/28/2021 2:30:00 PM 4.37 39.866 0.052 7 2.15 13.02
12/28/2021 2:45:00 PM 4.39 39.902 0.052 6.98 2.19 12.96
12/28/2021 3:00:00 PM 4.4 39.92 0.052 6.95 2.17 12.9
12/28/2021 3:15:00 PM 4.41 39.938 0.052 6.98 2.17 12.84
12/28/2021 3:30:00 PM 4.42 39.956 0.052 6.93 2.22 12.81
12/28/2021 3:45:00 PM 4.43 39.974 0.052 6.96 2.18 12.79
12/28/2021 4:00:00 PM 4.43 39.974 0.052 6.93 2.25 12.75
12/28/2021 4:15:00 PM 4.43 39.974 0.052 6.9 2.17 12.74
12/28/2021 4:30:00 PM 4.43 39.974 0.052 6.93 2.62 12.71
12/28/2021 4:45:00 PM 4.43 39.974 0.053 6.89 3.36 12.67
12/28/2021 5:00:00 PM 4.44 39.992 0.053 6.91 3.76 12.65
12/28/2021 5:15:00 PM 4.43 39.974 0.053 6.91 3.28 12.63
12/28/2021 5:30:00 PM 4.41 39.938 0.053 6.9 2.97 12.62
12/28/2021 5:45:00 PM 4.37 39.866 0.052 6.89 2.63 12.61
12/28/2021 6:00:00 PM 4.31 39.758 0.055 6.88 2.56 12.61
12/28/2021 6:15:00 PM 4.19 39.542 0.054 6.88 2.6 12.6
12/28/2021 6:30:00 PM 4.09 39.362 0.054 6.84 2.51 12.61
12/28/2021 6:45:00 PM 4 39.2 0.053 6.87 2.61 12.61
12/28/2021 7:00:00 PM 3.9 39.02 0.053 6.87 2.61 12.63
12/28/2021 7:15:00 PM 3.76 38.768 0.053 6.83 2.58 12.66
12/28/2021 7:30:00 PM 3.64 38.552 0.053 6.87 2.61 12.68
12/28/2021 7:45:00 PM 3.56 38.408 0.053 6.85 2.59 12.72
12/28/2021 8:00:00 PM 3.48 38.264 0.052 6.83 2.82 12.75
12/28/2021 8:15:00 PM 3.34 38.012 0.052 6.85 2.62 12.77
12/28/2021 8:30:00 PM 3.26 37.868 0.052 6.82 2.83 12.81
12/28/2021 8:45:00 PM 3.24 37.832 0.052 6.83 2.76 12.84
12/28/2021 9:00:00 PM 3.24 37.832 0.052 6.82 2.76 12.88
12/28/2021 9:15:00 PM 3.25 37.85 0.053 6.84 2.85 12.9
12/28/2021 9:30:00 PM 3.24 37.832 0.054 6.84 2.85 12.92
12/28/2021 9:45:00 PM 3.21 37.778 0.053 6.81 2.83 12.94
12/28/2021 10:00:00 PM 3.2 37.76 0.053 6.82 2.92 12.94
12/28/2021 10:15:00 PM 3.21 37.778 0.053 6.8 2.81 12.95
12/28/2021 10:30:00 PM 3.23 37.814 0.053 6.83 2.78 12.94
12/28/2021 10:45:00 PM 3.24 37.832 0.053 6.83 2.83 12.94
12/28/2021 11:00:00 PM 3.24 37.832 0.053 6.82 2.86 12.95
12/28/2021 11:15:00 PM 3.24 37.832 0.053 6.82 2.77 12.95
12/28/2021 11:30:00 PM 3.23 37.814 0.053 6.82 2.83 12.95
12/28/2021 11:45:00 PM 3.24 37.832 0.053 6.83 2.91 12.95
12/29/2021 12:00:00 AM 3.24 37.832 0.053 6.77 2.79 12.95
12/29/2021 12:15:00 AM 3.24 37.832 0.053 6.81 2.74 12.94
12/29/2021 12:30:00 AM 3.25 37.85 0.053 6.81 2.91 12.94
12/29/2021 12:45:00 AM 3.26 37.868 0.053 6.83 2.93 12.94
12/29/2021 1:00:00 AM 3.27 37.886 0.053 6.82 2.9 12.93
12/29/2021 1:15:00 AM 3.28 37.904 0.053 6.81 2.81 12.93
12/29/2021 1:30:00 AM 3.29 37.922 0.053 6.82 2.88 12.92
12/29/2021 1:45:00 AM 3.31 37.958 0.053 6.82 2.86 12.91
12/29/2021 2:00:00 AM 3.32 37.976 0.053 6.78 2.88 12.9
12/29/2021 2:15:00 AM 3.34 38.012 0.053 6.81 2.89 12.9
12/29/2021 2:30:00 AM 3.35 38.03 0.053 6.82 2.99 12.89
12/29/2021 2:45:00 AM 3.37 38.066 0.053 6.81 2.95 12.89
12/29/2021 3:00:00 AM 3.38 38.084 0.053 6.79 3.04 12.89
12/29/2021 3:15:00 AM 3.39 38.102 0.053 6.78 2.9 12.88
12/29/2021 3:30:00 AM 3.41 38.138 0.053 6.79 3.16 12.88
12/29/2021 3:45:00 AM 3.42 38.156 0.053 6.81 2.96 12.87
12/29/2021 4:00:00 AM 3.43 38.174 0.053 6.8 3.12 12.87
12/29/2021 4:15:00 AM 3.44 38.192 0.053 6.8 2.95 12.86
12/29/2021 4:30:00 AM 3.45 38.21 0.053 6.78 3.15 12.86
12/29/2021 4:45:00 AM 3.47 38.246 0.053 6.79 2.92 12.86
12/29/2021 5:00:00 AM 3.48 38.264 0.053 6.81 2.99 12.85
12/29/2021 5:15:00 AM 3.49 38.282 0.054 6.78 3.04 12.85
12/29/2021 5:30:00 AM 3.5 38.3 0.054 6.81 2.96 12.85
12/29/2021 5:45:00 AM 3.5 38.3 0.054 6.76 3.15 12.84
12/29/2021 6:00:00 AM 3.52 38.336 0.054 6.78 2.96 12.83
12/29/2021 6:15:00 AM 3.53 38.354 0.054 6.79 3.11 12.83
12/29/2021 6:30:00 AM 3.54 38.372 0.054 6.79 3.03 12.83
12/29/2021 6:45:00 AM 3.55 38.39 0.054 6.81 2.92 12.83
12/29/2021 7:00:00 AM 3.56 38.408 0.054 6.81 2.99 12.83
12/29/2021 7:15:00 AM 3.57 38.426 0.054 6.78 2.99 12.83
12/29/2021 7:30:00 AM 3.58 38.444 0.054 6.8 2.94 12.83
12/29/2021 7:45:00 AM 3.6 38.48 0.055 6.79 3.02 12.83
12/29/2021 8:00:00 AM 3.61 38.498 0.055 6.79 2.99 12.83
12/29/2021 8:15:00 AM 3.62 38.516 0.055 6.81 3 12.84
12/29/2021 8:30:00 AM 3.64 38.552 0.055 6.82 2.9 12.86
12/29/2021 8:45:00 AM 3.66 38.588 0.055 6.79 2.87 12.9
12/29/2021 9:00:00 AM 3.68 38.624 0.055 6.83 2.85 12.92
12/29/2021 9:15:00 AM 3.7 38.66 0.055 6.85 2.8 12.94
12/29/2021 9:30:00 AM 3.72 38.696 0.055 6.85 2.87 12.97
12/29/2021 9:45:00 AM 3.75 38.75 0.055 6.85 2.88 13
12/29/2021 10:00:00 AM 3.78 38.804 0.055 6.87 2.78 13.02
12/29/2021 10:15:00 AM 3.82 38.876 0.055 6.88 2.74 13.05
12/29/2021 10:30:00 AM 3.85 38.93 0.055 6.9 2.78 13.06
12/29/2021 10:45:00 AM 3.88 38.984 0.055 6.91 2.76 13.08
12/29/2021 11:00:00 AM 3.92 39.056 0.055 6.91 2.67 13.08
12/29/2021 11:15:00 AM 3.95 39.11 0.055 6.87 2.67 13.08
12/29/2021 11:30:00 AM 3.98 39.164 0.055 6.91 2.67 13.07
12/29/2021 11:45:00 AM 4.01 39.218 0.055 6.9 2.82 13.06
12/29/2021 12:00:00 PM 4.04 39.272 0.055 6.88 2.71 13.07
12/29/2021 12:15:00 PM 4.08 39.344 0.055 6.92 2.67 13.07
12/29/2021 12:30:00 PM 4.13 39.434 0.055 6.93 2.71 13.08
12/29/2021 12:45:00 PM 4.17 39.506 0.055 6.92 2.84 13.07
12/29/2021 1:00:00 PM 4.2 39.56 0.055 6.93 2.81 13.06
12/29/2021 1:15:00 PM 4.23 39.614 0.055 6.94 2.82 13.05
12/29/2021 1:30:00 PM 4.27 39.686 0.055 6.95 2.96 13.04
12/29/2021 1:45:00 PM 4.32 39.776 0.055 6.96 2.83 13.06
12/29/2021 2:00:00 PM 4.37 39.866 0.055 6.97 2.98 13.05
12/29/2021 2:15:00 PM 4.42 39.956 0.055 6.95 2.87 13.04
12/29/2021 2:30:00 PM 4.47 40.046 0.055 6.97 3.05 13.02
12/29/2021 2:45:00 PM 4.5 40.1 0.055 6.97 2.94 12.99
12/29/2021 3:00:00 PM 4.53 40.154 0.055 6.96 2.98 12.95
12/29/2021 3:15:00 PM 4.56 40.208 0.055 6.95 3 12.92
12/29/2021 3:30:00 PM 4.58 40.244 0.055 6.95 3.14 12.89
12/29/2021 3:45:00 PM 4.6 40.28 0.055 6.91 3.16 12.83
12/29/2021 4:00:00 PM 4.62 40.316 0.055 6.93 3.19 12.79
12/29/2021 4:15:00 PM 4.63 40.334 0.055 6.9 3.22 12.74
12/29/2021 4:30:00 PM 4.65 40.37 0.056 6.92 3.4 12.69
12/29/2021 4:45:00 PM 4.65 40.37 0.056 6.91 3.47 12.65
12/29/2021 5:00:00 PM 4.66 40.388 0.056 6.9 3.48 12.63
12/29/2021 5:15:00 PM 4.67 40.406 0.056 6.89 3.73 12.59
12/29/2021 5:30:00 PM 4.68 40.424 0.056 6.9 3.8 12.57
12/29/2021 5:45:00 PM 4.68 40.424 0.056 6.84 3.9 12.55
12/29/2021 6:00:00 PM 4.68 40.424 0.056 6.87 4.11 12.54
12/29/2021 6:15:00 PM 4.69 40.442 0.056 6.87 4.11 12.54
12/29/2021 6:30:00 PM 4.69 40.442 0.056 6.87 4.25 12.52
12/29/2021 6:45:00 PM 4.69 40.442 0.056 6.86 4.46 12.53
12/29/2021 7:00:00 PM 4.7 40.46 0.056 6.86 4.31 12.52
12/29/2021 7:15:00 PM 4.7 40.46 0.056 6.81 4.56 12.52
12/29/2021 7:30:00 PM 4.7 40.46 0.056 6.85 4.69 12.52
12/29/2021 7:45:00 PM 4.7 40.46 0.056 6.83 4.77 12.52
12/29/2021 8:00:00 PM 4.71 40.478 0.056 6.85 4.71 12.52
12/29/2021 8:15:00 PM 4.71 40.478 0.056 6.85 4.63 12.51
12/29/2021 8:30:00 PM 4.72 40.496 0.057 6.84 4.6 12.51
12/29/2021 8:45:00 PM 4.72 40.496 0.057 6.84 4.58 12.51
12/29/2021 9:00:00 PM 4.73 40.514 0.057 6.85 4.47 12.51
12/29/2021 9:15:00 PM 4.73 40.514 0.057 6.85 4.51 12.49
12/29/2021 9:30:00 PM 4.73 40.514 0.057 6.85 4.5 12.5
12/29/2021 9:45:00 PM 4.74 40.532 0.057 6.85 4.43 12.5
12/29/2021 10:00:00 PM 4.74 40.532 0.057 6.86 4.44 12.49
12/29/2021 10:15:00 PM 4.74 40.532 0.057 6.86 4.4 12.5
12/29/2021 10:30:00 PM 4.75 40.55 0.057 6.86 4.44 12.49
12/29/2021 10:45:00 PM 4.75 40.55 0.057 6.84 4.44 12.49
12/29/2021 11:00:00 PM 4.76 40.568 0.057 6.85 4.2 12.49
12/29/2021 11:15:00 PM 4.76 40.568 0.057 6.86 4.3 12.49
12/29/2021 11:30:00 PM 4.76 40.568 0.056 6.85 4.37 12.49
12/29/2021 11:45:00 PM 4.77 40.586 0.057 6.86 4.08 12.48
12/30/2021 12:00:00 AM 4.77 40.586 0.057 6.85 4.24 12.48
12/30/2021 12:15:00 AM 4.77 40.586 0.056 6.86 4.17 12.48
12/30/2021 12:30:00 AM 4.78 40.604 0.056 6.85 4.07 12.48
12/30/2021 12:45:00 AM 4.78 40.604 0.056 6.85 4.08 12.48
12/30/2021 1:00:00 AM 4.79 40.622 0.056 6.81 4.02 12.47
12/30/2021 1:15:00 AM 4.79 40.622 0.056 6.85 4.16 12.47
12/30/2021 1:30:00 AM 4.79 40.622 0.056 6.85 3.97 12.47
12/30/2021 1:45:00 AM 4.79 40.622 0.056 6.86 3.99 12.47
12/30/2021 2:00:00 AM 4.8 40.64 0.056 6.86 3.98 12.47
12/30/2021 2:15:00 AM 4.8 40.64 0.056 6.85 3.96 12.47
12/30/2021 2:30:00 AM 4.8 40.64 0.056 6.85 4.05 12.46
12/30/2021 2:45:00 AM 4.81 40.658 0.056 6.86 4.05 12.46
12/30/2021 3:00:00 AM 4.81 40.658 0.056 6.79 3.84 12.46
12/30/2021 3:15:00 AM 4.81 40.658 0.056 6.85 3.85 12.45
12/30/2021 3:30:00 AM 4.81 40.658 0.056 6.82 3.97 12.46
12/30/2021 3:45:00 AM 4.82 40.676 0.056 6.84 3.92 12.46
12/30/2021 4:00:00 AM 4.82 40.676 0.056 6.84 3.92 12.45
12/30/2021 4:15:00 AM 4.83 40.694 0.056 6.83 4.01 12.45
12/30/2021 4:30:00 AM 4.83 40.694 0.056 6.83 3.93 12.45
12/30/2021 4:45:00 AM 4.83 40.694 0.056 6.85 3.98 12.45
12/30/2021 5:00:00 AM 4.84 40.712 0.056 6.86 3.91 12.45
12/30/2021 5:15:00 AM 4.84 40.712 0.056 6.82 4.06 12.44
12/30/2021 5:30:00 AM 4.85 40.73 0.056 6.84 3.99 12.45
12/30/2021 5:45:00 AM 4.85 40.73 0.056 6.85 3.85 12.44
12/30/2021 6:00:00 AM 4.86 40.748 0.056 6.79 3.8 12.44
12/30/2021 6:15:00 AM 4.86 40.748 0.056 6.83 3.83 12.44
12/30/2021 6:30:00 AM 4.87 40.766 0.056 6.84 3.67 12.45
12/30/2021 6:45:00 AM 4.87 40.766 0.056 6.84 3.67 12.44
12/30/2021 7:00:00 AM 4.87 40.766 0.056 6.85 3.78 12.44
12/30/2021 7:15:00 AM 4.88 40.784 0.056 6.84 3.78 12.44
12/30/2021 7:30:00 AM 4.88 40.784 0.056 6.84 3.54 12.44
12/30/2021 7:45:00 AM 4.89 40.802 0.056 6.84 3.48 12.44
12/30/2021 8:00:00 AM 4.9 40.82 0.056 6.8 3.54 12.45
12/30/2021 8:15:00 AM 4.9 40.82 0.056 6.85 3.47 12.46
12/30/2021 8:30:00 AM 4.91 40.838 0.056 6.85 3.37 12.47
12/30/2021 8:45:00 AM 4.92 40.856 0.056 6.85 3.29 12.48
12/30/2021 9:00:00 AM 4.94 40.892 0.056 6.87 3.5 12.5
12/30/2021 9:15:00 AM 4.95 40.91 0.056 6.84 3.27 12.53
12/30/2021 9:30:00 AM 4.97 40.946 0.055 6.86 3.17 12.55
12/30/2021 9:45:00 AM 5 41 0.055 6.88 3.18 12.61
12/30/2021 10:00:00 AM 5.05 41.09 0.055 6.91 3.11 12.66
12/30/2021 10:15:00 AM 5.08 41.144 0.055 6.9 3.02 12.68
12/30/2021 10:30:00 AM 5.13 41.234 0.055 6.9 3.14 12.71
12/30/2021 10:45:00 AM 5.18 41.324 0.055 6.95 3.06 12.73
12/30/2021 11:00:00 AM 5.22 41.396 0.055 6.96 2.93 12.74
12/30/2021 11:15:00 AM 5.26 41.468 0.055 6.96 2.96 12.73
12/30/2021 11:30:00 AM 5.3 41.54 0.055 6.97 3.01 12.72
12/30/2021 11:45:00 AM 5.34 41.612 0.055 6.98 2.85 12.72
12/30/2021 12:00:00 PM 5.39 41.702 0.055 6.98 2.82 12.72
12/30/2021 12:15:00 PM 5.44 41.792 0.054 6.99 2.81 12.72
12/30/2021 12:30:00 PM 5.49 41.882 0.054 6.99 2.83 12.7
12/30/2021 12:45:00 PM 5.55 41.99 0.054 6.98 2.8 12.7
12/30/2021 1:00:00 PM 5.61 42.098 0.054 7.01 2.83 12.69
12/30/2021 1:15:00 PM 5.66 42.188 0.054 6.99 2.97 12.66
12/30/2021 1:30:00 PM 5.72 42.296 0.054 7 2.88 12.65
12/30/2021 1:45:00 PM 5.78 42.404 0.054 7.02 2.86 12.64
12/30/2021 2:00:00 PM 5.83 42.494 0.054 7.01 2.98 12.6
12/30/2021 2:15:00 PM 5.87 42.566 0.054 7.01 2.94 12.57
12/30/2021 2:30:00 PM 5.93 42.674 0.054 7.01 2.96 12.57
12/30/2021 2:45:00 PM 5.96 42.728 0.054 7.02 3.01 12.54
12/30/2021 3:00:00 PM 5.99 42.782 0.054 7.01 3.06 12.48
12/30/2021 3:15:00 PM 6.02 42.836 0.054 6.99 3.06 12.43
12/30/2021 3:30:00 PM 6.03 42.854 0.054 6.99 3.04 12.36
12/30/2021 3:45:00 PM 6.04 42.872 0.054 6.97 3.09 12.33
12/30/2021 4:00:00 PM 6.05 42.89 0.054 6.94 3.14 12.3
12/30/2021 4:15:00 PM 6.07 42.926 0.054 6.94 3.28 12.28
12/30/2021 4:30:00 PM 6.07 42.926 0.054 6.95 3.17 12.25
12/30/2021 4:45:00 PM 6.07 42.926 0.054 6.93 3.26 12.21
12/30/2021 5:00:00 PM 6.06 42.908 0.054 6.94 3.31 12.17
12/30/2021 5:15:00 PM 6.07 42.926 0.054 6.92 3.3 12.13
12/30/2021 5:30:00 PM 6.07 42.926 0.054 6.9 3.49 12.11
12/30/2021 5:45:00 PM 6.07 42.926 0.054 6.89 3.59 12.09
12/30/2021 6:00:00 PM 6.07 42.926 0.054 6.87 3.58 12.08
12/30/2021 6:15:00 PM 6.07 42.926 0.054 6.88 3.61 12.06
12/30/2021 6:30:00 PM 6.06 42.908 0.054 6.88 3.71 12.06
12/30/2021 6:45:00 PM 6.06 42.908 0.054 6.88 3.72 12.05
12/30/2021 7:00:00 PM 6.04 42.872 0.054 6.87 4.03 12.06
12/30/2021 7:15:00 PM 6.03 42.854 0.054 6.86 3.67 12.05
12/30/2021 7:30:00 PM 6.03 42.854 0.054 6.87 3.7 12.06
12/30/2021 7:45:00 PM 6.02 42.836 0.054 6.87 3.74 12.05
12/30/2021 8:00:00 PM 6.01 42.818 0.054 6.86 3.79 12.06
12/30/2021 8:15:00 PM 6 42.8 0.054 6.87 3.71 12.06
12/30/2021 8:30:00 PM 6 42.8 0.054 6.86 3.64 12.07
12/30/2021 8:45:00 PM 6 42.8 0.054 6.85 3.76 12.06
12/30/2021 9:00:00 PM 6 42.8 0.054 6.85 3.61 12.07
12/30/2021 9:15:00 PM 6 42.8 0.054 6.86 3.61 12.06
12/30/2021 9:30:00 PM 6 42.8 0.054 6.82 3.72 12.07
12/30/2021 9:45:00 PM 6 42.8 0.054 6.87 3.63 12.07
12/30/2021 10:00:00 PM 6 42.8 0.054 6.82 3.78 12.07
12/30/2021 10:15:00 PM 6.01 42.818 0.054 6.87 3.63 12.07
12/30/2021 10:30:00 PM 6.01 42.818 0.054 6.86 3.67 12.07
12/30/2021 10:45:00 PM 6 42.8 0.054 6.84 3.76 12.07
12/30/2021 11:00:00 PM 6 42.8 0.054 6.86 3.65 12.07
12/30/2021 11:15:00 PM 6.01 42.818 0.054 6.85 3.75 12.07
12/30/2021 11:30:00 PM 6.01 42.818 0.054 6.85 3.91 12.06
12/30/2021 11:45:00 PM 6.01 42.818 0.053 6.82 3.99 12.07
12/31/2021 12:00:00 AM 6.01 42.818 0.054 6.83 3.83 12.07
12/31/2021 12:15:00 AM 6.01 42.818 0.053 6.85 3.68 12.07
12/31/2021 12:30:00 AM 6.01 42.818 0.053 6.85 3.87 12.07
12/31/2021 12:45:00 AM 6.01 42.818 0.053 6.84 3.56 12.06
12/31/2021 1:00:00 AM 6.02 42.836 0.053 6.84 3.71 12.06
12/31/2021 1:15:00 AM 6.02 42.836 0.053 6.86 3.77 12.06
12/31/2021 1:30:00 AM 6.02 42.836 0.053 6.85 3.63 12.06
12/31/2021 1:45:00 AM 6.02 42.836 0.053 6.85 3.79 12.07
12/31/2021 2:00:00 AM 6.02 42.836 0.053 6.82 3.87 12.06
12/31/2021 2:15:00 AM 6.03 42.854 0.053 6.84 3.81 12.06
12/31/2021 2:30:00 AM 6.03 42.854 0.053 6.84 3.83 12.06
12/31/2021 2:45:00 AM 6.03 42.854 0.053 6.85 3.77 12.06
12/31/2021 3:00:00 AM 6.03 42.854 0.053 6.82 3.7 12.06
12/31/2021 3:15:00 AM 6.03 42.854 0.053 6.83 3.72 12.06
12/31/2021 3:30:00 AM 6.03 42.854 0.053 6.84 3.72 12.05
12/31/2021 3:45:00 AM 6.02 42.836 0.053 6.83 3.86 12.06
12/31/2021 4:00:00 AM 6.02 42.836 0.053 6.83 3.7 12.05
12/31/2021 4:15:00 AM 6.02 42.836 0.053 6.81 3.93 12.05
12/31/2021 4:30:00 AM 6.02 42.836 0.053 6.83 3.83 12.05
12/31/2021 4:45:00 AM 6.02 42.836 0.053 6.84 3.89 12.05
12/31/2021 5:00:00 AM 6.01 42.818 0.053 6.82 3.67 12.05
12/31/2021 5:15:00 AM 6.01 42.818 0.053 6.81 3.64 12.05
12/31/2021 5:30:00 AM 6.01 42.818 0.053 6.84 3.8 12.05
12/31/2021 5:45:00 AM 6.01 42.818 0.053 6.82 3.85 12.05
12/31/2021 6:00:00 AM 6.01 42.818 0.053 6.84 3.73 12.05
12/31/2021 6:15:00 AM 6.01 42.818 0.053 6.79 3.85 12.05
12/31/2021 6:30:00 AM 6.01 42.818 0.053 6.85 3.76 12.05
12/31/2021 6:45:00 AM 6.01 42.818 0.053 6.79 3.66 12.05
12/31/2021 7:00:00 AM 6.01 42.818 0.053 6.82 3.86 12.05
12/31/2021 7:15:00 AM 6.01 42.818 0.053 6.84 3.64 12.05
12/31/2021 7:30:00 AM 6.02 42.836 0.053 6.84 3.72 12.06
12/31/2021 7:45:00 AM 6.02 42.836 0.053 6.83 3.69 12.06
12/31/2021 8:00:00 AM 6.02 42.836 0.053 6.84 3.87 12.06
12/31/2021 8:15:00 AM 6.02 42.836 0.053 6.84 3.62 12.09
12/31/2021 8:30:00 AM 6.02 42.836 0.053 6.8 3.52 12.13
12/31/2021 8:45:00 AM 6.03 42.854 0.053 6.86 3.43 12.16
12/31/2021 9:00:00 AM 6.05 42.89 0.053 6.87 3.38 12.2
12/31/2021 9:15:00 AM 6.07 42.926 0.052 6.88 3.49 12.23
12/31/2021 9:30:00 AM 6.11 42.998 0.052 6.89 3.3 12.27
12/31/2021 9:45:00 AM 6.13 43.034 0.052 6.85 3.35 12.28
12/31/2021 10:00:00 AM 6.15 43.07 0.052 6.9 3.52 12.28
12/31/2021 10:15:00 AM 6.19 43.142 0.052 6.93 3.34 12.32
12/31/2021 10:30:00 AM 6.23 43.214 0.052 6.94 3.18 12.36
12/31/2021 10:45:00 AM 6.3 43.34 0.052 6.96 3.18 12.39
12/31/2021 11:00:00 AM 6.39 43.502 0.052 6.94 3.28 12.41
12/31/2021 11:15:00 AM 6.45 43.61 0.052 6.98 3.33 12.4
12/31/2021 11:30:00 AM 6.51 43.718 0.052 6.99 3.2 12.39
12/31/2021 11:45:00 AM 6.58 43.844 0.052 6.99 3.21 12.39
12/31/2021 12:00:00 PM 6.64 43.952 0.052 7.01 3.26 12.38
12/31/2021 12:15:00 PM 6.71 44.078 0.051 7.02 3.38 12.37
12/31/2021 12:30:00 PM 6.77 44.186 0.052 7.01 3.18 12.35
12/31/2021 12:45:00 PM 6.85 44.33 0.051 7.02 3.25 12.34
12/31/2021 1:00:00 PM 6.91 44.438 0.051 7.04 3.26 12.32
12/31/2021 1:15:00 PM 6.96 44.528 0.051 7.02 3.14 12.28
12/31/2021 1:30:00 PM 7 44.6 0.051 7.05 3.31 12.27
12/31/2021 1:45:00 PM 7.1 44.78 0.051 7.04 3.12 12.26
12/31/2021 2:00:00 PM 7.19 44.942 0.051 7.01 3.26 12.24
12/31/2021 2:15:00 PM 7.24 45.032 0.051 7.04 3.24 12.22
12/31/2021 2:30:00 PM 7.28 45.104 0.051 7.05 3.55 12.19
12/31/2021 2:45:00 PM 7.33 45.194 0.051 7.03 3.4 12.16
12/31/2021 3:00:00 PM 7.35 45.23 0.051 7.05 3.26 12.13
12/31/2021 3:15:00 PM 7.37 45.266 0.051 7.04 3.3 12.09
12/31/2021 3:30:00 PM 7.39 45.302 0.051 7.03 3.25 12.05
12/31/2021 3:45:00 PM 7.39 45.302 0.051 7.01 3.19 11.99
12/31/2021 4:00:00 PM 7.4 45.32 0.051 6.99 3.37 11.93
12/31/2021 4:15:00 PM 7.4 45.32 0.051 6.98 3.46 11.88
12/31/2021 4:30:00 PM 7.4 45.32 0.051 6.97 3.46 11.82
12/31/2021 4:45:00 PM 7.38 45.284 0.051 6.9 3.7 11.78
12/31/2021 5:00:00 PM 7.36 45.248 0.051 6.93 3.54 11.75
12/31/2021 5:15:00 PM 7.33 45.194 0.051 6.91 3.77 11.72
12/31/2021 5:30:00 PM 7.29 45.122 0.051 6.9 3.63 11.7
12/31/2021 5:45:00 PM 7.26 45.068 0.051 6.9 3.67 11.7
12/31/2021 6:00:00 PM 7.22 44.996 0.051 6.88 3.62 11.7
12/31/2021 6:15:00 PM 7.18 44.924 0.051 6.88 3.62 11.7
12/31/2021 6:30:00 PM 7.15 44.87 0.051 6.86 3.9 11.71
12/31/2021 6:45:00 PM 7.12 44.816 0.051 6.87 3.87 11.71
12/31/2021 7:00:00 PM 7.1 44.78 0.051 6.85 3.83 11.71
12/31/2021 7:15:00 PM 7.08 44.744 0.051 6.84 3.87 11.72
12/31/2021 7:30:00 PM 7.05 44.69 0.051 6.86 3.96 11.72
12/31/2021 7:45:00 PM 7.02 44.636 0.051 6.85 3.7 11.73
12/31/2021 8:00:00 PM 6.98 44.564 0.051 6.86 3.87 11.73
12/31/2021 8:15:00 PM 6.94 44.492 0.051 6.84 3.77 11.74
12/31/2021 8:30:00 PM 6.9 44.42 0.051 6.86 3.81 11.75
12/31/2021 8:45:00 PM 6.87 44.366 0.051 6.84 3.93 11.76
12/31/2021 9:00:00 PM 6.84 44.312 0.051 6.86 3.58 11.76
12/31/2021 9:15:00 PM 6.81 44.258 0.051 6.86 3.81 11.77
12/31/2021 9:30:00 PM 6.78 44.204 0.051 6.85 3.69 11.78
12/31/2021 9:45:00 PM 6.74 44.132 0.051 6.85 3.93 11.79
12/31/2021 10:00:00 PM 6.7 44.06 0.051 6.82 3.66 11.8
12/31/2021 10:15:00 PM 6.67 44.006 0.051 6.84 4.04 11.8
12/31/2021 10:30:00 PM 6.64 43.952 0.051 6.83 4.01 11.82
12/31/2021 10:45:00 PM 6.61 43.898 0.051 6.82 3.89 11.82
12/31/2021 11:00:00 PM 6.58 43.844 0.051 6.83 3.7 11.83
12/31/2021 11:15:00 PM 6.56 43.808 0.051 6.81 4.13 11.84
12/31/2021 11:30:00 PM 6.54 43.772 0.051 6.82 3.78 11.85
12/31/2021 11:45:00 PM 6.52 43.736 0.051 6.83 3.88 11.86
1/1/2022 12:00:00 AM 6.5 43.7 0.051 6.84 3.63 11.86
1/1/2022 12:15:00 AM 6.48 43.664 0.051 6.84 3.95 11.87
1/1/2022 12:30:00 AM 6.46 43.628 0.051 6.83 3.76 11.87
1/1/2022 12:45:00 AM 6.44 43.592 0.051 6.83 3.83 11.88
1/1/2022 1:00:00 AM 6.42 43.556 0.051 6.85 3.9 11.88
1/1/2022 1:15:00 AM 6.4 43.52 0.051 6.83 3.85 11.89
1/1/2022 1:30:00 AM 6.38 43.484 0.051 6.83 3.75 11.89
1/1/2022 1:45:00 AM 6.37 43.466 0.051 6.79 3.7 11.89
1/1/2022 2:00:00 AM 6.37 43.466 0.051 6.83 3.6 11.89
1/1/2022 2:15:00 AM 6.36 43.448 0.051 6.85 3.58 11.9
1/1/2022 2:30:00 AM 6.35 43.43 0.051 6.84 3.81 11.9
1/1/2022 2:45:00 AM 6.35 43.43 0.051 6.82 3.9 11.9
1/1/2022 3:00:00 AM 6.34 43.412 0.051 6.85 3.71 11.9
1/1/2022 3:15:00 AM 6.34 43.412 0.051 6.85 3.78 11.9
1/1/2022 3:30:00 AM 6.34 43.412 0.051 6.84 3.68 11.9
1/1/2022 3:45:00 AM 6.34 43.412 0.051 6.85 3.57 11.91
1/1/2022 4:00:00 AM 6.34 43.412 0.051 6.85 3.67 11.91
1/1/2022 4:15:00 AM 6.34 43.412 0.051 6.85 3.85 11.91
1/1/2022 4:30:00 AM 6.34 43.412 0.051 6.84 3.64 11.91
1/1/2022 4:45:00 AM 6.34 43.412 0.051 6.86 3.83 11.91
1/1/2022 5:00:00 AM 6.33 43.394 0.051 6.79 3.66 11.91
1/1/2022 5:15:00 AM 6.32 43.376 0.051 6.84 3.7 11.91
1/1/2022 5:30:00 AM 6.32 43.376 0.051 6.86 3.72 11.91
1/1/2022 5:45:00 AM 6.31 43.358 0.051 6.84 4 11.91
1/1/2022 6:00:00 AM 6.3 43.34 0.051 6.83 3.67 11.91
1/1/2022 6:15:00 AM 6.3 43.34 0.051 6.86 3.79 11.91
1/1/2022 6:30:00 AM 6.29 43.322 0.051 6.85 3.67 11.91
1/1/2022 6:45:00 AM 6.29 43.322 0.051 6.84 3.68 11.91
1/1/2022 7:00:00 AM 6.28 43.304 0.051 6.85 3.61 11.91
1/1/2022 7:15:00 AM 6.28 43.304 0.051 6.85 3.66 11.92
1/1/2022 7:30:00 AM 6.27 43.286 0.051 6.85 3.69 11.92
1/1/2022 7:45:00 AM 6.27 43.286 0.051 6.84 3.5 11.92
1/1/2022 8:00:00 AM 6.26 43.268 0.051 6.85 3.35 11.93
1/1/2022 8:15:00 AM 6.27 43.286 0.051 6.84 3.3 11.93
1/1/2022 8:30:00 AM 6.27 43.286 0.051 6.84 3.35 11.95
1/1/2022 8:45:00 AM 6.28 43.304 0.051 6.81 3.25 11.97
1/1/2022 9:00:00 AM 6.29 43.322 0.051 6.83 3.14 11.99
1/1/2022 9:15:00 AM 6.3 43.34 0.051 6.87 3.47 12.02
1/1/2022 9:30:00 AM 6.32 43.376 0.051 6.88 3.35 12.05
1/1/2022 9:45:00 AM 6.34 43.412 0.051 6.89 3.07 12.09
1/1/2022 10:00:00 AM 6.37 43.466 0.051 6.9 2.99 12.1
1/1/2022 10:15:00 AM 6.39 43.502 0.051 6.92 3.04 12.11
1/1/2022 10:30:00 AM 6.42 43.556 0.051 6.92 2.96 12.13
1/1/2022 10:45:00 AM 6.44 43.592 0.05 6.92 2.99 12.14
1/1/2022 11:00:00 AM 6.47 43.646 0.05 6.94 3.02 12.16
1/1/2022 11:15:00 AM 6.52 43.736 0.05 6.95 2.86 12.19
1/1/2022 11:30:00 AM 6.57 43.826 0.05 6.96 2.88 12.19
1/1/2022 11:45:00 AM 6.6 43.88 0.05 6.97 2.92 12.2
1/1/2022 12:00:00 PM 6.64 43.952 0.05 6.97 2.88 12.19
1/1/2022 12:15:00 PM 6.68 44.024 0.05 6.98 2.75 12.18
1/1/2022 12:30:00 PM 6.73 44.114 0.05 7 2.78 12.19
1/1/2022 12:45:00 PM 6.79 44.222 0.05 6.99 2.92 12.19
1/1/2022 1:00:00 PM 6.83 44.294 0.05 7 2.94 12.18
1/1/2022 1:15:00 PM 6.88 44.384 0.05 7 2.84 12.16
1/1/2022 1:30:00 PM 6.92 44.456 0.05 7.01 2.84 12.14
1/1/2022 1:45:00 PM 6.96 44.528 0.05 7 2.9 12.13
1/1/2022 2:00:00 PM 7 44.6 0.05 6.97 2.86 12.1
1/1/2022 2:15:00 PM 7.04 44.672 0.05 6.99 2.93 12.07
1/1/2022 2:30:00 PM 7.07 44.726 0.05 6.98 2.89 12.03
1/1/2022 2:45:00 PM 7.1 44.78 0.05 6.97 2.86 11.99
1/1/2022 3:00:00 PM 7.13 44.834 0.05 6.98 2.98 11.95
1/1/2022 3:15:00 PM 7.15 44.87 0.05 6.97 2.88 11.9
1/1/2022 3:30:00 PM 7.18 44.924 0.05 6.96 2.92 11.87
1/1/2022 3:45:00 PM 7.2 44.96 0.05 6.95 2.99 11.83
1/1/2022 4:00:00 PM 7.22 44.996 0.05 6.95 3.15 11.8
1/1/2022 4:15:00 PM 7.23 45.014 0.05 6.89 3.1 11.76
1/1/2022 4:30:00 PM 7.24 45.032 0.05 6.92 3.12 11.73
1/1/2022 4:45:00 PM 7.26 45.068 0.05 6.91 3.36 11.7
1/1/2022 5:00:00 PM 7.27 45.086 0.05 6.91 3.02 11.67
1/1/2022 5:15:00 PM 7.28 45.104 0.05 6.9 3.32 11.65
1/1/2022 5:30:00 PM 7.29 45.122 0.05 6.88 3.33 11.63
1/1/2022 5:45:00 PM 7.29 45.122 0.05 6.88 3.7 11.62
1/1/2022 6:00:00 PM 7.3 45.14 0.05 6.87 3.91 11.6
1/1/2022 6:15:00 PM 7.31 45.158 0.05 6.84 3.43 11.6
1/1/2022 6:30:00 PM 7.32 45.176 0.05 6.86 3.6 11.59
1/1/2022 6:45:00 PM 7.33 45.194 0.05 6.85 3.52 11.58
1/1/2022 7:00:00 PM 7.34 45.212 0.05 6.83 3.68 11.57
1/1/2022 7:15:00 PM 7.35 45.23 0.05 6.84 3.64 11.57
1/1/2022 7:30:00 PM 7.35 45.23 0.05 6.84 3.81 11.56
1/1/2022 7:45:00 PM 7.36 45.248 0.05 6.84 3.76 11.55
1/1/2022 8:00:00 PM 7.37 45.266 0.05 6.84 3.63 11.55
1/1/2022 8:15:00 PM 7.38 45.284 0.05 6.84 3.71 11.54
1/1/2022 8:30:00 PM 7.38 45.284 0.05 6.82 3.83 11.54
1/1/2022 8:45:00 PM 7.39 45.302 0.05 6.83 3.79 11.54
1/1/2022 9:00:00 PM 7.4 45.32 0.05 6.8 3.79 11.53
1/1/2022 9:15:00 PM 7.41 45.338 0.05 6.83 3.9 11.53
1/1/2022 9:30:00 PM 7.42 45.356 0.05 6.84 4.33 11.52
1/1/2022 9:45:00 PM 7.43 45.374 0.05 6.84 4.13 11.52
1/1/2022 10:00:00 PM 7.43 45.374 0.05 6.78 4.35 11.52
1/1/2022 10:15:00 PM 7.44 45.392 0.05 6.84 4.65 11.51
1/1/2022 10:30:00 PM 7.45 45.41 0.05 6.79 4.53 11.5
1/1/2022 10:45:00 PM 7.46 45.428 0.051 6.83 4.55 11.5
1/1/2022 11:00:00 PM 7.47 45.446 0.051 6.85 4.65 11.5
1/1/2022 11:15:00 PM 7.48 45.464 0.051 6.85 4.88 11.5
1/1/2022 11:30:00 PM 7.49 45.482 0.051 6.86 5.42 11.5
1/1/2022 11:45:00 PM 7.49 45.482 0.05 6.87 4.78 11.49
1/2/2022 12:00:00 AM 7.49 45.482 0.05 6.86 5.07 11.49
1/2/2022 12:15:00 AM 7.48 45.464 0.05 6.86 4.99 11.5
1/2/2022 12:30:00 AM 7.47 45.446 0.05 6.86 5.4 11.5
1/2/2022 12:45:00 AM 7.47 45.446 0.05 6.86 5.86 11.5
1/2/2022 1:00:00 AM 7.45 45.41 0.05 6.86 6.24 11.5
1/2/2022 1:15:00 AM 7.44 45.392 0.05 6.84 7.43 11.51
1/2/2022 1:30:00 AM 7.42 45.356 0.05 6.86 9.95 11.51
1/2/2022 1:45:00 AM 7.41 45.338 0.05 6.86 9.77 11.51
1/2/2022 2:00:00 AM 7.39 45.302 0.051 6.87 9.02 11.52
1/2/2022 2:15:00 AM 7.37 45.266 0.051 6.84 9.03 11.52
1/2/2022 2:30:00 AM 7.35 45.23 0.051 6.85 9.55 11.53
1/2/2022 2:45:00 AM 7.33 45.194 0.051 6.85 10.48 11.54
1/2/2022 3:00:00 AM 7.31 45.158 0.051 6.83 9.86 11.55
1/2/2022 3:15:00 AM 7.29 45.122 0.051 6.85 9.82 11.55
1/2/2022 3:30:00 AM 7.26 45.068 0.051 6.87 9.58 11.56
1/2/2022 3:45:00 AM 7.24 45.032 0.051 6.87 9.38 11.57
1/2/2022 4:00:00 AM 7.21 44.978 0.052 6.87 9.9 11.58
1/2/2022 4:15:00 AM 7.18 44.924 0.052 6.87 10.05 11.58
1/2/2022 4:30:00 AM 7.16 44.888 0.052 6.86 10.14 11.59
1/2/2022 4:45:00 AM 7.13 44.834 0.052 6.87 9.83 11.6
1/2/2022 5:00:00 AM 7.11 44.798 0.052 6.86 9.87 11.6
1/2/2022 5:15:00 AM 7.08 44.744 0.052 6.87 9.51 11.61
1/2/2022 5:30:00 AM 7.06 44.708 0.052 6.86 9.33 11.62
1/2/2022 5:45:00 AM 7.03 44.654 0.052 6.86 8.92 11.62
1/2/2022 6:00:00 AM 7.01 44.618 0.052 6.85 8.77 11.63
1/2/2022 6:15:00 AM 6.99 44.582 0.052 6.86 8.18 11.64
1/2/2022 6:30:00 AM 6.97 44.546 0.052 6.86 8.22 11.64
1/2/2022 6:45:00 AM 6.95 44.51 0.052 6.84 8.35 11.65
1/2/2022 7:00:00 AM 6.93 44.474 0.052 6.86 8.11 11.66
1/2/2022 7:15:00 AM 6.91 44.438 0.052 6.87 7.84 11.67
1/2/2022 7:30:00 AM 6.89 44.402 0.052 6.88 7.66 11.68
1/2/2022 7:45:00 AM 6.87 44.366 0.052 6.87 7.46 11.68
1/2/2022 8:00:00 AM 6.85 44.33 0.052 6.86 7.29 11.7
1/2/2022 8:15:00 AM 6.83 44.294 0.052 6.86 6.88 11.71
1/2/2022 8:30:00 AM 6.81 44.258 0.052 6.87 6.8 11.73
1/2/2022 8:45:00 AM 6.79 44.222 0.052 6.86 6.53 11.75
1/2/2022 9:00:00 AM 6.77 44.186 0.052 6.84 6.27 11.77
1/2/2022 9:15:00 AM 6.75 44.15 0.052 6.86 5.68 11.8
1/2/2022 9:30:00 AM 6.73 44.114 0.052 6.87 5.8 11.82
1/2/2022 9:45:00 AM 6.71 44.078 0.052 6.86 5.56 11.86
1/2/2022 10:00:00 AM 6.69 44.042 0.052 6.88 5.4 11.88
1/2/2022 10:15:00 AM 6.67 44.006 0.052 6.87 5.22 11.93
1/2/2022 10:30:00 AM 6.66 43.988 0.052 6.91 5.04 11.97
1/2/2022 10:45:00 AM 6.64 43.952 0.052 6.92 5.02 12.01
1/2/2022 11:00:00 AM 6.62 43.916 0.052 6.93 4.94 12.03
1/2/2022 11:15:00 AM 6.62 43.916 0.052 6.89 4.78 12.08
1/2/2022 11:30:00 AM 6.61 43.898 0.052 6.91 4.4 12.1
1/2/2022 11:45:00 AM 6.6 43.88 0.052 6.91 4.41 12.13
1/2/2022 12:00:00 PM 6.59 43.862 0.052 6.92 4.22 12.15
1/2/2022 12:15:00 PM 6.58 43.844 0.052 6.91 4.27 12.16
1/2/2022 12:30:00 PM 6.57 43.826 0.052 6.93 4.26 12.17
1/2/2022 12:45:00 PM 6.57 43.826 0.052 6.92 4.37 12.19
1/2/2022 1:00:00 PM 6.55 43.79 0.052 6.93 4.15 12.18
1/2/2022 1:15:00 PM 6.53 43.754 0.052 6.94 4.04 12.17
1/2/2022 1:30:00 PM 6.51 43.718 0.052 6.94 4.2 12.17
1/2/2022 1:45:00 PM 6.5 43.7 0.052 6.94 3.98 12.19
1/2/2022 2:00:00 PM 6.48 43.664 0.052 6.87 3.86 12.2
1/2/2022 2:15:00 PM 6.47 43.646 0.052 6.92 3.83 12.22
1/2/2022 2:30:00 PM 6.45 43.61 0.052 6.92 3.89 12.23
1/2/2022 2:45:00 PM 6.42 43.556 0.052 6.92 3.79 12.22
1/2/2022 3:00:00 PM 6.38 43.484 0.052 6.91 3.87 12.19
1/2/2022 3:15:00 PM 6.34 43.412 0.052 6.89 3.83 12.16
1/2/2022 3:30:00 PM 6.31 43.358 0.052 6.86 3.6 12.14
1/2/2022 3:45:00 PM 6.27 43.286 0.052 6.88 3.83 12.13
1/2/2022 4:00:00 PM 6.22 43.196 0.052 6.85 3.87 12.12
1/2/2022 4:15:00 PM 6.17 43.106 0.052 6.86 3.76 12.11
1/2/2022 4:30:00 PM 6.12 43.016 0.052 6.84 3.82 12.1
1/2/2022 4:45:00 PM 6.07 42.926 0.052 6.82 3.72 12.1
1/2/2022 5:00:00 PM 6.02 42.836 0.052 6.84 3.87 12.11
1/2/2022 5:15:00 PM 5.97 42.746 0.052 6.84 3.82 12.11
1/2/2022 5:30:00 PM 5.91 42.638 0.052 6.82 4 12.12
1/2/2022 5:45:00 PM 5.86 42.548 0.052 6.82 3.96 12.14
1/2/2022 6:00:00 PM 5.8 42.44 0.052 6.82 3.84 12.15
1/2/2022 6:15:00 PM 5.75 42.35 0.052 6.81 3.95 12.17
1/2/2022 6:30:00 PM 5.7 42.26 0.052 6.79 4.03 12.19
1/2/2022 6:45:00 PM 5.64 42.152 0.052 6.81 4.05 12.2
1/2/2022 7:00:00 PM 5.59 42.062 0.052 6.79 4.15 12.22
1/2/2022 7:15:00 PM 5.54 41.972 0.052 6.79 3.79 12.24
1/2/2022 7:30:00 PM 5.48 41.864 0.052 6.81 3.85 12.25
1/2/2022 7:45:00 PM 5.44 41.792 0.052 6.8 3.91 12.27
1/2/2022 8:00:00 PM 5.39 41.702 0.052 6.81 3.93 12.29
1/2/2022 8:15:00 PM 5.34 41.612 0.052 6.81 3.97 12.31
1/2/2022 8:30:00 PM 5.28 41.504 0.052 6.81 4.01 12.33
1/2/2022 8:45:00 PM 5.24 41.432 0.052 6.79 3.96 12.34
1/2/2022 9:00:00 PM 5.19 41.342 0.052 6.8 3.88 12.36
1/2/2022 9:15:00 PM 5.14 41.252 0.052 6.81 3.86 12.38
1/2/2022 9:30:00 PM 5.09 41.162 0.052 6.8 4.68 12.4
1/2/2022 9:45:00 PM 5.04 41.072 0.052 6.8 4.28 12.41
1/2/2022 10:00:00 PM 4.99 40.982 0.052 6.81 4.39 12.44
1/2/2022 10:15:00 PM 4.95 40.91 0.052 6.8 3.97 12.45
1/2/2022 10:30:00 PM 4.91 40.838 0.052 6.79 4.01 12.46
1/2/2022 10:45:00 PM 4.86 40.748 0.052 6.79 4.23 12.48
1/2/2022 11:00:00 PM 4.82 40.676 0.052 6.73 3.93 12.5
1/2/2022 11:15:00 PM 4.77 40.586 0.052 6.79 3.71 12.52
1/2/2022 11:30:00 PM 4.73 40.514 0.052 6.74 3.79 12.53
1/2/2022 11:45:00 PM 4.68 40.424 0.052 6.75 3.75 12.55
1/3/2022 12:00:00 AM 4.64 40.352 0.052 6.74 3.76 12.57
1/3/2022 12:15:00 AM 4.59 40.262 0.052 6.69 3.59 12.59
1/3/2022 12:30:00 AM 4.55 40.19 0.052 6.73 3.64 12.6
1/3/2022 12:45:00 AM 4.5 40.1 0.052 6.71 3.66 12.62
1/3/2022 1:00:00 AM 4.46 40.028 0.052 6.72 3.59 12.63
1/3/2022 1:15:00 AM 4.41 39.938 0.052 6.71 3.6 12.66
1/3/2022 1:30:00 AM 4.36 39.848 0.052 6.72 3.49 12.68
1/3/2022 1:45:00 AM 4.32 39.776 0.052 6.71 3.56 12.69
1/3/2022 2:00:00 AM 4.27 39.686 0.052 6.71 3.54 12.71
1/3/2022 2:15:00 AM 4.23 39.614 0.052 6.71 3.44 12.72
1/3/2022 2:30:00 AM 4.19 39.542 0.051 6.71 3.57 12.74
1/3/2022 2:45:00 AM 4.14 39.452 0.052 6.69 3.54 12.75
1/3/2022 3:00:00 AM 4.09 39.362 0.051 6.72 3.53 12.77
1/3/2022 3:15:00 AM 4.04 39.272 0.052 6.7 3.71 12.79
1/3/2022 3:30:00 AM 3.99 39.182 0.051 6.71 3.65 12.81
1/3/2022 3:45:00 AM 3.94 39.092 0.051 6.72 3.47 12.83
1/3/2022 4:00:00 AM 3.89 39.002 0.051 6.69 3.56 12.84
1/3/2022 4:15:00 AM 3.85 38.93 0.051 6.7 3.41 12.86
1/3/2022 4:30:00 AM 3.81 38.858 0.051 6.71 3.35 12.88
1/3/2022 4:45:00 AM 3.77 38.786 0.052 6.7 3.49 12.89
1/3/2022 5:00:00 AM 3.73 38.714 0.051 6.7 3.62 12.91
1/3/2022 5:15:00 AM 3.69 38.642 0.051 6.69 3.36 12.92
1/3/2022 5:30:00 AM 3.65 38.57 0.051 6.7 3.37 12.94
1/3/2022 5:45:00 AM 3.61 38.498 0.051 6.7 3.33 12.95
1/3/2022 6:00:00 AM 3.57 38.426 0.051 6.71 3.35 12.96
1/3/2022 6:15:00 AM 3.52 38.336 0.051 6.7 3.34 12.97
1/3/2022 6:30:00 AM 3.48 38.264 0.051 6.71 3.33 12.99
1/3/2022 6:45:00 AM 3.44 38.192 0.051 6.7 3.41 13.01
1/3/2022 7:00:00 AM 3.39 38.102 0.051 6.7 3.35 13.02
1/3/2022 7:15:00 AM 3.34 38.012 0.051 6.7 3.29 13.04
1/3/2022 7:30:00 AM 3.3 37.94 0.051 6.7 3.29 13.05
1/3/2022 7:45:00 AM 3.25 37.85 0.051 6.71 3.22 13.07
1/3/2022 8:00:00 AM 3.21 37.778 0.051 6.69 3.2 13.1
1/3/2022 8:15:00 AM 3.18 37.724 0.051 6.72 3.09 13.13
1/3/2022 8:30:00 AM 3.15 37.67 0.051 6.72 3.15 13.17
1/3/2022 8:45:00 AM 3.12 37.616 0.051 6.73 3.09 13.22
1/3/2022 9:00:00 AM 3.1 37.58 0.051 6.74 3 13.27
1/3/2022 9:15:00 AM 3.08 37.544 0.051 6.74 3.04 13.32
1/3/2022 9:30:00 AM 3.06 37.508 0.051 6.78 2.94 13.36
1/3/2022 9:45:00 AM 3.04 37.472 0.051 6.79 2.95 13.41
1/3/2022 10:00:00 AM 3.02 37.436 0.051 6.79 2.79 13.45
1/3/2022 10:15:00 AM 3 37.4 0.051 6.81 2.85 13.48
1/3/2022 10:30:00 AM 2.99 37.382 0.051 6.82 2.86 13.51
1/3/2022 10:45:00 AM 2.99 37.382 0.051 6.82 2.76 13.54
1/3/2022 11:00:00 AM 2.98 37.364 0.05 6.84 2.81 13.56
1/3/2022 11:15:00 AM 3 37.4 0.051 6.85 2.63 13.57
1/3/2022 11:30:00 AM 3.03 37.454 0.05 6.86 2.65 13.57
1/3/2022 11:45:00 AM 3.08 37.544 0.05 6.81 2.81 13.57
1/3/2022 12:00:00 PM 3.11 37.598 0.05 6.86 2.62 13.57
1/3/2022 12:15:00 PM 3.15 37.67 0.05 6.9 2.59 13.57
1/3/2022 12:30:00 PM 3.18 37.724 0.05 6.87 2.57 13.55
1/3/2022 12:45:00 PM 3.22 37.796 0.05 6.89 2.57 13.55
1/3/2022 1:00:00 PM 3.24 37.832 0.05 6.9 2.59 13.52
1/3/2022 1:15:00 PM 3.27 37.886 0.05 6.93 2.58 13.51
1/3/2022 1:30:00 PM 3.3 37.94 0.05 6.9 2.62 13.49
1/3/2022 1:45:00 PM 3.32 37.976 0.05 6.93 2.59 13.47
1/3/2022 2:00:00 PM 3.33 37.994 0.05 6.9 2.63 13.45
1/3/2022 2:15:00 PM 3.33 37.994 0.05 6.93 2.75 13.44
1/3/2022 2:30:00 PM 3.33 37.994 0.05 6.93 2.55 13.41
1/3/2022 2:45:00 PM 3.32 37.976 0.05 6.9 2.5 13.4
1/3/2022 3:00:00 PM 3.3 37.94 0.05 6.9 2.58 13.39
1/3/2022 3:15:00 PM 3.27 37.886 0.05 6.89 2.6 13.37
1/3/2022 3:30:00 PM 3.21 37.778 0.05 6.89 2.61 13.37
1/3/2022 3:45:00 PM 3.14 37.652 0.05 6.91 2.57 13.37
1/3/2022 4:00:00 PM 3.07 37.526 0.05 6.87 2.49 13.37
1/3/2022 4:15:00 PM 3 37.4 0.05 6.89 2.68 13.37
1/3/2022 4:30:00 PM 2.92 37.256 0.05 6.84 2.55 13.38
1/3/2022 4:45:00 PM 2.85 37.13 0.05 6.87 2.63 13.39
1/3/2022 5:00:00 PM 2.78 37.004 0.05 6.84 2.65 13.39
1/3/2022 5:15:00 PM 2.72 36.896 0.05 6.84 2.62 13.39
1/3/2022 5:30:00 PM 2.66 36.788 0.05 6.84 2.7 13.39
1/3/2022 5:45:00 PM 2.6 36.68 0.05 6.77 2.72 13.4
1/3/2022 6:00:00 PM 2.53 36.554 0.05 6.8 2.73 13.41
1/3/2022 6:15:00 PM 2.47 36.446 0.05 6.79 2.69 13.43
1/3/2022 6:30:00 PM 2.41 36.338 0.05 6.73 2.71 13.44
1/3/2022 6:45:00 PM 2.35 36.23 0.05 6.74 2.76 13.46
1/3/2022 7:00:00 PM 2.31 36.158 0.05 6.73 2.81 13.47
1/3/2022 7:15:00 PM 2.26 36.068 0.05 6.73 2.88 13.49
1/3/2022 7:30:00 PM 2.21 35.978 0.05 6.73 2.87 13.52
1/3/2022 7:45:00 PM 2.17 35.906 0.05 6.73 2.78 13.53
1/3/2022 8:00:00 PM 2.12 35.816 0.05 6.73 2.91 13.54
1/3/2022 8:15:00 PM 2.08 35.744 0.05 6.74 3.03 13.57
1/3/2022 8:30:00 PM 2.04 35.672 0.05 6.72 2.95 13.58
1/3/2022 8:45:00 PM 2 35.6 0.05 6.74 2.98 13.61
1/3/2022 9:00:00 PM 1.96 35.528 0.05 6.71 2.93 13.62
1/3/2022 9:15:00 PM 1.92 35.456 0.05 6.7 2.86 13.63
1/3/2022 9:30:00 PM 1.88 35.384 0.05 6.73 2.89 13.64
1/3/2022 9:45:00 PM 1.85 35.33 0.05 6.73 2.81 13.66
1/3/2022 10:00:00 PM 1.81 35.258 0.05 6.73 2.94 13.68
1/3/2022 10:15:00 PM 1.78 35.204 0.05 6.74 2.94 13.69
1/3/2022 10:30:00 PM 1.74 35.132 0.05 6.72 2.91 13.71
1/3/2022 10:45:00 PM 1.7 35.06 0.05 6.71 2.79 13.73
1/3/2022 11:00:00 PM 1.67 35.006 0.05 6.74 2.89 13.73
1/3/2022 11:15:00 PM 1.64 34.952 0.05 6.7 2.92 13.75
1/3/2022 11:30:00 PM 1.6 34.88 0.05 6.74 2.84 13.76
1/3/2022 11:45:00 PM 1.57 34.826 0.05 6.71 2.89 13.78
1/4/2022 12:00:00 AM 1.54 34.772 0.05 6.74 2.79 13.79
1/4/2022 12:15:00 AM 1.52 34.736 0.05 6.73 2.99 13.81
1/4/2022 12:30:00 AM 1.5 34.7 0.05 6.72 2.94 13.81
1/4/2022 12:45:00 AM 1.48 34.664 0.05 6.74 2.9 13.83
1/4/2022 1:00:00 AM 1.46 34.628 0.05 6.75 2.93 13.84
1/4/2022 1:15:00 AM 1.45 34.61 0.05 6.75 2.83 13.84
1/4/2022 1:30:00 AM 1.44 34.592 0.05 6.74 2.86 13.85
1/4/2022 1:45:00 AM 1.41 34.538 0.05 6.73 2.95 13.86
1/4/2022 2:00:00 AM 1.38 34.484 0.05 6.74 2.9 13.87
1/4/2022 2:15:00 AM 1.35 34.43 0.05 6.76 2.87 13.88
1/4/2022 2:30:00 AM 1.33 34.394 0.05 6.76 2.8 13.89
1/4/2022 2:45:00 AM 1.29 34.322 0.05 6.77 2.81 13.91
1/4/2022 3:00:00 AM 1.27 34.286 0.05 6.72 2.94 13.91
1/4/2022 3:15:00 AM 1.24 34.232 0.05 6.75 2.89 13.92
1/4/2022 3:30:00 AM 1.22 34.196 0.05 6.76 2.9 13.93
1/4/2022 3:45:00 AM 1.19 34.142 0.05 6.75 2.79 13.94
1/4/2022 4:00:00 AM 1.16 34.088 0.05 6.72 2.92 13.95
1/4/2022 4:15:00 AM 1.13 34.034 0.05 6.75 2.91 13.96
1/4/2022 4:30:00 AM 1.1 33.98 0.05 6.76 2.83 13.97
1/4/2022 4:45:00 AM 1.07 33.926 0.05 6.71 2.86 13.98
1/4/2022 5:00:00 AM 1.04 33.872 0.05 6.75 2.9 14
1/4/2022 5:15:00 AM 1.01 33.818 0.05 6.72 2.79 14.01
1/4/2022 5:30:00 AM 0.98 33.764 0.05 6.75 2.87 14.02
1/4/2022 5:45:00 AM 0.96 33.728 0.05 6.75 2.88 14.03
1/4/2022 6:00:00 AM 0.93 33.674 0.05 6.74 2.77 14.04
1/4/2022 6:15:00 AM 0.9 33.62 0.05 6.71 2.75 14.05
1/4/2022 6:30:00 AM 0.87 33.566 0.05 6.76 2.86 14.07
1/4/2022 6:45:00 AM 0.85 33.53 0.05 6.7 2.78 14.07
1/4/2022 7:00:00 AM 0.82 33.476 0.05 6.75 2.75 14.09
1/4/2022 7:15:00 AM 0.79 33.422 0.05 6.76 2.76 14.1
1/4/2022 7:30:00 AM 0.77 33.386 0.05 6.75 2.79 14.11
1/4/2022 7:45:00 AM 0.74 33.332 0.049 6.76 2.74 14.13
1/4/2022 8:00:00 AM 0.72 33.296 0.049 6.76 2.76 14.16
1/4/2022 8:15:00 AM 0.71 33.278 0.05 6.77 2.76 14.2
1/4/2022 8:30:00 AM 0.7 33.26 0.049 6.79 2.65 14.24
1/4/2022 8:45:00 AM 0.7 33.26 0.049 6.8 2.61 14.27
1/4/2022 9:00:00 AM 0.7 33.26 0.049 6.8 2.7 14.3
1/4/2022 9:15:00 AM 0.71 33.278 0.049 6.82 2.6 14.33
1/4/2022 9:30:00 AM 0.73 3